<?xml version='1.0' encoding='UTF-8'?><gpx version="1.1" creator="JPX - https://github.com/jenetics/jpx" xmlns="http://www.topografix.com/GPX/1/1"><trk><trkseg><trkpt lat="40.3760519" lon="9.6963175"><ele>8.0</ele><time>2026-04-19T07:56:35.61Z</time></trkpt><trkpt lat="40.3761277" lon="9.6962927"><ele>8.0</ele><time>2026-04-19T07:56:37.613Z</time></trkpt><trkpt lat="40.3762018" lon="9.6962804"><ele>8.0</ele><time>2026-04-19T07:56:40.594Z</time></trkpt><trkpt lat="40.3763097" lon="9.6963597"><ele>8.0</ele><time>2026-04-19T07:56:42.585Z</time></trkpt><trkpt lat="40.376419" lon="9.6964196"><ele>8.0</ele><time>2026-04-19T07:56:44.587Z</time></trkpt><trkpt lat="40.3765069" lon="9.6964614"><ele>7.833333333333333</ele><time>2026-04-19T07:56:46.588Z</time></trkpt><trkpt lat="40.3765823" lon="9.6965055"><ele>7.666666666666666</ele><time>2026-04-19T07:56:48.609Z</time></trkpt><trkpt lat="40.3766482" lon="9.6965604"><ele>7.5</ele><time>2026-04-19T07:56:50.605Z</time></trkpt><trkpt lat="40.3767229" lon="9.6966269"><ele>7.333333333333334</ele><time>2026-04-19T07:56:52.606Z</time></trkpt><trkpt lat="40.3768096" lon="9.6966891"><ele>7.166666666666667</ele><time>2026-04-19T07:56:54.591Z</time></trkpt><trkpt lat="40.3768892" lon="9.6967428"><ele>7.0</ele><time>2026-04-19T07:56:56.603Z</time></trkpt><trkpt lat="40.3769386" lon="9.6968001"><ele>7.000000000000001</ele><time>2026-04-19T07:56:58.618Z</time></trkpt><trkpt lat="40.3770041" lon="9.6968333"><ele>7.0</ele><time>2026-04-19T07:57:00.613Z</time></trkpt><trkpt lat="40.3770846" lon="9.6968536"><ele>7.0</ele><time>2026-04-19T07:57:02.618Z</time></trkpt><trkpt lat="40.3771553" lon="9.6968577"><ele>7.0</ele><time>2026-04-19T07:57:06.615Z</time></trkpt><trkpt lat="40.3772322" lon="9.6968753"><ele>7.000000000000001</ele><time>2026-04-19T07:57:09.613Z</time></trkpt><trkpt lat="40.3773275" lon="9.6968889"><ele>7.0</ele><time>2026-04-19T07:57:12.62Z</time></trkpt><trkpt lat="40.3774147" lon="9.6969107"><ele>7.0</ele><time>2026-04-19T07:57:14.606Z</time></trkpt><trkpt lat="40.3774754" lon="9.6969398"><ele>6.999999999999999</ele><time>2026-04-19T07:57:16.627Z</time></trkpt><trkpt lat="40.3775752" lon="9.6969596"><ele>6.999999999999999</ele><time>2026-04-19T07:57:18.602Z</time></trkpt><trkpt lat="40.3776678" lon="9.6969689"><ele>7.0</ele><time>2026-04-19T07:57:20.605Z</time></trkpt><trkpt lat="40.3777771" lon="9.6970023"><ele>7.0</ele><time>2026-04-19T07:57:22.602Z</time></trkpt><trkpt lat="40.3778697" lon="9.697014"><ele>7.0</ele><time>2026-04-19T07:57:23.605Z</time></trkpt><trkpt lat="40.3779749" lon="9.6970346"><ele>7.0</ele><time>2026-04-19T07:57:24.599Z</time></trkpt><trkpt lat="40.3780907" lon="9.6970512"><ele>7.0</ele><time>2026-04-19T07:57:25.603Z</time></trkpt><trkpt lat="40.3782095" lon="9.6970712"><ele>7.0</ele><time>2026-04-19T07:57:26.604Z</time></trkpt><trkpt lat="40.3783293" lon="9.6970979"><ele>6.833333333333334</ele><time>2026-04-19T07:57:27.599Z</time></trkpt><trkpt lat="40.378426" lon="9.6971153"><ele>6.666666666666667</ele><time>2026-04-19T07:57:28.599Z</time></trkpt><trkpt lat="40.3785117" lon="9.6971363"><ele>6.5</ele><time>2026-04-19T07:57:29.597Z</time></trkpt><trkpt lat="40.3785829" lon="9.697175"><ele>6.333333333333334</ele><time>2026-04-19T07:57:30.59Z</time></trkpt><trkpt lat="40.3786325" lon="9.6972378"><ele>6.166666666666667</ele><time>2026-04-19T07:57:31.59Z</time></trkpt><trkpt lat="40.3786668" lon="9.6973165"><ele>6.0</ele><time>2026-04-19T07:57:32.59Z</time></trkpt><trkpt lat="40.3786776" lon="9.6974192"><ele>6.0</ele><time>2026-04-19T07:57:33.6Z</time></trkpt><trkpt lat="40.3786675" lon="9.6975345"><ele>6.0</ele><time>2026-04-19T07:57:34.598Z</time></trkpt><trkpt lat="40.3786528" lon="9.6976641"><ele>6.0</ele><time>2026-04-19T07:57:35.593Z</time></trkpt><trkpt lat="40.3786465" lon="9.6977952"><ele>6.0</ele><time>2026-04-19T07:57:36.594Z</time></trkpt><trkpt lat="40.3786494" lon="9.6979201"><ele>6.0</ele><time>2026-04-19T07:57:37.59Z</time></trkpt><trkpt lat="40.3786592" lon="9.6980201"><ele>5.833333333333333</ele><time>2026-04-19T07:57:38.599Z</time></trkpt><trkpt lat="40.3786944" lon="9.698119"><ele>5.666666666666667</ele><time>2026-04-19T07:57:39.594Z</time></trkpt><trkpt lat="40.3787508" lon="9.6982029"><ele>5.5</ele><time>2026-04-19T07:57:40.583Z</time></trkpt><trkpt lat="40.3788274" lon="9.6982823"><ele>5.333333333333334</ele><time>2026-04-19T07:57:41.59Z</time></trkpt><trkpt lat="40.3788988" lon="9.6983455"><ele>5.166666666666667</ele><time>2026-04-19T07:57:42.604Z</time></trkpt><trkpt lat="40.3789646" lon="9.6984022"><ele>5.0</ele><time>2026-04-19T07:57:43.593Z</time></trkpt><trkpt lat="40.3790168" lon="9.6984595"><ele>5.333333333333334</ele><time>2026-04-19T07:57:44.591Z</time></trkpt><trkpt lat="40.3790298" lon="9.6985714"><ele>5.666666666666667</ele><time>2026-04-19T07:57:46.596Z</time></trkpt><trkpt lat="40.378985" lon="9.6986844"><ele>6.0</ele><time>2026-04-19T07:57:48.609Z</time></trkpt><trkpt lat="40.3789692" lon="9.6987865"><ele>6.333333333333334</ele><time>2026-04-19T07:57:50.604Z</time></trkpt><trkpt lat="40.3790068" lon="9.6988585"><ele>6.666666666666667</ele><time>2026-04-19T08:01:15.618Z</time></trkpt><trkpt lat="40.3790699" lon="9.6989173"><ele>7.0</ele><time>2026-04-19T08:01:17.624Z</time></trkpt><trkpt lat="40.3791371" lon="9.6989359"><ele>7.000000000000001</ele><time>2026-04-19T08:01:19.62Z</time></trkpt><trkpt lat="40.3791967" lon="9.6989649"><ele>7.0</ele><time>2026-04-19T08:01:47.637Z</time></trkpt><trkpt lat="40.3792597" lon="9.6989259"><ele>7.0</ele><time>2026-04-19T08:02:44.618Z</time></trkpt><trkpt lat="40.3793408" lon="9.698922"><ele>7.0</ele><time>2026-04-19T08:03:04.646Z</time></trkpt><trkpt lat="40.379399" lon="9.6989625"><ele>7.000000000000001</ele><time>2026-04-19T08:03:06.611Z</time></trkpt><trkpt lat="40.3794851" lon="9.699068"><ele>7.0</ele><time>2026-04-19T08:03:08.61Z</time></trkpt><trkpt lat="40.379572" lon="9.6991702"><ele>7.0</ele><time>2026-04-19T08:03:10.611Z</time></trkpt><trkpt lat="40.3796615" lon="9.6993057"><ele>6.999999999999999</ele><time>2026-04-19T08:03:12.619Z</time></trkpt><trkpt lat="40.3797115" lon="9.6993776"><ele>6.999999999999999</ele><time>2026-04-19T08:03:13.609Z</time></trkpt><trkpt lat="40.3797735" lon="9.6994352"><ele>7.0</ele><time>2026-04-19T08:03:14.605Z</time></trkpt><trkpt lat="40.379828" lon="9.699509"><ele>7.0</ele><time>2026-04-19T08:03:15.602Z</time></trkpt><trkpt lat="40.3798884" lon="9.6995956"><ele>7.0</ele><time>2026-04-19T08:03:16.607Z</time></trkpt><trkpt lat="40.379956" lon="9.6996689"><ele>6.999999999999999</ele><time>2026-04-19T08:03:17.607Z</time></trkpt><trkpt lat="40.3800281" lon="9.6997415"><ele>6.999999999999999</ele><time>2026-04-19T08:03:18.606Z</time></trkpt><trkpt lat="40.38011" lon="9.6998202"><ele>7.0</ele><time>2026-04-19T08:03:19.613Z</time></trkpt><trkpt lat="40.3801898" lon="9.6998929"><ele>7.0</ele><time>2026-04-19T08:03:20.607Z</time></trkpt><trkpt lat="40.3802672" lon="9.6999591"><ele>7.0</ele><time>2026-04-19T08:03:21.612Z</time></trkpt><trkpt lat="40.3803416" lon="9.7000193"><ele>6.999999999999999</ele><time>2026-04-19T08:03:22.612Z</time></trkpt><trkpt lat="40.3804298" lon="9.7000855"><ele>6.999999999999999</ele><time>2026-04-19T08:03:23.611Z</time></trkpt><trkpt lat="40.3805232" lon="9.7001567"><ele>7.0</ele><time>2026-04-19T08:03:24.608Z</time></trkpt><trkpt lat="40.3806229" lon="9.7002325"><ele>7.0</ele><time>2026-04-19T08:03:25.604Z</time></trkpt><trkpt lat="40.3807283" lon="9.7003104"><ele>6.0</ele><time>2026-04-19T08:03:26.606Z</time></trkpt><trkpt lat="40.3808389" lon="9.700381"><ele>5.0</ele><time>2026-04-19T08:03:27.626Z</time></trkpt><trkpt lat="40.3809458" lon="9.7004658"><ele>4.0</ele><time>2026-04-19T08:03:28.618Z</time></trkpt><trkpt lat="40.3810578" lon="9.7005477"><ele>3.0</ele><time>2026-04-19T08:03:29.616Z</time></trkpt><trkpt lat="40.3811573" lon="9.7006243"><ele>3.0</ele><time>2026-04-19T08:03:30.621Z</time></trkpt><trkpt lat="40.3812388" lon="9.7006918"><ele>3.0</ele><time>2026-04-19T08:03:31.623Z</time></trkpt><trkpt lat="40.3813219" lon="9.7007571"><ele>3.0</ele><time>2026-04-19T08:03:32.623Z</time></trkpt><trkpt lat="40.3813984" lon="9.700814"><ele>3.0</ele><time>2026-04-19T08:03:33.625Z</time></trkpt><trkpt lat="40.3814862" lon="9.7008742"><ele>3.0</ele><time>2026-04-19T08:03:34.641Z</time></trkpt><trkpt lat="40.3815714" lon="9.7009354"><ele>3.0</ele><time>2026-04-19T08:03:35.629Z</time></trkpt><trkpt lat="40.3816604" lon="9.700997"><ele>3.0</ele><time>2026-04-19T08:03:36.636Z</time></trkpt><trkpt lat="40.3817516" lon="9.7010695"><ele>3.0</ele><time>2026-04-19T08:03:37.63Z</time></trkpt><trkpt lat="40.3818473" lon="9.7011406"><ele>3.0</ele><time>2026-04-19T08:03:38.633Z</time></trkpt><trkpt lat="40.3819483" lon="9.7012207"><ele>3.0</ele><time>2026-04-19T08:03:39.634Z</time></trkpt><trkpt lat="40.3820583" lon="9.7013"><ele>3.0</ele><time>2026-04-19T08:03:40.632Z</time></trkpt><trkpt lat="40.3821649" lon="9.7013779"><ele>3.0</ele><time>2026-04-19T08:03:41.633Z</time></trkpt><trkpt lat="40.382267" lon="9.7014565"><ele>3.0</ele><time>2026-04-19T08:03:42.635Z</time></trkpt><trkpt lat="40.3823689" lon="9.7015322"><ele>3.0</ele><time>2026-04-19T08:03:43.637Z</time></trkpt><trkpt lat="40.3824687" lon="9.701611"><ele>3.4</ele><time>2026-04-19T08:03:44.632Z</time></trkpt><trkpt lat="40.3825697" lon="9.7016771"><ele>3.8</ele><time>2026-04-19T08:03:45.635Z</time></trkpt><trkpt lat="40.3826671" lon="9.7017385"><ele>4.2</ele><time>2026-04-19T08:03:46.634Z</time></trkpt><trkpt lat="40.3827636" lon="9.7018126"><ele>4.6</ele><time>2026-04-19T08:03:47.638Z</time></trkpt><trkpt lat="40.3828579" lon="9.7018811"><ele>5.0</ele><time>2026-04-19T08:03:48.637Z</time></trkpt><trkpt lat="40.3829513" lon="9.7019505"><ele>5.0</ele><time>2026-04-19T08:03:49.629Z</time></trkpt><trkpt lat="40.3831409" lon="9.7020987"><ele>5.0</ele><time>2026-04-19T08:03:51.638Z</time></trkpt><trkpt lat="40.3832488" lon="9.7021804"><ele>5.0</ele><time>2026-04-19T08:03:52.637Z</time></trkpt><trkpt lat="40.3833639" lon="9.7022714"><ele>5.0</ele><time>2026-04-19T08:03:53.633Z</time></trkpt><trkpt lat="40.3834893" lon="9.702366"><ele>5.0</ele><time>2026-04-19T08:03:54.626Z</time></trkpt><trkpt lat="40.3836107" lon="9.7024638"><ele>5.0</ele><time>2026-04-19T08:03:55.627Z</time></trkpt><trkpt lat="40.3837321" lon="9.7025591"><ele>5.0</ele><time>2026-04-19T08:03:56.631Z</time></trkpt><trkpt lat="40.3838571" lon="9.7026475"><ele>5.0</ele><time>2026-04-19T08:03:57.63Z</time></trkpt><trkpt lat="40.3839762" lon="9.7027304"><ele>5.0</ele><time>2026-04-19T08:03:58.642Z</time></trkpt><trkpt lat="40.384103" lon="9.7028212"><ele>5.0</ele><time>2026-04-19T08:03:59.627Z</time></trkpt><trkpt lat="40.3842298" lon="9.7028992"><ele>5.0</ele><time>2026-04-19T08:04:00.631Z</time></trkpt><trkpt lat="40.3843453" lon="9.7029864"><ele>5.0</ele><time>2026-04-19T08:04:01.631Z</time></trkpt><trkpt lat="40.3844516" lon="9.7030723"><ele>5.0</ele><time>2026-04-19T08:04:02.63Z</time></trkpt><trkpt lat="40.3845548" lon="9.7031572"><ele>5.0</ele><time>2026-04-19T08:04:03.63Z</time></trkpt><trkpt lat="40.3846701" lon="9.7032453"><ele>5.0</ele><time>2026-04-19T08:04:04.629Z</time></trkpt><trkpt lat="40.3847709" lon="9.703344"><ele>4.5</ele><time>2026-04-19T08:04:05.633Z</time></trkpt><trkpt lat="40.3849049" lon="9.7034353"><ele>4.0</ele><time>2026-04-19T08:04:06.632Z</time></trkpt><trkpt lat="40.3850235" lon="9.7035261"><ele>3.5</ele><time>2026-04-19T08:04:07.636Z</time></trkpt><trkpt lat="40.3851617" lon="9.7036193"><ele>3.0</ele><time>2026-04-19T08:04:08.636Z</time></trkpt><trkpt lat="40.3852755" lon="9.7037056"><ele>3.0</ele><time>2026-04-19T08:04:09.633Z</time></trkpt><trkpt lat="40.3853906" lon="9.7037718"><ele>3.0</ele><time>2026-04-19T08:04:10.632Z</time></trkpt><trkpt lat="40.3854562" lon="9.7038225"><ele>3.0</ele><time>2026-04-19T08:04:11.624Z</time></trkpt><trkpt lat="40.3855166" lon="9.7038849"><ele>3.0</ele><time>2026-04-19T08:04:12.625Z</time></trkpt><trkpt lat="40.3855342" lon="9.7039785"><ele>3.0</ele><time>2026-04-19T08:04:13.631Z</time></trkpt><trkpt lat="40.3855423" lon="9.704079"><ele>3.0</ele><time>2026-04-19T08:04:14.622Z</time></trkpt><trkpt lat="40.3855332" lon="9.7041876"><ele>3.0</ele><time>2026-04-19T08:04:15.622Z</time></trkpt><trkpt lat="40.3854941" lon="9.7043062"><ele>3.0</ele><time>2026-04-19T08:04:16.635Z</time></trkpt><trkpt lat="40.385454" lon="9.7044377"><ele>3.0</ele><time>2026-04-19T08:04:17.627Z</time></trkpt><trkpt lat="40.3854176" lon="9.7045699"><ele>3.0</ele><time>2026-04-19T08:04:18.63Z</time></trkpt><trkpt lat="40.3853885" lon="9.7047053"><ele>3.0</ele><time>2026-04-19T08:04:19.642Z</time></trkpt><trkpt lat="40.3853555" lon="9.7048332"><ele>3.0</ele><time>2026-04-19T08:04:20.643Z</time></trkpt><trkpt lat="40.3853228" lon="9.704963"><ele>3.0</ele><time>2026-04-19T08:04:21.704Z</time></trkpt><trkpt lat="40.3852892" lon="9.705095"><ele>3.0</ele><time>2026-04-19T08:04:22.714Z</time></trkpt><trkpt lat="40.3852578" lon="9.7052294"><ele>3.0</ele><time>2026-04-19T08:04:23.704Z</time></trkpt><trkpt lat="40.3852259" lon="9.7053678"><ele>3.0</ele><time>2026-04-19T08:04:24.71Z</time></trkpt><trkpt lat="40.3851914" lon="9.7055097"><ele>3.0</ele><time>2026-04-19T08:04:25.712Z</time></trkpt><trkpt lat="40.3851527" lon="9.7056571"><ele>3.0</ele><time>2026-04-19T08:04:26.71Z</time></trkpt><trkpt lat="40.3851127" lon="9.7058138"><ele>3.0</ele><time>2026-04-19T08:04:27.71Z</time></trkpt><trkpt lat="40.3850741" lon="9.7059758"><ele>3.0</ele><time>2026-04-19T08:04:28.712Z</time></trkpt><trkpt lat="40.3850348" lon="9.7061402"><ele>3.0</ele><time>2026-04-19T08:04:29.726Z</time></trkpt><trkpt lat="40.3849948" lon="9.7063123"><ele>3.0</ele><time>2026-04-19T08:04:30.722Z</time></trkpt><trkpt lat="40.3849522" lon="9.7064817"><ele>3.0</ele><time>2026-04-19T08:04:31.714Z</time></trkpt><trkpt lat="40.3848979" lon="9.7066392"><ele>3.0</ele><time>2026-04-19T08:04:32.711Z</time></trkpt><trkpt lat="40.3848573" lon="9.7067887"><ele>3.0</ele><time>2026-04-19T08:04:33.714Z</time></trkpt><trkpt lat="40.3848226" lon="9.7069403"><ele>3.0</ele><time>2026-04-19T08:04:34.709Z</time></trkpt><trkpt lat="40.3847882" lon="9.7071015"><ele>3.0</ele><time>2026-04-19T08:04:35.71Z</time></trkpt><trkpt lat="40.3847495" lon="9.7072676"><ele>3.0</ele><time>2026-04-19T08:04:36.706Z</time></trkpt><trkpt lat="40.3847045" lon="9.7074333"><ele>3.0</ele><time>2026-04-19T08:04:37.708Z</time></trkpt><trkpt lat="40.3846548" lon="9.7076023"><ele>3.0</ele><time>2026-04-19T08:04:38.712Z</time></trkpt><trkpt lat="40.3846082" lon="9.7077596"><ele>3.0</ele><time>2026-04-19T08:04:39.704Z</time></trkpt><trkpt lat="40.3845668" lon="9.7078868"><ele>3.0</ele><time>2026-04-19T08:04:40.702Z</time></trkpt><trkpt lat="40.3845339" lon="9.7079889"><ele>3.0</ele><time>2026-04-19T08:04:41.694Z</time></trkpt><trkpt lat="40.3845114" lon="9.7080663"><ele>3.0</ele><time>2026-04-19T08:04:42.68Z</time></trkpt><trkpt lat="40.3845009" lon="9.7081787"><ele>3.0</ele><time>2026-04-19T08:04:44.691Z</time></trkpt><trkpt lat="40.3845342" lon="9.7082859"><ele>3.0</ele><time>2026-04-19T08:04:46.698Z</time></trkpt><trkpt lat="40.3845752" lon="9.7083997"><ele>3.0</ele><time>2026-04-19T08:04:48.681Z</time></trkpt><trkpt lat="40.3846186" lon="9.7085045"><ele>3.0</ele><time>2026-04-19T08:04:50.691Z</time></trkpt><trkpt lat="40.3846515" lon="9.7085775"><ele>2.9999999999999996</ele><time>2026-04-19T08:04:53.717Z</time></trkpt><trkpt lat="40.3846797" lon="9.7086567"><ele>3.0</ele><time>2026-04-19T08:05:18.631Z</time></trkpt><trkpt lat="40.3846984" lon="9.7087449"><ele>3.0</ele><time>2026-04-19T08:05:23.631Z</time></trkpt><trkpt lat="40.3846864" lon="9.7086636"><ele>3.0</ele><time>2026-04-19T08:05:35.626Z</time></trkpt><trkpt lat="40.3846544" lon="9.7085686"><ele>3.0</ele><time>2026-04-19T08:05:37.623Z</time></trkpt><trkpt lat="40.3846461" lon="9.7084728"><ele>2.9999999999999996</ele><time>2026-04-19T08:05:43.621Z</time></trkpt><trkpt lat="40.3847312" lon="9.7084595"><ele>3.0</ele><time>2026-04-19T08:05:47.633Z</time></trkpt><trkpt lat="40.3848223" lon="9.7084688"><ele>2.8333333333333335</ele><time>2026-04-19T08:05:49.622Z</time></trkpt><trkpt lat="40.3849121" lon="9.708485"><ele>2.6666666666666665</ele><time>2026-04-19T08:05:50.622Z</time></trkpt><trkpt lat="40.3850035" lon="9.7084997"><ele>2.5</ele><time>2026-04-19T08:05:51.624Z</time></trkpt><trkpt lat="40.3850876" lon="9.7085116"><ele>2.333333333333333</ele><time>2026-04-19T08:05:52.621Z</time></trkpt><trkpt lat="40.3851622" lon="9.7085298"><ele>2.1666666666666665</ele><time>2026-04-19T08:05:53.618Z</time></trkpt><trkpt lat="40.3852295" lon="9.7085501"><ele>2.0</ele><time>2026-04-19T08:05:54.621Z</time></trkpt><trkpt lat="40.3853024" lon="9.7085694"><ele>1.9999999999999998</ele><time>2026-04-19T08:05:55.622Z</time></trkpt><trkpt lat="40.3853775" lon="9.7085865"><ele>2.0</ele><time>2026-04-19T08:05:56.616Z</time></trkpt><trkpt lat="40.3854485" lon="9.7086019"><ele>2.0</ele><time>2026-04-19T08:05:57.616Z</time></trkpt><trkpt lat="40.385521" lon="9.7086168"><ele>2.0</ele><time>2026-04-19T08:05:58.619Z</time></trkpt><trkpt lat="40.3856044" lon="9.7086416"><ele>1.9999999999999998</ele><time>2026-04-19T08:05:59.62Z</time></trkpt><trkpt lat="40.385678" lon="9.7086742"><ele>2.0</ele><time>2026-04-19T08:06:00.627Z</time></trkpt><trkpt lat="40.3857887" lon="9.7087079"><ele>1.9999999999999998</ele><time>2026-04-19T08:06:02.614Z</time></trkpt><trkpt lat="40.3858731" lon="9.7086576"><ele>2.0</ele><time>2026-04-19T08:06:04.609Z</time></trkpt><trkpt lat="40.3859275" lon="9.708517"><ele>2.0</ele><time>2026-04-19T08:06:06.618Z</time></trkpt><trkpt lat="40.3859613" lon="9.708428"><ele>2.0</ele><time>2026-04-19T08:06:07.613Z</time></trkpt><trkpt lat="40.3860013" lon="9.7083368"><ele>1.9999999999999998</ele><time>2026-04-19T08:06:08.618Z</time></trkpt><trkpt lat="40.3860467" lon="9.7082605"><ele>2.0</ele><time>2026-04-19T08:06:09.619Z</time></trkpt><trkpt lat="40.3860969" lon="9.7081985"><ele>2.0</ele><time>2026-04-19T08:06:10.615Z</time></trkpt><trkpt lat="40.3861539" lon="9.7081356"><ele>2.0</ele><time>2026-04-19T08:06:11.616Z</time></trkpt><trkpt lat="40.3862475" lon="9.7080266"><ele>2.0</ele><time>2026-04-19T08:06:13.614Z</time></trkpt><trkpt lat="40.386298" lon="9.7079729"><ele>2.0</ele><time>2026-04-19T08:06:14.618Z</time></trkpt><trkpt lat="40.3863792" lon="9.7078831"><ele>2.0</ele><time>2026-04-19T08:06:16.616Z</time></trkpt><trkpt lat="40.3864658" lon="9.7078405"><ele>2.0</ele><time>2026-04-19T08:06:18.607Z</time></trkpt><trkpt lat="40.386573" lon="9.7078639"><ele>2.0</ele><time>2026-04-19T08:06:20.61Z</time></trkpt><trkpt lat="40.3866689" lon="9.707822"><ele>2.0</ele><time>2026-04-19T08:06:22.623Z</time></trkpt><trkpt lat="40.3867175" lon="9.7077311"><ele>2.0</ele><time>2026-04-19T08:06:24.624Z</time></trkpt><trkpt lat="40.3867453" lon="9.7076352"><ele>2.0</ele><time>2026-04-19T08:06:26.625Z</time></trkpt><trkpt lat="40.386783" lon="9.7075171"><ele>1.8333333333333333</ele><time>2026-04-19T08:06:28.607Z</time></trkpt><trkpt lat="40.3868411" lon="9.7073597"><ele>1.6666666666666665</ele><time>2026-04-19T08:06:30.607Z</time></trkpt><trkpt lat="40.3868839" lon="9.707269"><ele>1.5</ele><time>2026-04-19T08:06:31.598Z</time></trkpt><trkpt lat="40.3869312" lon="9.7071885"><ele>1.3333333333333333</ele><time>2026-04-19T08:06:32.608Z</time></trkpt><trkpt lat="40.3869715" lon="9.7071079"><ele>1.1666666666666665</ele><time>2026-04-19T08:06:33.591Z</time></trkpt><trkpt lat="40.3870082" lon="9.7070385"><ele>1.0</ele><time>2026-04-19T08:06:34.598Z</time></trkpt><trkpt lat="40.3870318" lon="9.7069601"><ele>1.1428571428571428</ele><time>2026-04-19T08:06:35.598Z</time></trkpt><trkpt lat="40.3870586" lon="9.7068673"><ele>1.2857142857142856</ele><time>2026-04-19T08:06:36.606Z</time></trkpt><trkpt lat="40.3870905" lon="9.7067732"><ele>1.4285714285714284</ele><time>2026-04-19T08:06:37.613Z</time></trkpt><trkpt lat="40.3871284" lon="9.706692"><ele>1.5714285714285714</ele><time>2026-04-19T08:06:38.613Z</time></trkpt><trkpt lat="40.3871552" lon="9.7066145"><ele>1.714285714285714</ele><time>2026-04-19T08:06:39.616Z</time></trkpt><trkpt lat="40.3871814" lon="9.7065392"><ele>1.857142857142857</ele><time>2026-04-19T08:06:40.616Z</time></trkpt><trkpt lat="40.3872091" lon="9.7064611"><ele>2.0</ele><time>2026-04-19T08:06:41.616Z</time></trkpt><trkpt lat="40.3872387" lon="9.7063816"><ele>1.9999999999999998</ele><time>2026-04-19T08:06:42.617Z</time></trkpt><trkpt lat="40.3872716" lon="9.7063095"><ele>2.0</ele><time>2026-04-19T08:06:43.619Z</time></trkpt><trkpt lat="40.3873288" lon="9.7061978"><ele>2.0</ele><time>2026-04-19T08:06:45.616Z</time></trkpt><trkpt lat="40.3873747" lon="9.706141"><ele>2.0</ele><time>2026-04-19T08:06:47.625Z</time></trkpt><trkpt lat="40.3874434" lon="9.70616"><ele>1.9999999999999998</ele><time>2026-04-19T08:06:50.627Z</time></trkpt><trkpt lat="40.387484" lon="9.7062947"><ele>2.0</ele><time>2026-04-19T08:07:03.633Z</time></trkpt><trkpt lat="40.3875142" lon="9.7063974"><ele>2.0</ele><time>2026-04-19T08:07:04.611Z</time></trkpt><trkpt lat="40.3875482" lon="9.7065131"><ele>2.0</ele><time>2026-04-19T08:07:05.605Z</time></trkpt><trkpt lat="40.3875956" lon="9.706669"><ele>2.0</ele><time>2026-04-19T08:07:06.607Z</time></trkpt><trkpt lat="40.3876438" lon="9.7067985"><ele>2.0</ele><time>2026-04-19T08:07:07.611Z</time></trkpt><trkpt lat="40.3876892" lon="9.7069098"><ele>2.0</ele><time>2026-04-19T08:07:08.616Z</time></trkpt><trkpt lat="40.3877441" lon="9.7070158"><ele>2.0</ele><time>2026-04-19T08:07:09.614Z</time></trkpt><trkpt lat="40.3877986" lon="9.7071375"><ele>2.0</ele><time>2026-04-19T08:07:10.611Z</time></trkpt><trkpt lat="40.3878528" lon="9.7072561"><ele>2.0</ele><time>2026-04-19T08:07:11.612Z</time></trkpt><trkpt lat="40.3879138" lon="9.7073617"><ele>2.0</ele><time>2026-04-19T08:07:12.611Z</time></trkpt><trkpt lat="40.3879747" lon="9.7074635"><ele>2.0</ele><time>2026-04-19T08:07:13.617Z</time></trkpt><trkpt lat="40.3880269" lon="9.7075509"><ele>1.9999999999999998</ele><time>2026-04-19T08:07:14.613Z</time></trkpt><trkpt lat="40.3880788" lon="9.7076358"><ele>2.0</ele><time>2026-04-19T08:07:15.614Z</time></trkpt><trkpt lat="40.3881295" lon="9.7077178"><ele>2.0</ele><time>2026-04-19T08:07:16.612Z</time></trkpt><trkpt lat="40.3881858" lon="9.7078057"><ele>2.0</ele><time>2026-04-19T08:07:17.615Z</time></trkpt><trkpt lat="40.3882479" lon="9.7078981"><ele>1.9999999999999998</ele><time>2026-04-19T08:07:18.615Z</time></trkpt><trkpt lat="40.3883116" lon="9.7079925"><ele>2.0</ele><time>2026-04-19T08:07:19.616Z</time></trkpt><trkpt lat="40.3883673" lon="9.7080923"><ele>1.9999999999999998</ele><time>2026-04-19T08:07:20.616Z</time></trkpt><trkpt lat="40.388425" lon="9.7081933"><ele>2.0</ele><time>2026-04-19T08:07:21.617Z</time></trkpt><trkpt lat="40.3884823" lon="9.7082816"><ele>2.0</ele><time>2026-04-19T08:07:22.619Z</time></trkpt><trkpt lat="40.3885344" lon="9.7083709"><ele>2.0</ele><time>2026-04-19T08:07:23.617Z</time></trkpt><trkpt lat="40.3885874" lon="9.7084459"><ele>1.9999999999999998</ele><time>2026-04-19T08:07:24.614Z</time></trkpt><trkpt lat="40.3886378" lon="9.70851"><ele>2.0</ele><time>2026-04-19T08:07:25.615Z</time></trkpt><trkpt lat="40.3887332" lon="9.7086301"><ele>1.9999999999999998</ele><time>2026-04-19T08:07:27.622Z</time></trkpt><trkpt lat="40.3887899" lon="9.7086923"><ele>2.0</ele><time>2026-04-19T08:07:28.611Z</time></trkpt><trkpt lat="40.3888458" lon="9.7087664"><ele>2.0</ele><time>2026-04-19T08:07:29.609Z</time></trkpt><trkpt lat="40.3888858" lon="9.7088523"><ele>2.0</ele><time>2026-04-19T08:07:30.619Z</time></trkpt><trkpt lat="40.3889046" lon="9.7089424"><ele>1.9999999999999998</ele><time>2026-04-19T08:07:31.611Z</time></trkpt><trkpt lat="40.3889208" lon="9.7090448"><ele>2.0</ele><time>2026-04-19T08:07:32.6Z</time></trkpt><trkpt lat="40.3889454" lon="9.7091492"><ele>1.9999999999999998</ele><time>2026-04-19T08:07:33.609Z</time></trkpt><trkpt lat="40.388962" lon="9.7092587"><ele>2.0</ele><time>2026-04-19T08:07:34.623Z</time></trkpt><trkpt lat="40.3889941" lon="9.709331"><ele>2.0</ele><time>2026-04-19T08:07:35.614Z</time></trkpt><trkpt lat="40.3890658" lon="9.7093678"><ele>2.0</ele><time>2026-04-19T08:07:36.611Z</time></trkpt><trkpt lat="40.3891548" lon="9.709406"><ele>1.9999999999999998</ele><time>2026-04-19T08:07:37.615Z</time></trkpt><trkpt lat="40.3892423" lon="9.7094398"><ele>2.0</ele><time>2026-04-19T08:07:38.619Z</time></trkpt><trkpt lat="40.3893263" lon="9.7094865"><ele>2.0</ele><time>2026-04-19T08:07:39.616Z</time></trkpt><trkpt lat="40.3894137" lon="9.7095341"><ele>2.0</ele><time>2026-04-19T08:07:40.618Z</time></trkpt><trkpt lat="40.3894934" lon="9.7095756"><ele>2.0</ele><time>2026-04-19T08:07:41.62Z</time></trkpt><trkpt lat="40.3895694" lon="9.7096249"><ele>2.0</ele><time>2026-04-19T08:07:42.621Z</time></trkpt><trkpt lat="40.3896573" lon="9.7096688"><ele>2.0</ele><time>2026-04-19T08:07:43.622Z</time></trkpt><trkpt lat="40.3897454" lon="9.7097271"><ele>1.9999999999999998</ele><time>2026-04-19T08:07:44.616Z</time></trkpt><trkpt lat="40.3898316" lon="9.7097912"><ele>2.0</ele><time>2026-04-19T08:07:45.618Z</time></trkpt><trkpt lat="40.3898978" lon="9.7098539"><ele>2.0</ele><time>2026-04-19T08:07:46.618Z</time></trkpt><trkpt lat="40.3899606" lon="9.7099075"><ele>2.0</ele><time>2026-04-19T08:07:47.606Z</time></trkpt><trkpt lat="40.3900191" lon="9.7099442"><ele>1.9999999999999998</ele><time>2026-04-19T08:07:48.611Z</time></trkpt><trkpt lat="40.390119" lon="9.7100148"><ele>2.0</ele><time>2026-04-19T08:07:50.617Z</time></trkpt><trkpt lat="40.3901953" lon="9.7100792"><ele>2.0</ele><time>2026-04-19T08:07:52.601Z</time></trkpt><trkpt lat="40.3902098" lon="9.7101717"><ele>2.0</ele><time>2026-04-19T08:07:54.609Z</time></trkpt><trkpt lat="40.3901314" lon="9.7103061"><ele>2.0</ele><time>2026-04-19T08:07:56.604Z</time></trkpt><trkpt lat="40.3900707" lon="9.7103972"><ele>2.0</ele><time>2026-04-19T08:07:57.616Z</time></trkpt><trkpt lat="40.3899895" lon="9.710511"><ele>2.0</ele><time>2026-04-19T08:07:58.611Z</time></trkpt><trkpt lat="40.3899124" lon="9.7106139"><ele>2.0</ele><time>2026-04-19T08:07:59.609Z</time></trkpt><trkpt lat="40.3898443" lon="9.7107003"><ele>2.0</ele><time>2026-04-19T08:08:00.619Z</time></trkpt><trkpt lat="40.3897808" lon="9.7107884"><ele>2.0</ele><time>2026-04-19T08:08:01.608Z</time></trkpt><trkpt lat="40.3897135" lon="9.710887"><ele>2.0</ele><time>2026-04-19T08:08:02.611Z</time></trkpt><trkpt lat="40.389645" lon="9.7109833"><ele>2.0</ele><time>2026-04-19T08:08:03.611Z</time></trkpt><trkpt lat="40.3895716" lon="9.7110804"><ele>2.0</ele><time>2026-04-19T08:08:04.609Z</time></trkpt><trkpt lat="40.3895063" lon="9.7111903"><ele>2.0</ele><time>2026-04-19T08:08:05.629Z</time></trkpt><trkpt lat="40.3894458" lon="9.7112901"><ele>2.0</ele><time>2026-04-19T08:08:06.613Z</time></trkpt><trkpt lat="40.3893692" lon="9.7113802"><ele>2.0</ele><time>2026-04-19T08:08:07.616Z</time></trkpt><trkpt lat="40.3892917" lon="9.7114655"><ele>2.0</ele><time>2026-04-19T08:08:08.615Z</time></trkpt><trkpt lat="40.3892233" lon="9.7115436"><ele>1.9999999999999998</ele><time>2026-04-19T08:08:09.614Z</time></trkpt><trkpt lat="40.3891579" lon="9.7116172"><ele>2.0</ele><time>2026-04-19T08:08:10.612Z</time></trkpt><trkpt lat="40.3890932" lon="9.7116881"><ele>2.0</ele><time>2026-04-19T08:08:11.615Z</time></trkpt><trkpt lat="40.3890345" lon="9.7117526"><ele>2.0</ele><time>2026-04-19T08:08:12.615Z</time></trkpt><trkpt lat="40.3889824" lon="9.7118076"><ele>1.9999999999999998</ele><time>2026-04-19T08:08:13.612Z</time></trkpt><trkpt lat="40.3889333" lon="9.7118736"><ele>2.0</ele><time>2026-04-19T08:08:14.615Z</time></trkpt><trkpt lat="40.388881" lon="9.711945"><ele>2.0</ele><time>2026-04-19T08:08:15.617Z</time></trkpt><trkpt lat="40.3888166" lon="9.7120222"><ele>2.0</ele><time>2026-04-19T08:08:16.615Z</time></trkpt><trkpt lat="40.3887509" lon="9.7121167"><ele>2.0</ele><time>2026-04-19T08:08:17.613Z</time></trkpt><trkpt lat="40.3886837" lon="9.712205"><ele>2.0</ele><time>2026-04-19T08:08:18.62Z</time></trkpt><trkpt lat="40.3886143" lon="9.7123064"><ele>2.0</ele><time>2026-04-19T08:08:19.613Z</time></trkpt><trkpt lat="40.3885436" lon="9.7124163"><ele>2.0</ele><time>2026-04-19T08:08:20.615Z</time></trkpt><trkpt lat="40.388469" lon="9.7125285"><ele>2.0</ele><time>2026-04-19T08:08:21.62Z</time></trkpt><trkpt lat="40.3883891" lon="9.7126394"><ele>2.0</ele><time>2026-04-19T08:08:22.617Z</time></trkpt><trkpt lat="40.3883134" lon="9.7127568"><ele>2.0</ele><time>2026-04-19T08:08:23.615Z</time></trkpt><trkpt lat="40.3882446" lon="9.7128692"><ele>2.0</ele><time>2026-04-19T08:08:24.618Z</time></trkpt><trkpt lat="40.3881699" lon="9.7129717"><ele>2.0</ele><time>2026-04-19T08:08:25.617Z</time></trkpt><trkpt lat="40.3880937" lon="9.7130788"><ele>2.0</ele><time>2026-04-19T08:08:26.615Z</time></trkpt><trkpt lat="40.3880205" lon="9.7131873"><ele>2.0</ele><time>2026-04-19T08:08:27.619Z</time></trkpt><trkpt lat="40.3879418" lon="9.7132966"><ele>2.0</ele><time>2026-04-19T08:08:28.62Z</time></trkpt><trkpt lat="40.3878695" lon="9.7133988"><ele>1.8333333333333333</ele><time>2026-04-19T08:08:29.616Z</time></trkpt><trkpt lat="40.3878089" lon="9.7134895"><ele>1.6666666666666665</ele><time>2026-04-19T08:08:30.619Z</time></trkpt><trkpt lat="40.3877568" lon="9.7135684"><ele>1.5</ele><time>2026-04-19T08:08:31.611Z</time></trkpt><trkpt lat="40.3877017" lon="9.713636"><ele>1.3333333333333333</ele><time>2026-04-19T08:08:32.613Z</time></trkpt><trkpt lat="40.3876421" lon="9.7136975"><ele>1.1666666666666665</ele><time>2026-04-19T08:08:33.609Z</time></trkpt><trkpt lat="40.3875805" lon="9.7137831"><ele>1.0</ele><time>2026-04-19T08:08:34.614Z</time></trkpt><trkpt lat="40.3875285" lon="9.7138791"><ele>1.0</ele><time>2026-04-19T08:08:35.611Z</time></trkpt><trkpt lat="40.3874776" lon="9.7139774"><ele>1.0</ele><time>2026-04-19T08:08:36.629Z</time></trkpt><trkpt lat="40.3874334" lon="9.7140581"><ele>1.0</ele><time>2026-04-19T08:08:37.604Z</time></trkpt><trkpt lat="40.3873703" lon="9.7141709"><ele>1.0</ele><time>2026-04-19T08:08:39.619Z</time></trkpt><trkpt lat="40.3873335" lon="9.7142747"><ele>1.0</ele><time>2026-04-19T08:08:41.612Z</time></trkpt><trkpt lat="40.3872898" lon="9.7144142"><ele>1.1428571428571428</ele><time>2026-04-19T08:08:43.617Z</time></trkpt><trkpt lat="40.3872632" lon="9.7144952"><ele>1.2857142857142856</ele><time>2026-04-19T08:08:44.618Z</time></trkpt><trkpt lat="40.387234" lon="9.7145725"><ele>1.4285714285714284</ele><time>2026-04-19T08:08:45.616Z</time></trkpt><trkpt lat="40.3872114" lon="9.7146545"><ele>1.5714285714285714</ele><time>2026-04-19T08:08:46.62Z</time></trkpt><trkpt lat="40.3871972" lon="9.7147419"><ele>1.714285714285714</ele><time>2026-04-19T08:08:47.619Z</time></trkpt><trkpt lat="40.3871826" lon="9.7148336"><ele>1.857142857142857</ele><time>2026-04-19T08:08:48.621Z</time></trkpt><trkpt lat="40.3871636" lon="9.714938"><ele>2.0</ele><time>2026-04-19T08:08:49.614Z</time></trkpt><trkpt lat="40.3871508" lon="9.7150557"><ele>1.6666666666666665</ele><time>2026-04-19T08:08:50.619Z</time></trkpt><trkpt lat="40.3871527" lon="9.7151683"><ele>1.3333333333333333</ele><time>2026-04-19T08:08:51.618Z</time></trkpt><trkpt lat="40.3871541" lon="9.7152739"><ele>1.0</ele><time>2026-04-19T08:08:52.617Z</time></trkpt><trkpt lat="40.3871534" lon="9.7153804"><ele>0.6666666666666666</ele><time>2026-04-19T08:08:53.617Z</time></trkpt><trkpt lat="40.3871478" lon="9.7154946"><ele>0.3333333333333333</ele><time>2026-04-19T08:08:54.615Z</time></trkpt><trkpt lat="40.3871474" lon="9.7156091"><ele>0.0</ele><time>2026-04-19T08:08:55.618Z</time></trkpt><trkpt lat="40.3871488" lon="9.7157225"><ele>0.0</ele><time>2026-04-19T08:08:56.616Z</time></trkpt><trkpt lat="40.3871537" lon="9.7158571"><ele>0.0</ele><time>2026-04-19T08:08:57.619Z</time></trkpt><trkpt lat="40.3871482" lon="9.715982"><ele>0.0</ele><time>2026-04-19T08:08:58.618Z</time></trkpt><trkpt lat="40.3871344" lon="9.7161138"><ele>0.0</ele><time>2026-04-19T08:08:59.616Z</time></trkpt><trkpt lat="40.387116" lon="9.7162476"><ele>0.0</ele><time>2026-04-19T08:09:00.619Z</time></trkpt><trkpt lat="40.3870922" lon="9.7163562"><ele>0.16666666666666666</ele><time>2026-04-19T08:09:01.607Z</time></trkpt><trkpt lat="40.3870619" lon="9.7164536"><ele>0.3333333333333333</ele><time>2026-04-19T08:09:02.607Z</time></trkpt><trkpt lat="40.3870287" lon="9.7165379"><ele>0.5</ele><time>2026-04-19T08:09:03.607Z</time></trkpt><trkpt lat="40.3869881" lon="9.7166238"><ele>0.6666666666666666</ele><time>2026-04-19T08:09:04.606Z</time></trkpt><trkpt lat="40.3869405" lon="9.716709"><ele>0.8333333333333333</ele><time>2026-04-19T08:09:05.607Z</time></trkpt><trkpt lat="40.3868819" lon="9.7167987"><ele>1.0</ele><time>2026-04-19T08:09:06.607Z</time></trkpt><trkpt lat="40.3868119" lon="9.7169059"><ele>1.4</ele><time>2026-04-19T08:09:07.621Z</time></trkpt><trkpt lat="40.3867413" lon="9.7170301"><ele>1.8</ele><time>2026-04-19T08:09:08.611Z</time></trkpt><trkpt lat="40.3866734" lon="9.717141"><ele>2.1999999999999997</ele><time>2026-04-19T08:09:09.607Z</time></trkpt><trkpt lat="40.3866056" lon="9.7172468"><ele>2.6</ele><time>2026-04-19T08:09:10.608Z</time></trkpt><trkpt lat="40.3865431" lon="9.7173469"><ele>3.0</ele><time>2026-04-19T08:09:11.608Z</time></trkpt><trkpt lat="40.3864758" lon="9.7174579"><ele>3.0</ele><time>2026-04-19T08:09:12.609Z</time></trkpt><trkpt lat="40.3864059" lon="9.7175649"><ele>3.0</ele><time>2026-04-19T08:09:13.609Z</time></trkpt><trkpt lat="40.3863486" lon="9.7176608"><ele>3.0</ele><time>2026-04-19T08:09:14.605Z</time></trkpt><trkpt lat="40.386289" lon="9.7177477"><ele>3.0</ele><time>2026-04-19T08:09:15.605Z</time></trkpt><trkpt lat="40.3862367" lon="9.7178281"><ele>3.0</ele><time>2026-04-19T08:09:16.608Z</time></trkpt><trkpt lat="40.3861865" lon="9.7179151"><ele>2.8</ele><time>2026-04-19T08:09:17.6Z</time></trkpt><trkpt lat="40.38613" lon="9.7180196"><ele>2.5999999999999996</ele><time>2026-04-19T08:09:18.612Z</time></trkpt><trkpt lat="40.3860654" lon="9.718126"><ele>2.4000000000000004</ele><time>2026-04-19T08:09:19.61Z</time></trkpt><trkpt lat="40.3860024" lon="9.7182239"><ele>2.2</ele><time>2026-04-19T08:09:20.611Z</time></trkpt><trkpt lat="40.3859434" lon="9.7183231"><ele>2.0</ele><time>2026-04-19T08:09:21.615Z</time></trkpt><trkpt lat="40.3858728" lon="9.718427"><ele>2.0</ele><time>2026-04-19T08:09:22.615Z</time></trkpt><trkpt lat="40.3858061" lon="9.7185389"><ele>2.0</ele><time>2026-04-19T08:09:23.615Z</time></trkpt><trkpt lat="40.385747" lon="9.7186504"><ele>2.0</ele><time>2026-04-19T08:09:24.613Z</time></trkpt><trkpt lat="40.3856807" lon="9.7187606"><ele>2.0</ele><time>2026-04-19T08:09:25.615Z</time></trkpt><trkpt lat="40.38561" lon="9.7188739"><ele>2.0</ele><time>2026-04-19T08:09:26.619Z</time></trkpt><trkpt lat="40.3855287" lon="9.7189847"><ele>2.0</ele><time>2026-04-19T08:09:27.62Z</time></trkpt><trkpt lat="40.3854468" lon="9.719102"><ele>2.0</ele><time>2026-04-19T08:09:28.618Z</time></trkpt><trkpt lat="40.3853586" lon="9.7192162"><ele>2.0</ele><time>2026-04-19T08:09:29.62Z</time></trkpt><trkpt lat="40.385259" lon="9.7193304"><ele>2.0</ele><time>2026-04-19T08:09:30.621Z</time></trkpt><trkpt lat="40.3851552" lon="9.7194387"><ele>2.0</ele><time>2026-04-19T08:09:31.615Z</time></trkpt><trkpt lat="40.3850548" lon="9.7195528"><ele>2.0</ele><time>2026-04-19T08:09:32.615Z</time></trkpt><trkpt lat="40.3849627" lon="9.7196462"><ele>2.0</ele><time>2026-04-19T08:09:33.61Z</time></trkpt><trkpt lat="40.384879" lon="9.7197378"><ele>2.0</ele><time>2026-04-19T08:09:34.617Z</time></trkpt><trkpt lat="40.384787" lon="9.7198218"><ele>1.9999999999999998</ele><time>2026-04-19T08:09:35.613Z</time></trkpt><trkpt lat="40.3846975" lon="9.7198987"><ele>2.0</ele><time>2026-04-19T08:09:36.616Z</time></trkpt><trkpt lat="40.3846119" lon="9.7199522"><ele>2.0</ele><time>2026-04-19T08:09:37.611Z</time></trkpt><trkpt lat="40.384548" lon="9.7199921"><ele>2.0</ele><time>2026-04-19T08:09:38.628Z</time></trkpt><trkpt lat="40.3844888" lon="9.7200256"><ele>1.9999999999999998</ele><time>2026-04-19T08:09:39.6Z</time></trkpt><trkpt lat="40.3844139" lon="9.7200427"><ele>2.0</ele><time>2026-04-19T08:09:41.606Z</time></trkpt><trkpt lat="40.3843804" lon="9.719934"><ele>2.0</ele><time>2026-04-19T08:09:48.624Z</time></trkpt><trkpt lat="40.3843897" lon="9.7198456"><ele>2.0</ele><time>2026-04-19T08:09:49.623Z</time></trkpt><trkpt lat="40.3844058" lon="9.7197405"><ele>2.0</ele><time>2026-04-19T08:09:50.601Z</time></trkpt><trkpt lat="40.3844194" lon="9.7195942"><ele>2.0</ele><time>2026-04-19T08:09:51.609Z</time></trkpt><trkpt lat="40.3844233" lon="9.7194289"><ele>2.0</ele><time>2026-04-19T08:09:52.606Z</time></trkpt><trkpt lat="40.3844162" lon="9.7192675"><ele>1.8333333333333333</ele><time>2026-04-19T08:09:53.608Z</time></trkpt><trkpt lat="40.38441" lon="9.7191576"><ele>1.6666666666666665</ele><time>2026-04-19T08:09:54.598Z</time></trkpt><trkpt lat="40.3843903" lon="9.7190764"><ele>1.5</ele><time>2026-04-19T08:09:55.617Z</time></trkpt><trkpt lat="40.3843104" lon="9.7190111"><ele>1.3333333333333333</ele><time>2026-04-19T08:09:57.61Z</time></trkpt><trkpt lat="40.3842477" lon="9.7189834"><ele>1.1666666666666665</ele><time>2026-04-19T08:09:58.614Z</time></trkpt><trkpt lat="40.3841785" lon="9.718953"><ele>1.0</ele><time>2026-04-19T08:09:59.612Z</time></trkpt><trkpt lat="40.3841057" lon="9.7188981"><ele>1.0</ele><time>2026-04-19T08:10:00.616Z</time></trkpt><trkpt lat="40.3840263" lon="9.7188176"><ele>1.0</ele><time>2026-04-19T08:10:01.615Z</time></trkpt><trkpt lat="40.383947" lon="9.7187321"><ele>1.0</ele><time>2026-04-19T08:10:02.616Z</time></trkpt><trkpt lat="40.3838664" lon="9.7186406"><ele>1.0</ele><time>2026-04-19T08:10:03.615Z</time></trkpt><trkpt lat="40.3837918" lon="9.718561"><ele>1.0</ele><time>2026-04-19T08:10:04.616Z</time></trkpt><trkpt lat="40.3837224" lon="9.7184847"><ele>1.0</ele><time>2026-04-19T08:10:05.613Z</time></trkpt><trkpt lat="40.3836492" lon="9.7183999"><ele>1.0</ele><time>2026-04-19T08:10:06.612Z</time></trkpt><trkpt lat="40.3835703" lon="9.718309"><ele>1.0</ele><time>2026-04-19T08:10:07.61Z</time></trkpt><trkpt lat="40.3834911" lon="9.7182137"><ele>1.0</ele><time>2026-04-19T08:10:08.611Z</time></trkpt><trkpt lat="40.3834112" lon="9.7181288"><ele>1.0</ele><time>2026-04-19T08:10:09.623Z</time></trkpt><trkpt lat="40.3833343" lon="9.7180425"><ele>0.9999999999999999</ele><time>2026-04-19T08:10:10.61Z</time></trkpt><trkpt lat="40.383269" lon="9.7179467"><ele>1.0</ele><time>2026-04-19T08:10:11.61Z</time></trkpt><trkpt lat="40.3832125" lon="9.7178617"><ele>1.0</ele><time>2026-04-19T08:10:12.604Z</time></trkpt><trkpt lat="40.3831543" lon="9.7177914"><ele>1.0</ele><time>2026-04-19T08:10:13.607Z</time></trkpt><trkpt lat="40.3830972" lon="9.7177347"><ele>0.9999999999999999</ele><time>2026-04-19T08:10:14.602Z</time></trkpt><trkpt lat="40.3830356" lon="9.7177149"><ele>1.0</ele><time>2026-04-19T08:10:15.61Z</time></trkpt><trkpt lat="40.3829724" lon="9.7177148"><ele>1.0</ele><time>2026-04-19T08:10:16.61Z</time></trkpt><trkpt lat="40.3828699" lon="9.7177548"><ele>1.0</ele><time>2026-04-19T08:10:18.613Z</time></trkpt><trkpt lat="40.382788" lon="9.7177718"><ele>1.0</ele><time>2026-04-19T08:10:20.612Z</time></trkpt><trkpt lat="40.3827292" lon="9.717693"><ele>1.0</ele><time>2026-04-19T08:10:22.613Z</time></trkpt><trkpt lat="40.3826925" lon="9.7175329"><ele>1.0</ele><time>2026-04-19T08:10:24.599Z</time></trkpt><trkpt lat="40.382654" lon="9.7174383"><ele>1.1666666666666665</ele><time>2026-04-19T08:10:25.602Z</time></trkpt><trkpt lat="40.3826206" lon="9.7173403"><ele>1.3333333333333333</ele><time>2026-04-19T08:10:26.601Z</time></trkpt><trkpt lat="40.3825825" lon="9.7172424"><ele>1.5</ele><time>2026-04-19T08:10:27.602Z</time></trkpt><trkpt lat="40.3825398" lon="9.717157"><ele>1.6666666666666665</ele><time>2026-04-19T08:10:28.589Z</time></trkpt><trkpt lat="40.3824844" lon="9.717099"><ele>1.8333333333333333</ele><time>2026-04-19T08:10:29.588Z</time></trkpt><trkpt lat="40.3824101" lon="9.717063"><ele>2.0</ele><time>2026-04-19T08:10:30.602Z</time></trkpt><trkpt lat="40.3823134" lon="9.717036"><ele>2.0</ele><time>2026-04-19T08:10:31.606Z</time></trkpt><trkpt lat="40.3822193" lon="9.7170137"><ele>2.0</ele><time>2026-04-19T08:10:32.609Z</time></trkpt><trkpt lat="40.3821307" lon="9.7169887"><ele>2.0</ele><time>2026-04-19T08:10:33.611Z</time></trkpt><trkpt lat="40.3820387" lon="9.7169509"><ele>2.0</ele><time>2026-04-19T08:10:34.608Z</time></trkpt><trkpt lat="40.3819474" lon="9.7169145"><ele>2.0</ele><time>2026-04-19T08:10:35.613Z</time></trkpt><trkpt lat="40.3818544" lon="9.7168749"><ele>1.8333333333333333</ele><time>2026-04-19T08:10:36.608Z</time></trkpt><trkpt lat="40.3817712" lon="9.7168315"><ele>1.6666666666666665</ele><time>2026-04-19T08:10:37.613Z</time></trkpt><trkpt lat="40.3816885" lon="9.7167981"><ele>1.5</ele><time>2026-04-19T08:10:38.605Z</time></trkpt><trkpt lat="40.381602" lon="9.7167671"><ele>1.3333333333333333</ele><time>2026-04-19T08:10:39.607Z</time></trkpt><trkpt lat="40.3815195" lon="9.7167314"><ele>1.1666666666666665</ele><time>2026-04-19T08:10:40.621Z</time></trkpt><trkpt lat="40.3814353" lon="9.7166958"><ele>1.0</ele><time>2026-04-19T08:10:41.607Z</time></trkpt><trkpt lat="40.3813411" lon="9.7166505"><ele>1.0</ele><time>2026-04-19T08:10:42.607Z</time></trkpt><trkpt lat="40.3812534" lon="9.7165882"><ele>1.0</ele><time>2026-04-19T08:10:43.615Z</time></trkpt><trkpt lat="40.3811646" lon="9.7165188"><ele>1.0</ele><time>2026-04-19T08:10:44.616Z</time></trkpt><trkpt lat="40.3810762" lon="9.7164437"><ele>1.0</ele><time>2026-04-19T08:10:45.639Z</time></trkpt><trkpt lat="40.3809834" lon="9.7163626"><ele>1.0</ele><time>2026-04-19T08:10:46.627Z</time></trkpt><trkpt lat="40.3808951" lon="9.716285"><ele>0.9999999999999999</ele><time>2026-04-19T08:10:47.707Z</time></trkpt><trkpt lat="40.3808104" lon="9.7162128"><ele>1.0</ele><time>2026-04-19T08:10:48.709Z</time></trkpt><trkpt lat="40.380723" lon="9.7161441"><ele>1.0</ele><time>2026-04-19T08:10:49.704Z</time></trkpt><trkpt lat="40.3806435" lon="9.7160923"><ele>1.0</ele><time>2026-04-19T08:10:50.703Z</time></trkpt><trkpt lat="40.3805749" lon="9.7160434"><ele>0.9999999999999999</ele><time>2026-04-19T08:10:51.709Z</time></trkpt><trkpt lat="40.3805172" lon="9.7159981"><ele>1.0</ele><time>2026-04-19T08:10:52.704Z</time></trkpt><trkpt lat="40.3804162" lon="9.7159323"><ele>1.1666666666666665</ele><time>2026-04-19T08:10:54.697Z</time></trkpt><trkpt lat="40.3803128" lon="9.7158631"><ele>1.3333333333333333</ele><time>2026-04-19T08:10:56.704Z</time></trkpt><trkpt lat="40.3802369" lon="9.7158371"><ele>1.5</ele><time>2026-04-19T08:10:58.708Z</time></trkpt><trkpt lat="40.380171" lon="9.7159265"><ele>1.6666666666666665</ele><time>2026-04-19T08:11:01.618Z</time></trkpt><trkpt lat="40.3801368" lon="9.7160157"><ele>1.8333333333333333</ele><time>2026-04-19T08:11:02.606Z</time></trkpt><trkpt lat="40.3801049" lon="9.7161143"><ele>2.0</ele><time>2026-04-19T08:11:03.606Z</time></trkpt><trkpt lat="40.3800787" lon="9.7162167"><ele>2.1666666666666665</ele><time>2026-04-19T08:11:04.609Z</time></trkpt><trkpt lat="40.3800534" lon="9.7162983"><ele>2.333333333333333</ele><time>2026-04-19T08:11:05.598Z</time></trkpt><trkpt lat="40.3800233" lon="9.7163712"><ele>2.5</ele><time>2026-04-19T08:11:06.612Z</time></trkpt><trkpt lat="40.3799377" lon="9.7164268"><ele>2.6666666666666665</ele><time>2026-04-19T08:11:08.621Z</time></trkpt><trkpt lat="40.3798532" lon="9.7163823"><ele>2.8333333333333335</ele><time>2026-04-19T08:11:10.61Z</time></trkpt><trkpt lat="40.3797956" lon="9.7163327"><ele>3.0</ele><time>2026-04-19T08:11:11.616Z</time></trkpt><trkpt lat="40.3797241" lon="9.7162797"><ele>2.8</ele><time>2026-04-19T08:11:12.598Z</time></trkpt><trkpt lat="40.3796431" lon="9.7162162"><ele>2.5999999999999996</ele><time>2026-04-19T08:11:13.602Z</time></trkpt><trkpt lat="40.3795816" lon="9.7161583"><ele>2.4000000000000004</ele><time>2026-04-19T08:11:14.591Z</time></trkpt><trkpt lat="40.3795252" lon="9.71608"><ele>2.2</ele><time>2026-04-19T08:11:16.609Z</time></trkpt><trkpt lat="40.3795101" lon="9.7161737"><ele>2.0</ele><time>2026-04-19T08:11:20.618Z</time></trkpt><trkpt lat="40.379505" lon="9.7163696"><ele>2.0</ele><time>2026-04-19T08:11:22.608Z</time></trkpt><trkpt lat="40.3794976" lon="9.7164755"><ele>2.0</ele><time>2026-04-19T08:11:23.607Z</time></trkpt><trkpt lat="40.3794862" lon="9.7165902"><ele>2.0</ele><time>2026-04-19T08:11:24.615Z</time></trkpt><trkpt lat="40.3794766" lon="9.7167117"><ele>2.0</ele><time>2026-04-19T08:11:25.617Z</time></trkpt><trkpt lat="40.3794619" lon="9.7168418"><ele>2.0</ele><time>2026-04-19T08:11:26.616Z</time></trkpt><trkpt lat="40.3794503" lon="9.7169811"><ele>1.8</ele><time>2026-04-19T08:11:27.611Z</time></trkpt><trkpt lat="40.3794324" lon="9.7171178"><ele>1.6</ele><time>2026-04-19T08:11:28.613Z</time></trkpt><trkpt lat="40.3794191" lon="9.7172673"><ele>1.4000000000000001</ele><time>2026-04-19T08:11:29.61Z</time></trkpt><trkpt lat="40.3794139" lon="9.7174027"><ele>1.2000000000000002</ele><time>2026-04-19T08:11:30.612Z</time></trkpt><trkpt lat="40.3793973" lon="9.7175233"><ele>1.0</ele><time>2026-04-19T08:11:31.613Z</time></trkpt><trkpt lat="40.3793772" lon="9.7176454"><ele>1.2000000000000002</ele><time>2026-04-19T08:11:32.613Z</time></trkpt><trkpt lat="40.3793574" lon="9.7177643"><ele>1.4000000000000001</ele><time>2026-04-19T08:11:33.612Z</time></trkpt><trkpt lat="40.3793426" lon="9.7179037"><ele>1.6</ele><time>2026-04-19T08:11:34.614Z</time></trkpt><trkpt lat="40.3793184" lon="9.718047"><ele>1.8</ele><time>2026-04-19T08:11:35.616Z</time></trkpt><trkpt lat="40.379295" lon="9.7181919"><ele>2.0</ele><time>2026-04-19T08:11:36.62Z</time></trkpt><trkpt lat="40.3792743" lon="9.718329"><ele>2.0</ele><time>2026-04-19T08:11:37.616Z</time></trkpt><trkpt lat="40.3792544" lon="9.7184607"><ele>2.0</ele><time>2026-04-19T08:11:38.615Z</time></trkpt><trkpt lat="40.3792325" lon="9.7185963"><ele>2.0</ele><time>2026-04-19T08:11:39.616Z</time></trkpt><trkpt lat="40.3792123" lon="9.7187326"><ele>2.0</ele><time>2026-04-19T08:11:40.618Z</time></trkpt><trkpt lat="40.3791929" lon="9.7188693"><ele>2.0</ele><time>2026-04-19T08:11:41.616Z</time></trkpt><trkpt lat="40.3791709" lon="9.7190028"><ele>2.0</ele><time>2026-04-19T08:11:42.634Z</time></trkpt><trkpt lat="40.3791507" lon="9.7191319"><ele>2.0</ele><time>2026-04-19T08:11:43.618Z</time></trkpt><trkpt lat="40.3791303" lon="9.7192692"><ele>2.0</ele><time>2026-04-19T08:11:44.616Z</time></trkpt><trkpt lat="40.3791086" lon="9.7194037"><ele>2.0</ele><time>2026-04-19T08:11:45.615Z</time></trkpt><trkpt lat="40.3790843" lon="9.7195439"><ele>2.0</ele><time>2026-04-19T08:11:46.615Z</time></trkpt><trkpt lat="40.3790666" lon="9.71969"><ele>2.0</ele><time>2026-04-19T08:11:47.615Z</time></trkpt><trkpt lat="40.3790479" lon="9.7198274"><ele>2.0</ele><time>2026-04-19T08:11:48.616Z</time></trkpt><trkpt lat="40.3790278" lon="9.7199553"><ele>2.0</ele><time>2026-04-19T08:11:49.616Z</time></trkpt><trkpt lat="40.3790104" lon="9.7200788"><ele>2.0</ele><time>2026-04-19T08:11:50.614Z</time></trkpt><trkpt lat="40.3789911" lon="9.7202064"><ele>2.0</ele><time>2026-04-19T08:11:51.623Z</time></trkpt><trkpt lat="40.3789665" lon="9.7203377"><ele>1.8</ele><time>2026-04-19T08:11:52.618Z</time></trkpt><trkpt lat="40.3789456" lon="9.7204746"><ele>1.6</ele><time>2026-04-19T08:11:53.616Z</time></trkpt><trkpt lat="40.3789293" lon="9.7206111"><ele>1.4000000000000001</ele><time>2026-04-19T08:11:54.616Z</time></trkpt><trkpt lat="40.3789135" lon="9.7207306"><ele>1.2000000000000002</ele><time>2026-04-19T08:11:55.616Z</time></trkpt><trkpt lat="40.3789043" lon="9.7208502"><ele>1.0</ele><time>2026-04-19T08:11:56.616Z</time></trkpt><trkpt lat="40.3788882" lon="9.7209782"><ele>1.0</ele><time>2026-04-19T08:11:57.615Z</time></trkpt><trkpt lat="40.3788656" lon="9.7210928"><ele>1.0</ele><time>2026-04-19T08:11:58.618Z</time></trkpt><trkpt lat="40.3788532" lon="9.7211955"><ele>1.0</ele><time>2026-04-19T08:11:59.612Z</time></trkpt><trkpt lat="40.378836" lon="9.7212793"><ele>1.0</ele><time>2026-04-19T08:12:00.624Z</time></trkpt><trkpt lat="40.3788014" lon="9.7214295"><ele>1.0</ele><time>2026-04-19T08:12:02.612Z</time></trkpt><trkpt lat="40.3787805" lon="9.7215999"><ele>1.0</ele><time>2026-04-19T08:12:04.609Z</time></trkpt><trkpt lat="40.378765" lon="9.7217135"><ele>1.0</ele><time>2026-04-19T08:12:05.616Z</time></trkpt><trkpt lat="40.378742" lon="9.7218317"><ele>1.0</ele><time>2026-04-19T08:12:06.615Z</time></trkpt><trkpt lat="40.3787253" lon="9.7219544"><ele>1.0</ele><time>2026-04-19T08:12:07.616Z</time></trkpt><trkpt lat="40.3787099" lon="9.7220858"><ele>1.0</ele><time>2026-04-19T08:12:08.615Z</time></trkpt><trkpt lat="40.3786987" lon="9.7222159"><ele>1.0</ele><time>2026-04-19T08:12:09.617Z</time></trkpt><trkpt lat="40.3786782" lon="9.7223468"><ele>1.0</ele><time>2026-04-19T08:12:10.616Z</time></trkpt><trkpt lat="40.3786478" lon="9.7224867"><ele>1.0</ele><time>2026-04-19T08:12:11.614Z</time></trkpt><trkpt lat="40.3786238" lon="9.7226343"><ele>1.0</ele><time>2026-04-19T08:12:12.618Z</time></trkpt><trkpt lat="40.3786026" lon="9.7227748"><ele>1.0</ele><time>2026-04-19T08:12:13.635Z</time></trkpt><trkpt lat="40.3785803" lon="9.7229257"><ele>1.0</ele><time>2026-04-19T08:12:14.616Z</time></trkpt><trkpt lat="40.3785564" lon="9.7230796"><ele>1.0</ele><time>2026-04-19T08:12:15.616Z</time></trkpt><trkpt lat="40.3785297" lon="9.7232246"><ele>1.0</ele><time>2026-04-19T08:12:16.616Z</time></trkpt><trkpt lat="40.3785104" lon="9.7233669"><ele>1.0</ele><time>2026-04-19T08:12:17.615Z</time></trkpt><trkpt lat="40.3784923" lon="9.7235014"><ele>1.0</ele><time>2026-04-19T08:12:18.62Z</time></trkpt><trkpt lat="40.3784704" lon="9.723641"><ele>1.0</ele><time>2026-04-19T08:12:19.618Z</time></trkpt><trkpt lat="40.3784467" lon="9.7237759"><ele>1.0</ele><time>2026-04-19T08:12:20.617Z</time></trkpt><trkpt lat="40.3784199" lon="9.7239315"><ele>1.0</ele><time>2026-04-19T08:12:21.619Z</time></trkpt><trkpt lat="40.3783985" lon="9.7240821"><ele>1.0</ele><time>2026-04-19T08:12:22.615Z</time></trkpt><trkpt lat="40.3783746" lon="9.7242375"><ele>1.0</ele><time>2026-04-19T08:12:23.617Z</time></trkpt><trkpt lat="40.3783585" lon="9.7243856"><ele>1.0</ele><time>2026-04-19T08:12:24.614Z</time></trkpt><trkpt lat="40.3783349" lon="9.7245262"><ele>1.0</ele><time>2026-04-19T08:12:25.616Z</time></trkpt><trkpt lat="40.3783154" lon="9.7246662"><ele>1.0</ele><time>2026-04-19T08:12:26.616Z</time></trkpt><trkpt lat="40.3782943" lon="9.7247987"><ele>1.0</ele><time>2026-04-19T08:12:27.615Z</time></trkpt><trkpt lat="40.3782734" lon="9.724922"><ele>0.9999999999999999</ele><time>2026-04-19T08:12:28.615Z</time></trkpt><trkpt lat="40.3782592" lon="9.7250287"><ele>1.0</ele><time>2026-04-19T08:12:29.618Z</time></trkpt><trkpt lat="40.3782327" lon="9.7251258"><ele>1.0</ele><time>2026-04-19T08:12:30.616Z</time></trkpt><trkpt lat="40.3781973" lon="9.725198"><ele>1.0</ele><time>2026-04-19T08:12:31.613Z</time></trkpt><trkpt lat="40.3781428" lon="9.7252501"><ele>0.9999999999999999</ele><time>2026-04-19T08:12:32.613Z</time></trkpt><trkpt lat="40.3780482" lon="9.725346"><ele>1.0</ele><time>2026-04-19T08:12:34.607Z</time></trkpt><trkpt lat="40.3780136" lon="9.7254756"><ele>1.6</ele><time>2026-04-19T08:12:36.605Z</time></trkpt><trkpt lat="40.3780503" lon="9.7255919"><ele>2.2</ele><time>2026-04-19T08:12:38.61Z</time></trkpt><trkpt lat="40.3781463" lon="9.7257048"><ele>2.8000000000000003</ele><time>2026-04-19T08:12:40.615Z</time></trkpt><trkpt lat="40.3782287" lon="9.7257582"><ele>3.4000000000000004</ele><time>2026-04-19T08:12:42.607Z</time></trkpt><trkpt lat="40.3782466" lon="9.7258385"><ele>4.0</ele><time>2026-04-19T08:12:44.622Z</time></trkpt><trkpt lat="40.3781917" lon="9.726018"><ele>3.9999999999999996</ele><time>2026-04-19T08:12:46.608Z</time></trkpt><trkpt lat="40.3781764" lon="9.7261325"><ele>4.0</ele><time>2026-04-19T08:12:47.603Z</time></trkpt><trkpt lat="40.3781793" lon="9.7262298"><ele>4.0</ele><time>2026-04-19T08:12:48.598Z</time></trkpt><trkpt lat="40.3781969" lon="9.7263212"><ele>4.0</ele><time>2026-04-19T08:12:49.606Z</time></trkpt><trkpt lat="40.3782278" lon="9.7264059"><ele>3.9999999999999996</ele><time>2026-04-19T08:12:50.605Z</time></trkpt><trkpt lat="40.3782593" lon="9.7264778"><ele>4.0</ele><time>2026-04-19T08:12:51.609Z</time></trkpt><trkpt lat="40.3783242" lon="9.7265756"><ele>4.0</ele><time>2026-04-19T08:12:53.608Z</time></trkpt><trkpt lat="40.3783795" lon="9.726659"><ele>4.0</ele><time>2026-04-19T08:12:55.601Z</time></trkpt><trkpt lat="40.3784697" lon="9.7266269"><ele>4.0</ele><time>2026-04-19T08:12:59.618Z</time></trkpt><trkpt lat="40.3785202" lon="9.7265585"><ele>4.0</ele><time>2026-04-19T08:16:12.629Z</time></trkpt><trkpt lat="40.3785922" lon="9.7264446"><ele>4.0</ele><time>2026-04-19T08:16:15.63Z</time></trkpt><trkpt lat="40.3786999" lon="9.7263703"><ele>3.9999999999999996</ele><time>2026-04-19T08:16:17.613Z</time></trkpt><trkpt lat="40.3787756" lon="9.7263461"><ele>4.0</ele><time>2026-04-19T08:16:18.618Z</time></trkpt><trkpt lat="40.3788544" lon="9.7263255"><ele>4.0</ele><time>2026-04-19T08:16:19.613Z</time></trkpt><trkpt lat="40.3789386" lon="9.7263236"><ele>4.0</ele><time>2026-04-19T08:16:20.627Z</time></trkpt><trkpt lat="40.3790178" lon="9.7263316"><ele>3.9999999999999996</ele><time>2026-04-19T08:16:21.62Z</time></trkpt><trkpt lat="40.3790899" lon="9.726343"><ele>4.0</ele><time>2026-04-19T08:16:22.613Z</time></trkpt><trkpt lat="40.3791575" lon="9.726349"><ele>5.571428571428571</ele><time>2026-04-19T08:16:23.608Z</time></trkpt><trkpt lat="40.3792267" lon="9.7263473"><ele>7.142857142857142</ele><time>2026-04-19T08:16:24.614Z</time></trkpt><trkpt lat="40.3793039" lon="9.7263339"><ele>8.714285714285715</ele><time>2026-04-19T08:16:25.611Z</time></trkpt><trkpt lat="40.3793829" lon="9.7263212"><ele>10.285714285714285</ele><time>2026-04-19T08:16:26.611Z</time></trkpt><trkpt lat="40.3794482" lon="9.7263042"><ele>11.857142857142856</ele><time>2026-04-19T08:16:27.612Z</time></trkpt><trkpt lat="40.3795132" lon="9.7262905"><ele>13.428571428571429</ele><time>2026-04-19T08:16:28.613Z</time></trkpt><trkpt lat="40.3795829" lon="9.7262922"><ele>15.0</ele><time>2026-04-19T08:16:29.615Z</time></trkpt><trkpt lat="40.3796595" lon="9.7263119"><ele>14.166666666666666</ele><time>2026-04-19T08:16:30.617Z</time></trkpt><trkpt lat="40.3797385" lon="9.7263406"><ele>13.333333333333334</ele><time>2026-04-19T08:16:31.607Z</time></trkpt><trkpt lat="40.3798218" lon="9.7263908"><ele>12.5</ele><time>2026-04-19T08:16:32.625Z</time></trkpt><trkpt lat="40.3799056" lon="9.7264308"><ele>11.666666666666668</ele><time>2026-04-19T08:16:33.687Z</time></trkpt><trkpt lat="40.3799925" lon="9.7264514"><ele>10.833333333333334</ele><time>2026-04-19T08:16:34.687Z</time></trkpt><trkpt lat="40.3800748" lon="9.7264496"><ele>10.0</ele><time>2026-04-19T08:16:35.69Z</time></trkpt><trkpt lat="40.3801489" lon="9.7264311"><ele>10.0</ele><time>2026-04-19T08:16:36.673Z</time></trkpt><trkpt lat="40.3802336" lon="9.7263994"><ele>10.0</ele><time>2026-04-19T08:16:37.678Z</time></trkpt><trkpt lat="40.3803039" lon="9.7263729"><ele>10.0</ele><time>2026-04-19T08:16:38.678Z</time></trkpt><trkpt lat="40.3803742" lon="9.7263157"><ele>10.0</ele><time>2026-04-19T08:16:39.675Z</time></trkpt><trkpt lat="40.3804548" lon="9.7262947"><ele>10.0</ele><time>2026-04-19T08:16:41.687Z</time></trkpt><trkpt lat="40.3805014" lon="9.7263713"><ele>10.0</ele><time>2026-04-19T08:16:44.608Z</time></trkpt><trkpt lat="40.3803961" lon="9.7264792"><ele>10.0</ele><time>2026-04-19T08:16:46.605Z</time></trkpt><trkpt lat="40.3803248" lon="9.7265514"><ele>10.0</ele><time>2026-04-19T08:16:47.591Z</time></trkpt><trkpt lat="40.3802496" lon="9.726643"><ele>10.0</ele><time>2026-04-19T08:16:48.6Z</time></trkpt><trkpt lat="40.3801627" lon="9.7267172"><ele>10.0</ele><time>2026-04-19T08:16:49.595Z</time></trkpt><trkpt lat="40.3800671" lon="9.7267705"><ele>10.0</ele><time>2026-04-19T08:16:50.595Z</time></trkpt><trkpt lat="40.3799518" lon="9.7267833"><ele>10.0</ele><time>2026-04-19T08:16:51.614Z</time></trkpt><trkpt lat="40.3798326" lon="9.7267523"><ele>10.0</ele><time>2026-04-19T08:16:52.596Z</time></trkpt><trkpt lat="40.3797127" lon="9.7266873"><ele>10.0</ele><time>2026-04-19T08:16:53.597Z</time></trkpt><trkpt lat="40.379616" lon="9.7266154"><ele>10.0</ele><time>2026-04-19T08:16:54.61Z</time></trkpt><trkpt lat="40.379513" lon="9.726575"><ele>11.0</ele><time>2026-04-19T08:16:55.602Z</time></trkpt><trkpt lat="40.3794019" lon="9.7265687"><ele>12.0</ele><time>2026-04-19T08:16:56.611Z</time></trkpt><trkpt lat="40.3792959" lon="9.7266034"><ele>13.0</ele><time>2026-04-19T08:16:57.616Z</time></trkpt><trkpt lat="40.3791966" lon="9.7266618"><ele>14.0</ele><time>2026-04-19T08:16:58.612Z</time></trkpt><trkpt lat="40.3791095" lon="9.7267439"><ele>15.0</ele><time>2026-04-19T08:16:59.606Z</time></trkpt><trkpt lat="40.3790368" lon="9.7268638"><ele>16.75</ele><time>2026-04-19T08:17:00.62Z</time></trkpt><trkpt lat="40.3789891" lon="9.7270073"><ele>18.5</ele><time>2026-04-19T08:17:01.607Z</time></trkpt><trkpt lat="40.3789705" lon="9.7271578"><ele>20.25</ele><time>2026-04-19T08:17:02.602Z</time></trkpt><trkpt lat="40.3789794" lon="9.7273098"><ele>22.0</ele><time>2026-04-19T08:17:03.604Z</time></trkpt><trkpt lat="40.3790154" lon="9.7274708"><ele>22.0</ele><time>2026-04-19T08:17:04.606Z</time></trkpt><trkpt lat="40.3790536" lon="9.7276224"><ele>22.0</ele><time>2026-04-19T08:17:05.614Z</time></trkpt><trkpt lat="40.3791121" lon="9.7277683"><ele>22.0</ele><time>2026-04-19T08:17:06.616Z</time></trkpt><trkpt lat="40.3791895" lon="9.727905"><ele>22.0</ele><time>2026-04-19T08:17:07.616Z</time></trkpt><trkpt lat="40.3792723" lon="9.7280207"><ele>23.0</ele><time>2026-04-19T08:17:08.614Z</time></trkpt><trkpt lat="40.3793718" lon="9.7281104"><ele>24.0</ele><time>2026-04-19T08:17:09.604Z</time></trkpt><trkpt lat="40.3794883" lon="9.7281813"><ele>25.0</ele><time>2026-04-19T08:17:10.603Z</time></trkpt><trkpt lat="40.37961" lon="9.7282458"><ele>26.0</ele><time>2026-04-19T08:17:11.608Z</time></trkpt><trkpt lat="40.3797342" lon="9.7283173"><ele>26.0</ele><time>2026-04-19T08:17:12.617Z</time></trkpt><trkpt lat="40.3798559" lon="9.7283922"><ele>26.0</ele><time>2026-04-19T08:17:13.615Z</time></trkpt><trkpt lat="40.3799762" lon="9.7284702"><ele>26.0</ele><time>2026-04-19T08:17:14.619Z</time></trkpt><trkpt lat="40.3801056" lon="9.7285534"><ele>26.0</ele><time>2026-04-19T08:17:15.621Z</time></trkpt><trkpt lat="40.3802259" lon="9.7286309"><ele>26.25</ele><time>2026-04-19T08:17:16.624Z</time></trkpt><trkpt lat="40.3803474" lon="9.7287064"><ele>26.5</ele><time>2026-04-19T08:17:17.626Z</time></trkpt><trkpt lat="40.3804597" lon="9.7287811"><ele>26.75</ele><time>2026-04-19T08:17:18.625Z</time></trkpt><trkpt lat="40.3805853" lon="9.7288544"><ele>27.0</ele><time>2026-04-19T08:17:19.625Z</time></trkpt><trkpt lat="40.3807046" lon="9.7289308"><ele>27.0</ele><time>2026-04-19T08:17:20.619Z</time></trkpt><trkpt lat="40.3808264" lon="9.7290046"><ele>27.0</ele><time>2026-04-19T08:17:21.626Z</time></trkpt><trkpt lat="40.3809448" lon="9.7290785"><ele>27.0</ele><time>2026-04-19T08:17:22.639Z</time></trkpt><trkpt lat="40.3810675" lon="9.7291649"><ele>27.0</ele><time>2026-04-19T08:17:23.623Z</time></trkpt><trkpt lat="40.3811695" lon="9.7292722"><ele>27.5</ele><time>2026-04-19T08:17:24.624Z</time></trkpt><trkpt lat="40.3812684" lon="9.729411"><ele>28.0</ele><time>2026-04-19T08:17:25.614Z</time></trkpt><trkpt lat="40.381334" lon="9.729587"><ele>28.5</ele><time>2026-04-19T08:17:26.624Z</time></trkpt><trkpt lat="40.381371" lon="9.7297671"><ele>29.0</ele><time>2026-04-19T08:17:27.623Z</time></trkpt><trkpt lat="40.3813874" lon="9.7299565"><ele>29.0</ele><time>2026-04-19T08:17:28.624Z</time></trkpt><trkpt lat="40.3814121" lon="9.7301354"><ele>29.0</ele><time>2026-04-19T08:17:29.626Z</time></trkpt><trkpt lat="40.3814427" lon="9.7303137"><ele>29.0</ele><time>2026-04-19T08:17:30.632Z</time></trkpt><trkpt lat="40.3814668" lon="9.7304954"><ele>29.0</ele><time>2026-04-19T08:17:31.625Z</time></trkpt><trkpt lat="40.3814961" lon="9.7306767"><ele>29.0</ele><time>2026-04-19T08:17:32.627Z</time></trkpt><trkpt lat="40.3815266" lon="9.7308471"><ele>29.0</ele><time>2026-04-19T08:17:33.626Z</time></trkpt><trkpt lat="40.3815548" lon="9.7310217"><ele>29.0</ele><time>2026-04-19T08:17:34.629Z</time></trkpt><trkpt lat="40.3815754" lon="9.7311988"><ele>29.0</ele><time>2026-04-19T08:17:35.627Z</time></trkpt><trkpt lat="40.3816185" lon="9.731386"><ele>28.75</ele><time>2026-04-19T08:17:36.628Z</time></trkpt><trkpt lat="40.3816459" lon="9.7315599"><ele>28.5</ele><time>2026-04-19T08:17:37.631Z</time></trkpt><trkpt lat="40.3816763" lon="9.7317427"><ele>28.25</ele><time>2026-04-19T08:17:38.632Z</time></trkpt><trkpt lat="40.3816931" lon="9.7319258"><ele>28.0</ele><time>2026-04-19T08:17:39.625Z</time></trkpt><trkpt lat="40.3816927" lon="9.7321147"><ele>28.0</ele><time>2026-04-19T08:17:40.631Z</time></trkpt><trkpt lat="40.3816791" lon="9.7323003"><ele>28.0</ele><time>2026-04-19T08:17:41.625Z</time></trkpt><trkpt lat="40.3816699" lon="9.7325031"><ele>28.0</ele><time>2026-04-19T08:17:42.624Z</time></trkpt><trkpt lat="40.3816678" lon="9.732691"><ele>28.0</ele><time>2026-04-19T08:17:43.627Z</time></trkpt><trkpt lat="40.3816671" lon="9.7328744"><ele>27.75</ele><time>2026-04-19T08:17:44.627Z</time></trkpt><trkpt lat="40.3816626" lon="9.7330565"><ele>27.5</ele><time>2026-04-19T08:17:45.627Z</time></trkpt><trkpt lat="40.3816488" lon="9.7332375"><ele>27.25</ele><time>2026-04-19T08:17:46.625Z</time></trkpt><trkpt lat="40.381643" lon="9.7334298"><ele>27.0</ele><time>2026-04-19T08:17:47.632Z</time></trkpt><trkpt lat="40.3816386" lon="9.7336207"><ele>26.5</ele><time>2026-04-19T08:17:48.628Z</time></trkpt><trkpt lat="40.3816409" lon="9.7338204"><ele>26.0</ele><time>2026-04-19T08:17:49.625Z</time></trkpt><trkpt lat="40.381639" lon="9.7340176"><ele>25.5</ele><time>2026-04-19T08:17:50.628Z</time></trkpt><trkpt lat="40.3816441" lon="9.7342085"><ele>25.0</ele><time>2026-04-19T08:17:51.63Z</time></trkpt><trkpt lat="40.3816356" lon="9.7343892"><ele>24.75</ele><time>2026-04-19T08:17:52.632Z</time></trkpt><trkpt lat="40.3816283" lon="9.7345601"><ele>24.5</ele><time>2026-04-19T08:17:53.642Z</time></trkpt><trkpt lat="40.3816254" lon="9.7347278"><ele>24.25</ele><time>2026-04-19T08:17:54.631Z</time></trkpt><trkpt lat="40.3816195" lon="9.7349046"><ele>24.0</ele><time>2026-04-19T08:17:55.628Z</time></trkpt><trkpt lat="40.3816133" lon="9.7350816"><ele>23.75</ele><time>2026-04-19T08:17:56.625Z</time></trkpt><trkpt lat="40.3816091" lon="9.7352649"><ele>23.5</ele><time>2026-04-19T08:17:57.633Z</time></trkpt><trkpt lat="40.3816034" lon="9.7354465"><ele>23.25</ele><time>2026-04-19T08:17:58.632Z</time></trkpt><trkpt lat="40.3816009" lon="9.7356344"><ele>23.0</ele><time>2026-04-19T08:17:59.632Z</time></trkpt><trkpt lat="40.3816068" lon="9.7358216"><ele>23.0</ele><time>2026-04-19T08:18:00.621Z</time></trkpt><trkpt lat="40.3816308" lon="9.7360116"><ele>23.0</ele><time>2026-04-19T08:18:01.628Z</time></trkpt><trkpt lat="40.3816954" lon="9.7362078"><ele>23.0</ele><time>2026-04-19T08:18:02.618Z</time></trkpt><trkpt lat="40.3817578" lon="9.7363978"><ele>22.0</ele><time>2026-04-19T08:18:03.624Z</time></trkpt><trkpt lat="40.3818062" lon="9.7365774"><ele>21.0</ele><time>2026-04-19T08:18:04.625Z</time></trkpt><trkpt lat="40.3818539" lon="9.7367558"><ele>20.0</ele><time>2026-04-19T08:18:05.624Z</time></trkpt><trkpt lat="40.3819096" lon="9.7369222"><ele>19.0</ele><time>2026-04-19T08:18:06.618Z</time></trkpt><trkpt lat="40.3819644" lon="9.7370942"><ele>18.5</ele><time>2026-04-19T08:18:07.623Z</time></trkpt><trkpt lat="40.3820285" lon="9.7372582"><ele>18.0</ele><time>2026-04-19T08:18:08.622Z</time></trkpt><trkpt lat="40.3820956" lon="9.7374354"><ele>17.5</ele><time>2026-04-19T08:18:09.621Z</time></trkpt><trkpt lat="40.382167" lon="9.7375997"><ele>17.0</ele><time>2026-04-19T08:18:10.624Z</time></trkpt><trkpt lat="40.3822296" lon="9.7377647"><ele>17.0</ele><time>2026-04-19T08:18:11.628Z</time></trkpt><trkpt lat="40.3823023" lon="9.7379271"><ele>17.0</ele><time>2026-04-19T08:18:12.625Z</time></trkpt><trkpt lat="40.3823778" lon="9.7380879"><ele>17.0</ele><time>2026-04-19T08:18:13.624Z</time></trkpt><trkpt lat="40.3824456" lon="9.7382542"><ele>17.0</ele><time>2026-04-19T08:18:14.627Z</time></trkpt><trkpt lat="40.3825095" lon="9.7384198"><ele>15.75</ele><time>2026-04-19T08:18:15.621Z</time></trkpt><trkpt lat="40.3825791" lon="9.7385928"><ele>14.5</ele><time>2026-04-19T08:18:16.62Z</time></trkpt><trkpt lat="40.3826628" lon="9.7387583"><ele>13.25</ele><time>2026-04-19T08:18:17.625Z</time></trkpt><trkpt lat="40.3827588" lon="9.7389034"><ele>12.0</ele><time>2026-04-19T08:18:18.625Z</time></trkpt><trkpt lat="40.3828537" lon="9.7390312"><ele>12.0</ele><time>2026-04-19T08:18:19.625Z</time></trkpt><trkpt lat="40.3829561" lon="9.739151"><ele>12.0</ele><time>2026-04-19T08:18:20.624Z</time></trkpt><trkpt lat="40.3830548" lon="9.7392763"><ele>12.0</ele><time>2026-04-19T08:18:21.628Z</time></trkpt><trkpt lat="40.3831631" lon="9.7394022"><ele>12.0</ele><time>2026-04-19T08:18:22.628Z</time></trkpt><trkpt lat="40.3832648" lon="9.7395317"><ele>12.0</ele><time>2026-04-19T08:18:23.627Z</time></trkpt><trkpt lat="40.3833656" lon="9.7396649"><ele>12.0</ele><time>2026-04-19T08:18:24.64Z</time></trkpt><trkpt lat="40.3834635" lon="9.7397884"><ele>12.0</ele><time>2026-04-19T08:18:25.626Z</time></trkpt><trkpt lat="40.3835717" lon="9.73991"><ele>12.0</ele><time>2026-04-19T08:18:26.627Z</time></trkpt><trkpt lat="40.3836745" lon="9.7400298"><ele>12.0</ele><time>2026-04-19T08:18:27.629Z</time></trkpt><trkpt lat="40.3837752" lon="9.7401533"><ele>12.0</ele><time>2026-04-19T08:18:28.626Z</time></trkpt><trkpt lat="40.3838815" lon="9.740277"><ele>12.0</ele><time>2026-04-19T08:18:29.629Z</time></trkpt><trkpt lat="40.3839782" lon="9.7403928"><ele>12.0</ele><time>2026-04-19T08:18:30.634Z</time></trkpt><trkpt lat="40.3840837" lon="9.7405151"><ele>12.25</ele><time>2026-04-19T08:18:31.626Z</time></trkpt><trkpt lat="40.3841815" lon="9.7406445"><ele>12.5</ele><time>2026-04-19T08:18:32.626Z</time></trkpt><trkpt lat="40.3842879" lon="9.7407717"><ele>12.75</ele><time>2026-04-19T08:18:33.623Z</time></trkpt><trkpt lat="40.3843852" lon="9.7408885"><ele>13.0</ele><time>2026-04-19T08:18:34.625Z</time></trkpt><trkpt lat="40.3844857" lon="9.7409962"><ele>12.5</ele><time>2026-04-19T08:18:35.623Z</time></trkpt><trkpt lat="40.3845969" lon="9.7410921"><ele>12.0</ele><time>2026-04-19T08:18:36.622Z</time></trkpt><trkpt lat="40.3847292" lon="9.7411546"><ele>11.5</ele><time>2026-04-19T08:18:37.623Z</time></trkpt><trkpt lat="40.3848647" lon="9.7412221"><ele>11.0</ele><time>2026-04-19T08:18:38.624Z</time></trkpt><trkpt lat="40.3850025" lon="9.7412723"><ele>11.0</ele><time>2026-04-19T08:18:39.62Z</time></trkpt><trkpt lat="40.3851371" lon="9.7413273"><ele>11.0</ele><time>2026-04-19T08:18:40.626Z</time></trkpt><trkpt lat="40.3852788" lon="9.7413822"><ele>11.0</ele><time>2026-04-19T08:18:41.626Z</time></trkpt><trkpt lat="40.3854148" lon="9.7414396"><ele>11.0</ele><time>2026-04-19T08:18:42.624Z</time></trkpt><trkpt lat="40.3855501" lon="9.7414952"><ele>11.25</ele><time>2026-04-19T08:18:43.627Z</time></trkpt><trkpt lat="40.3856896" lon="9.7415507"><ele>11.5</ele><time>2026-04-19T08:18:44.628Z</time></trkpt><trkpt lat="40.3858181" lon="9.7416202"><ele>11.75</ele><time>2026-04-19T08:18:45.621Z</time></trkpt><trkpt lat="40.3859576" lon="9.7416823"><ele>12.0</ele><time>2026-04-19T08:18:46.625Z</time></trkpt><trkpt lat="40.3860872" lon="9.7417295"><ele>12.0</ele><time>2026-04-19T08:18:47.628Z</time></trkpt><trkpt lat="40.3862194" lon="9.7417758"><ele>12.0</ele><time>2026-04-19T08:18:48.626Z</time></trkpt><trkpt lat="40.38635" lon="9.7418214"><ele>12.0</ele><time>2026-04-19T08:18:49.626Z</time></trkpt><trkpt lat="40.3864761" lon="9.7418474"><ele>12.0</ele><time>2026-04-19T08:18:50.628Z</time></trkpt><trkpt lat="40.386616" lon="9.7418508"><ele>12.0</ele><time>2026-04-19T08:18:51.623Z</time></trkpt><trkpt lat="40.3867631" lon="9.7418451"><ele>12.0</ele><time>2026-04-19T08:18:52.624Z</time></trkpt><trkpt lat="40.3869137" lon="9.7418306"><ele>12.0</ele><time>2026-04-19T08:18:53.618Z</time></trkpt><trkpt lat="40.3870618" lon="9.7418451"><ele>12.0</ele><time>2026-04-19T08:18:54.611Z</time></trkpt><trkpt lat="40.3871952" lon="9.7418938"><ele>13.75</ele><time>2026-04-19T08:18:55.635Z</time></trkpt><trkpt lat="40.3873225" lon="9.7419659"><ele>15.5</ele><time>2026-04-19T08:18:56.6Z</time></trkpt><trkpt lat="40.3874359" lon="9.7420579"><ele>17.25</ele><time>2026-04-19T08:18:57.604Z</time></trkpt><trkpt lat="40.3875403" lon="9.7421911"><ele>19.0</ele><time>2026-04-19T08:18:58.603Z</time></trkpt><trkpt lat="40.3876286" lon="9.7423361"><ele>19.0</ele><time>2026-04-19T08:18:59.6Z</time></trkpt><trkpt lat="40.3876702" lon="9.7425077"><ele>19.0</ele><time>2026-04-19T08:19:00.597Z</time></trkpt><trkpt lat="40.3876925" lon="9.7426885"><ele>19.0</ele><time>2026-04-19T08:19:01.606Z</time></trkpt><trkpt lat="40.3877201" lon="9.7428646"><ele>19.0</ele><time>2026-04-19T08:19:02.606Z</time></trkpt><trkpt lat="40.387754" lon="9.7430458"><ele>19.0</ele><time>2026-04-19T08:19:03.611Z</time></trkpt><trkpt lat="40.3877966" lon="9.7432208"><ele>19.0</ele><time>2026-04-19T08:19:04.613Z</time></trkpt><trkpt lat="40.3878325" lon="9.7433936"><ele>19.0</ele><time>2026-04-19T08:19:05.615Z</time></trkpt><trkpt lat="40.3878754" lon="9.7435739"><ele>19.0</ele><time>2026-04-19T08:19:06.618Z</time></trkpt><trkpt lat="40.3879144" lon="9.743741"><ele>19.25</ele><time>2026-04-19T08:19:07.614Z</time></trkpt><trkpt lat="40.3879545" lon="9.7439233"><ele>19.5</ele><time>2026-04-19T08:19:08.617Z</time></trkpt><trkpt lat="40.3879958" lon="9.7441065"><ele>19.75</ele><time>2026-04-19T08:19:09.619Z</time></trkpt><trkpt lat="40.3880364" lon="9.7442836"><ele>20.0</ele><time>2026-04-19T08:19:10.62Z</time></trkpt><trkpt lat="40.3880884" lon="9.7444748"><ele>19.333333333333336</ele><time>2026-04-19T08:19:11.619Z</time></trkpt><trkpt lat="40.3881491" lon="9.744657"><ele>18.666666666666668</ele><time>2026-04-19T08:19:12.618Z</time></trkpt><trkpt lat="40.3882133" lon="9.744837"><ele>18.0</ele><time>2026-04-19T08:19:13.619Z</time></trkpt><trkpt lat="40.3882692" lon="9.7450188"><ele>18.0</ele><time>2026-04-19T08:19:14.625Z</time></trkpt><trkpt lat="40.3883198" lon="9.7451893"><ele>18.0</ele><time>2026-04-19T08:19:15.622Z</time></trkpt><trkpt lat="40.3883741" lon="9.7453576"><ele>18.0</ele><time>2026-04-19T08:19:16.622Z</time></trkpt><trkpt lat="40.3884269" lon="9.7455148"><ele>18.0</ele><time>2026-04-19T08:19:17.618Z</time></trkpt><trkpt lat="40.3884712" lon="9.7456497"><ele>17.833333333333332</ele><time>2026-04-19T08:19:18.612Z</time></trkpt><trkpt lat="40.388512" lon="9.7457755"><ele>17.666666666666668</ele><time>2026-04-19T08:19:19.648Z</time></trkpt><trkpt lat="40.3885513" lon="9.7458864"><ele>17.5</ele><time>2026-04-19T08:19:20.713Z</time></trkpt><trkpt lat="40.3885857" lon="9.7459873"><ele>17.333333333333336</ele><time>2026-04-19T08:19:21.715Z</time></trkpt><trkpt lat="40.3886138" lon="9.7460679"><ele>17.166666666666668</ele><time>2026-04-19T08:19:22.712Z</time></trkpt><trkpt lat="40.3886732" lon="9.7461454"><ele>17.0</ele><time>2026-04-19T08:19:24.693Z</time></trkpt><trkpt lat="40.3887531" lon="9.7461561"><ele>17.0</ele><time>2026-04-19T08:19:26.721Z</time></trkpt><trkpt lat="40.3888542" lon="9.7461195"><ele>17.0</ele><time>2026-04-19T08:19:28.714Z</time></trkpt><trkpt lat="40.3889227" lon="9.7460713"><ele>17.0</ele><time>2026-04-19T08:19:29.624Z</time></trkpt><trkpt lat="40.3890029" lon="9.7460552"><ele>17.0</ele><time>2026-04-19T08:19:30.627Z</time></trkpt><trkpt lat="40.3890849" lon="9.7460616"><ele>17.0</ele><time>2026-04-19T08:19:31.628Z</time></trkpt><trkpt lat="40.3891521" lon="9.7460497"><ele>17.0</ele><time>2026-04-19T08:19:32.614Z</time></trkpt><trkpt lat="40.3892093" lon="9.7460055"><ele>17.0</ele><time>2026-04-19T08:19:33.613Z</time></trkpt><trkpt lat="40.3892682" lon="9.7459338"><ele>17.0</ele><time>2026-04-19T08:19:34.613Z</time></trkpt><trkpt lat="40.3893137" lon="9.745832"><ele>17.0</ele><time>2026-04-19T08:19:35.621Z</time></trkpt><trkpt lat="40.3893675" lon="9.7457357"><ele>17.0</ele><time>2026-04-19T08:19:36.626Z</time></trkpt><trkpt lat="40.389422" lon="9.745632"><ele>17.0</ele><time>2026-04-19T08:19:37.627Z</time></trkpt><trkpt lat="40.3894896" lon="9.7455218"><ele>17.0</ele><time>2026-04-19T08:19:38.625Z</time></trkpt><trkpt lat="40.3895463" lon="9.7454068"><ele>17.0</ele><time>2026-04-19T08:19:39.63Z</time></trkpt><trkpt lat="40.3896035" lon="9.7452892"><ele>17.0</ele><time>2026-04-19T08:19:40.627Z</time></trkpt><trkpt lat="40.3896737" lon="9.7451765"><ele>17.0</ele><time>2026-04-19T08:19:41.628Z</time></trkpt><trkpt lat="40.3897419" lon="9.7450678"><ele>17.0</ele><time>2026-04-19T08:19:42.63Z</time></trkpt><trkpt lat="40.3898119" lon="9.7449525"><ele>18.0</ele><time>2026-04-19T08:19:43.63Z</time></trkpt><trkpt lat="40.389878" lon="9.7448306"><ele>19.0</ele><time>2026-04-19T08:19:44.631Z</time></trkpt><trkpt lat="40.3899486" lon="9.7447168"><ele>20.0</ele><time>2026-04-19T08:19:45.629Z</time></trkpt><trkpt lat="40.3900232" lon="9.7446035"><ele>21.0</ele><time>2026-04-19T08:19:46.63Z</time></trkpt><trkpt lat="40.3900947" lon="9.7444861"><ele>21.25</ele><time>2026-04-19T08:19:47.63Z</time></trkpt><trkpt lat="40.3901576" lon="9.7443626"><ele>21.5</ele><time>2026-04-19T08:19:48.631Z</time></trkpt><trkpt lat="40.3902334" lon="9.7442498"><ele>21.75</ele><time>2026-04-19T08:19:49.628Z</time></trkpt><trkpt lat="40.3903048" lon="9.7441359"><ele>22.0</ele><time>2026-04-19T08:19:50.622Z</time></trkpt><trkpt lat="40.3903803" lon="9.7440189"><ele>22.0</ele><time>2026-04-19T08:19:51.633Z</time></trkpt><trkpt lat="40.3904552" lon="9.7439076"><ele>22.0</ele><time>2026-04-19T08:19:52.624Z</time></trkpt><trkpt lat="40.3905371" lon="9.7437964"><ele>22.0</ele><time>2026-04-19T08:19:53.624Z</time></trkpt><trkpt lat="40.3906144" lon="9.7436787"><ele>22.0</ele><time>2026-04-19T08:19:54.623Z</time></trkpt><trkpt lat="40.3906887" lon="9.7435626"><ele>22.833333333333332</ele><time>2026-04-19T08:19:55.62Z</time></trkpt><trkpt lat="40.3907598" lon="9.7434781"><ele>23.666666666666664</ele><time>2026-04-19T08:19:56.638Z</time></trkpt><trkpt lat="40.3908181" lon="9.7434015"><ele>24.5</ele><time>2026-04-19T08:19:57.622Z</time></trkpt><trkpt lat="40.3908781" lon="9.743356"><ele>25.333333333333332</ele><time>2026-04-19T08:19:58.619Z</time></trkpt><trkpt lat="40.3909478" lon="9.743354"><ele>26.166666666666668</ele><time>2026-04-19T08:19:59.61Z</time></trkpt><trkpt lat="40.3910226" lon="9.7433825"><ele>27.0</ele><time>2026-04-19T08:20:00.635Z</time></trkpt><trkpt lat="40.3911048" lon="9.7434531"><ele>27.166666666666668</ele><time>2026-04-19T08:20:01.623Z</time></trkpt><trkpt lat="40.3911701" lon="9.7435532"><ele>27.333333333333336</ele><time>2026-04-19T08:20:02.623Z</time></trkpt><trkpt lat="40.3912253" lon="9.7436273"><ele>27.5</ele><time>2026-04-19T08:20:03.611Z</time></trkpt><trkpt lat="40.3912893" lon="9.743666"><ele>27.666666666666668</ele><time>2026-04-19T08:20:04.63Z</time></trkpt><trkpt lat="40.3913572" lon="9.7436547"><ele>27.833333333333336</ele><time>2026-04-19T08:20:05.625Z</time></trkpt><trkpt lat="40.3914232" lon="9.7436122"><ele>28.0</ele><time>2026-04-19T08:20:06.628Z</time></trkpt><trkpt lat="40.3914944" lon="9.7435371"><ele>28.4</ele><time>2026-04-19T08:20:07.608Z</time></trkpt><trkpt lat="40.3915602" lon="9.7434514"><ele>28.799999999999997</ele><time>2026-04-19T08:20:08.626Z</time></trkpt><trkpt lat="40.3916266" lon="9.7433583"><ele>29.2</ele><time>2026-04-19T08:20:09.63Z</time></trkpt><trkpt lat="40.3916895" lon="9.7432593"><ele>29.6</ele><time>2026-04-19T08:20:10.623Z</time></trkpt><trkpt lat="40.3917621" lon="9.7431591"><ele>30.0</ele><time>2026-04-19T08:20:11.627Z</time></trkpt><trkpt lat="40.3918406" lon="9.7430536"><ele>30.0</ele><time>2026-04-19T08:20:12.63Z</time></trkpt><trkpt lat="40.3919199" lon="9.7429377"><ele>30.0</ele><time>2026-04-19T08:20:13.626Z</time></trkpt><trkpt lat="40.3919905" lon="9.7428273"><ele>30.0</ele><time>2026-04-19T08:20:14.628Z</time></trkpt><trkpt lat="40.392056" lon="9.7427126"><ele>30.0</ele><time>2026-04-19T08:20:15.632Z</time></trkpt><trkpt lat="40.3921184" lon="9.7426011"><ele>30.0</ele><time>2026-04-19T08:20:16.628Z</time></trkpt><trkpt lat="40.3921893" lon="9.7425071"><ele>30.8</ele><time>2026-04-19T08:20:17.621Z</time></trkpt><trkpt lat="40.392265" lon="9.7424296"><ele>31.6</ele><time>2026-04-19T08:20:18.627Z</time></trkpt><trkpt lat="40.3923453" lon="9.7423587"><ele>32.4</ele><time>2026-04-19T08:20:19.626Z</time></trkpt><trkpt lat="40.3924299" lon="9.7422723"><ele>33.2</ele><time>2026-04-19T08:20:20.629Z</time></trkpt><trkpt lat="40.3925152" lon="9.7421796"><ele>34.0</ele><time>2026-04-19T08:20:21.631Z</time></trkpt><trkpt lat="40.3925854" lon="9.7420749"><ele>34.0</ele><time>2026-04-19T08:20:22.632Z</time></trkpt><trkpt lat="40.3926543" lon="9.7419583"><ele>34.0</ele><time>2026-04-19T08:20:23.625Z</time></trkpt><trkpt lat="40.3927059" lon="9.7418406"><ele>34.0</ele><time>2026-04-19T08:20:24.624Z</time></trkpt><trkpt lat="40.3927583" lon="9.741723"><ele>34.0</ele><time>2026-04-19T08:20:25.618Z</time></trkpt><trkpt lat="40.3928229" lon="9.7416288"><ele>34.0</ele><time>2026-04-19T08:20:26.623Z</time></trkpt><trkpt lat="40.3928933" lon="9.7415438"><ele>34.6</ele><time>2026-04-19T08:20:27.645Z</time></trkpt><trkpt lat="40.3929671" lon="9.7414529"><ele>35.2</ele><time>2026-04-19T08:20:28.623Z</time></trkpt><trkpt lat="40.3930284" lon="9.7413573"><ele>35.800000000000004</ele><time>2026-04-19T08:20:29.617Z</time></trkpt><trkpt lat="40.3930672" lon="9.74125"><ele>36.4</ele><time>2026-04-19T08:20:30.619Z</time></trkpt><trkpt lat="40.3931064" lon="9.7411229"><ele>37.0</ele><time>2026-04-19T08:20:31.623Z</time></trkpt><trkpt lat="40.3931549" lon="9.7409822"><ele>37.5</ele><time>2026-04-19T08:20:32.62Z</time></trkpt><trkpt lat="40.3932049" lon="9.7408435"><ele>38.0</ele><time>2026-04-19T08:20:33.628Z</time></trkpt><trkpt lat="40.3932698" lon="9.7407229"><ele>38.5</ele><time>2026-04-19T08:20:34.626Z</time></trkpt><trkpt lat="40.3933442" lon="9.7405948"><ele>39.0</ele><time>2026-04-19T08:20:35.62Z</time></trkpt><trkpt lat="40.3934026" lon="9.7404895"><ele>39.0</ele><time>2026-04-19T08:20:36.621Z</time></trkpt><trkpt lat="40.393455" lon="9.7403921"><ele>39.0</ele><time>2026-04-19T08:20:37.627Z</time></trkpt><trkpt lat="40.3935057" lon="9.7402919"><ele>39.0</ele><time>2026-04-19T08:20:38.626Z</time></trkpt><trkpt lat="40.3935606" lon="9.7401823"><ele>39.0</ele><time>2026-04-19T08:20:39.628Z</time></trkpt><trkpt lat="40.39361" lon="9.7400655"><ele>39.0</ele><time>2026-04-19T08:20:40.623Z</time></trkpt><trkpt lat="40.3936495" lon="9.7399463"><ele>39.6</ele><time>2026-04-19T08:20:41.627Z</time></trkpt><trkpt lat="40.3936835" lon="9.7398064"><ele>40.2</ele><time>2026-04-19T08:20:42.626Z</time></trkpt><trkpt lat="40.3937187" lon="9.739667"><ele>40.800000000000004</ele><time>2026-04-19T08:20:43.628Z</time></trkpt><trkpt lat="40.3937572" lon="9.7395362"><ele>41.4</ele><time>2026-04-19T08:20:44.622Z</time></trkpt><trkpt lat="40.3937941" lon="9.7394021"><ele>42.0</ele><time>2026-04-19T08:20:45.619Z</time></trkpt><trkpt lat="40.3938269" lon="9.7392826"><ele>42.0</ele><time>2026-04-19T08:20:46.624Z</time></trkpt><trkpt lat="40.3938644" lon="9.7391705"><ele>42.0</ele><time>2026-04-19T08:20:47.623Z</time></trkpt><trkpt lat="40.3939201" lon="9.7391054"><ele>42.0</ele><time>2026-04-19T08:20:48.619Z</time></trkpt><trkpt lat="40.3939901" lon="9.739077"><ele>42.0</ele><time>2026-04-19T08:20:49.606Z</time></trkpt><trkpt lat="40.3940592" lon="9.7390888"><ele>42.0</ele><time>2026-04-19T08:20:50.616Z</time></trkpt><trkpt lat="40.3941662" lon="9.7391587"><ele>42.0</ele><time>2026-04-19T08:20:52.629Z</time></trkpt><trkpt lat="40.3942247" lon="9.7392385"><ele>42.0</ele><time>2026-04-19T08:20:53.616Z</time></trkpt><trkpt lat="40.3942979" lon="9.7393375"><ele>42.0</ele><time>2026-04-19T08:20:54.614Z</time></trkpt><trkpt lat="40.3943795" lon="9.7394578"><ele>42.0</ele><time>2026-04-19T08:20:55.621Z</time></trkpt><trkpt lat="40.3944553" lon="9.7395697"><ele>42.0</ele><time>2026-04-19T08:20:56.62Z</time></trkpt><trkpt lat="40.3945399" lon="9.7396834"><ele>42.0</ele><time>2026-04-19T08:20:57.624Z</time></trkpt><trkpt lat="40.3946276" lon="9.7398089"><ele>42.0</ele><time>2026-04-19T08:20:58.637Z</time></trkpt><trkpt lat="40.3947191" lon="9.7399294"><ele>42.0</ele><time>2026-04-19T08:20:59.623Z</time></trkpt><trkpt lat="40.3948076" lon="9.7400478"><ele>42.0</ele><time>2026-04-19T08:21:00.628Z</time></trkpt><trkpt lat="40.3948904" lon="9.7401542"><ele>41.8</ele><time>2026-04-19T08:21:01.622Z</time></trkpt><trkpt lat="40.3949616" lon="9.7402553"><ele>41.6</ele><time>2026-04-19T08:21:02.619Z</time></trkpt><trkpt lat="40.3950305" lon="9.7403393"><ele>41.4</ele><time>2026-04-19T08:21:03.621Z</time></trkpt><trkpt lat="40.3950975" lon="9.74042"><ele>41.199999999999996</ele><time>2026-04-19T08:21:04.624Z</time></trkpt><trkpt lat="40.3951566" lon="9.7404962"><ele>41.0</ele><time>2026-04-19T08:21:05.621Z</time></trkpt><trkpt lat="40.3952169" lon="9.7405654"><ele>41.0</ele><time>2026-04-19T08:21:06.622Z</time></trkpt><trkpt lat="40.3952773" lon="9.740643"><ele>41.0</ele><time>2026-04-19T08:21:07.613Z</time></trkpt><trkpt lat="40.395342" lon="9.7407418"><ele>41.0</ele><time>2026-04-19T08:21:08.62Z</time></trkpt><trkpt lat="40.3954003" lon="9.7408661"><ele>41.0</ele><time>2026-04-19T08:21:09.616Z</time></trkpt><trkpt lat="40.3954459" lon="9.7409921"><ele>41.0</ele><time>2026-04-19T08:21:10.621Z</time></trkpt><trkpt lat="40.395512" lon="9.7411048"><ele>40.8</ele><time>2026-04-19T08:21:11.626Z</time></trkpt><trkpt lat="40.3955838" lon="9.7412053"><ele>40.599999999999994</ele><time>2026-04-19T08:21:12.621Z</time></trkpt><trkpt lat="40.3956675" lon="9.741304"><ele>40.4</ele><time>2026-04-19T08:21:13.62Z</time></trkpt><trkpt lat="40.3957585" lon="9.7413916"><ele>40.2</ele><time>2026-04-19T08:21:14.624Z</time></trkpt><trkpt lat="40.3958416" lon="9.7414868"><ele>40.0</ele><time>2026-04-19T08:21:15.618Z</time></trkpt><trkpt lat="40.3959106" lon="9.7415876"><ele>40.0</ele><time>2026-04-19T08:21:16.613Z</time></trkpt><trkpt lat="40.3959639" lon="9.7416976"><ele>40.0</ele><time>2026-04-19T08:21:17.622Z</time></trkpt><trkpt lat="40.3960182" lon="9.741806"><ele>40.0</ele><time>2026-04-19T08:21:18.62Z</time></trkpt><trkpt lat="40.3960739" lon="9.741905"><ele>40.0</ele><time>2026-04-19T08:21:19.621Z</time></trkpt><trkpt lat="40.396129" lon="9.7420038"><ele>40.0</ele><time>2026-04-19T08:21:20.62Z</time></trkpt><trkpt lat="40.3961833" lon="9.7421007"><ele>40.16666666666667</ele><time>2026-04-19T08:21:21.625Z</time></trkpt><trkpt lat="40.3962374" lon="9.7421862"><ele>40.333333333333336</ele><time>2026-04-19T08:21:22.627Z</time></trkpt><trkpt lat="40.3962775" lon="9.7422579"><ele>40.5</ele><time>2026-04-19T08:21:23.624Z</time></trkpt><trkpt lat="40.396344" lon="9.7423611"><ele>40.666666666666664</ele><time>2026-04-19T08:21:25.618Z</time></trkpt><trkpt lat="40.3964147" lon="9.7423278"><ele>40.83333333333333</ele><time>2026-04-19T08:21:27.64Z</time></trkpt><trkpt lat="40.3964637" lon="9.7422097"><ele>41.0</ele><time>2026-04-19T08:21:29.652Z</time></trkpt><trkpt lat="40.396522" lon="9.7420477"><ele>41.199999999999996</ele><time>2026-04-19T08:21:31.631Z</time></trkpt><trkpt lat="40.3965689" lon="9.7419391"><ele>41.4</ele><time>2026-04-19T08:21:32.632Z</time></trkpt><trkpt lat="40.3966152" lon="9.741832"><ele>41.6</ele><time>2026-04-19T08:21:33.636Z</time></trkpt><trkpt lat="40.3966653" lon="9.7417271"><ele>41.8</ele><time>2026-04-19T08:21:34.706Z</time></trkpt><trkpt lat="40.3967125" lon="9.741627"><ele>42.0</ele><time>2026-04-19T08:21:35.705Z</time></trkpt><trkpt lat="40.3967603" lon="9.7415229"><ele>42.166666666666664</ele><time>2026-04-19T08:21:36.707Z</time></trkpt><trkpt lat="40.3968106" lon="9.7414304"><ele>42.333333333333336</ele><time>2026-04-19T08:21:37.709Z</time></trkpt><trkpt lat="40.3968559" lon="9.7413383"><ele>42.5</ele><time>2026-04-19T08:21:38.709Z</time></trkpt><trkpt lat="40.3968973" lon="9.741252"><ele>42.66666666666667</ele><time>2026-04-19T08:21:39.711Z</time></trkpt><trkpt lat="40.3969391" lon="9.7411688"><ele>42.833333333333336</ele><time>2026-04-19T08:21:40.712Z</time></trkpt><trkpt lat="40.3969736" lon="9.741066"><ele>43.0</ele><time>2026-04-19T08:21:41.629Z</time></trkpt><trkpt lat="40.3970132" lon="9.7409668"><ele>43.2</ele><time>2026-04-19T08:21:42.621Z</time></trkpt><trkpt lat="40.3970629" lon="9.7408511"><ele>43.4</ele><time>2026-04-19T08:21:43.627Z</time></trkpt><trkpt lat="40.3971051" lon="9.7407517"><ele>43.6</ele><time>2026-04-19T08:21:44.628Z</time></trkpt><trkpt lat="40.3971506" lon="9.7406459"><ele>43.800000000000004</ele><time>2026-04-19T08:21:45.625Z</time></trkpt><trkpt lat="40.3971991" lon="9.7405462"><ele>44.0</ele><time>2026-04-19T08:21:46.626Z</time></trkpt><trkpt lat="40.3972633" lon="9.7404293"><ele>44.6</ele><time>2026-04-19T08:21:47.624Z</time></trkpt><trkpt lat="40.3973228" lon="9.7403116"><ele>45.2</ele><time>2026-04-19T08:21:48.625Z</time></trkpt><trkpt lat="40.3973782" lon="9.7401953"><ele>45.800000000000004</ele><time>2026-04-19T08:21:49.624Z</time></trkpt><trkpt lat="40.3974372" lon="9.7400807"><ele>46.400000000000006</ele><time>2026-04-19T08:21:50.628Z</time></trkpt><trkpt lat="40.3975039" lon="9.7399674"><ele>47.0</ele><time>2026-04-19T08:21:51.634Z</time></trkpt><trkpt lat="40.397564" lon="9.7398555"><ele>47.2</ele><time>2026-04-19T08:21:52.627Z</time></trkpt><trkpt lat="40.3976191" lon="9.739747"><ele>47.400000000000006</ele><time>2026-04-19T08:21:53.628Z</time></trkpt><trkpt lat="40.3976663" lon="9.7396309"><ele>47.599999999999994</ele><time>2026-04-19T08:21:54.628Z</time></trkpt><trkpt lat="40.3977087" lon="9.7395093"><ele>47.8</ele><time>2026-04-19T08:21:55.632Z</time></trkpt><trkpt lat="40.3977471" lon="9.7393816"><ele>48.0</ele><time>2026-04-19T08:21:56.63Z</time></trkpt><trkpt lat="40.3977897" lon="9.7392517"><ele>48.5</ele><time>2026-04-19T08:21:57.627Z</time></trkpt><trkpt lat="40.3978384" lon="9.7391135"><ele>49.0</ele><time>2026-04-19T08:21:58.632Z</time></trkpt><trkpt lat="40.397881" lon="9.7389641"><ele>49.5</ele><time>2026-04-19T08:21:59.625Z</time></trkpt><trkpt lat="40.397924" lon="9.738816"><ele>50.0</ele><time>2026-04-19T08:22:00.647Z</time></trkpt><trkpt lat="40.3979709" lon="9.7386723"><ele>50.5</ele><time>2026-04-19T08:22:01.628Z</time></trkpt><trkpt lat="40.3980195" lon="9.7385308"><ele>51.0</ele><time>2026-04-19T08:22:02.628Z</time></trkpt><trkpt lat="40.3980774" lon="9.738396"><ele>51.5</ele><time>2026-04-19T08:22:03.626Z</time></trkpt><trkpt lat="40.3981322" lon="9.7382472"><ele>52.0</ele><time>2026-04-19T08:22:04.624Z</time></trkpt><trkpt lat="40.3981823" lon="9.7381047"><ele>52.0</ele><time>2026-04-19T08:22:05.625Z</time></trkpt><trkpt lat="40.3982322" lon="9.7379561"><ele>52.0</ele><time>2026-04-19T08:22:06.625Z</time></trkpt><trkpt lat="40.3982806" lon="9.7378065"><ele>52.0</ele><time>2026-04-19T08:22:07.627Z</time></trkpt><trkpt lat="40.3983309" lon="9.7376581"><ele>52.0</ele><time>2026-04-19T08:22:08.625Z</time></trkpt><trkpt lat="40.3983838" lon="9.7375113"><ele>52.5</ele><time>2026-04-19T08:22:09.625Z</time></trkpt><trkpt lat="40.3984292" lon="9.7373782"><ele>53.0</ele><time>2026-04-19T08:22:10.626Z</time></trkpt><trkpt lat="40.3984745" lon="9.7372378"><ele>53.5</ele><time>2026-04-19T08:22:11.628Z</time></trkpt><trkpt lat="40.3985244" lon="9.7370979"><ele>54.0</ele><time>2026-04-19T08:22:12.625Z</time></trkpt><trkpt lat="40.3985724" lon="9.7369593"><ele>54.25</ele><time>2026-04-19T08:22:13.629Z</time></trkpt><trkpt lat="40.3986227" lon="9.7368213"><ele>54.5</ele><time>2026-04-19T08:22:14.625Z</time></trkpt><trkpt lat="40.398677" lon="9.7366752"><ele>54.75</ele><time>2026-04-19T08:22:15.628Z</time></trkpt><trkpt lat="40.3987232" lon="9.7365459"><ele>55.0</ele><time>2026-04-19T08:22:16.628Z</time></trkpt><trkpt lat="40.3987612" lon="9.736423"><ele>55.0</ele><time>2026-04-19T08:22:17.624Z</time></trkpt><trkpt lat="40.3988043" lon="9.7362952"><ele>55.0</ele><time>2026-04-19T08:22:18.629Z</time></trkpt><trkpt lat="40.3988437" lon="9.7361645"><ele>55.0</ele><time>2026-04-19T08:22:19.627Z</time></trkpt><trkpt lat="40.3988835" lon="9.7360275"><ele>55.0</ele><time>2026-04-19T08:22:20.63Z</time></trkpt><trkpt lat="40.3989231" lon="9.7358854"><ele>55.0</ele><time>2026-04-19T08:22:21.632Z</time></trkpt><trkpt lat="40.3989681" lon="9.7357358"><ele>55.5</ele><time>2026-04-19T08:22:22.63Z</time></trkpt><trkpt lat="40.3990165" lon="9.7355929"><ele>56.0</ele><time>2026-04-19T08:22:23.632Z</time></trkpt><trkpt lat="40.399067" lon="9.7354533"><ele>56.5</ele><time>2026-04-19T08:22:24.628Z</time></trkpt><trkpt lat="40.3991081" lon="9.7353074"><ele>57.0</ele><time>2026-04-19T08:22:25.631Z</time></trkpt><trkpt lat="40.3991497" lon="9.7351644"><ele>57.0</ele><time>2026-04-19T08:22:26.632Z</time></trkpt><trkpt lat="40.3991939" lon="9.7350313"><ele>57.0</ele><time>2026-04-19T08:22:27.631Z</time></trkpt><trkpt lat="40.399238" lon="9.7349014"><ele>57.0</ele><time>2026-04-19T08:22:28.631Z</time></trkpt><trkpt lat="40.3992859" lon="9.7347545"><ele>57.0</ele><time>2026-04-19T08:22:29.63Z</time></trkpt><trkpt lat="40.3993268" lon="9.7346079"><ele>57.0</ele><time>2026-04-19T08:22:30.632Z</time></trkpt><trkpt lat="40.3993697" lon="9.7344709"><ele>57.0</ele><time>2026-04-19T08:22:31.646Z</time></trkpt><trkpt lat="40.3994084" lon="9.7343362"><ele>57.0</ele><time>2026-04-19T08:22:32.63Z</time></trkpt><trkpt lat="40.3994446" lon="9.7342075"><ele>57.0</ele><time>2026-04-19T08:22:33.621Z</time></trkpt><trkpt lat="40.3994755" lon="9.7340892"><ele>57.0</ele><time>2026-04-19T08:22:34.629Z</time></trkpt><trkpt lat="40.39952" lon="9.7339764"><ele>56.75</ele><time>2026-04-19T08:22:35.618Z</time></trkpt><trkpt lat="40.3995845" lon="9.7338705"><ele>56.5</ele><time>2026-04-19T08:22:36.612Z</time></trkpt><trkpt lat="40.399662" lon="9.7337688"><ele>56.25</ele><time>2026-04-19T08:22:37.626Z</time></trkpt><trkpt lat="40.3997453" lon="9.7336582"><ele>56.0</ele><time>2026-04-19T08:22:38.616Z</time></trkpt><trkpt lat="40.3998266" lon="9.7335263"><ele>57.0</ele><time>2026-04-19T08:22:39.615Z</time></trkpt><trkpt lat="40.3998998" lon="9.7333804"><ele>58.0</ele><time>2026-04-19T08:22:40.625Z</time></trkpt><trkpt lat="40.3999703" lon="9.7332289"><ele>59.0</ele><time>2026-04-19T08:22:41.627Z</time></trkpt><trkpt lat="40.4000404" lon="9.7330783"><ele>60.0</ele><time>2026-04-19T08:22:42.628Z</time></trkpt><trkpt lat="40.400101" lon="9.7329216"><ele>60.0</ele><time>2026-04-19T08:22:43.628Z</time></trkpt><trkpt lat="40.4001629" lon="9.732768"><ele>60.0</ele><time>2026-04-19T08:22:44.628Z</time></trkpt><trkpt lat="40.4002292" lon="9.7326197"><ele>60.0</ele><time>2026-04-19T08:22:45.633Z</time></trkpt><trkpt lat="40.4002926" lon="9.7324784"><ele>60.0</ele><time>2026-04-19T08:22:46.628Z</time></trkpt><trkpt lat="40.4003444" lon="9.7323446"><ele>60.0</ele><time>2026-04-19T08:22:47.632Z</time></trkpt><trkpt lat="40.4003921" lon="9.7322079"><ele>60.0</ele><time>2026-04-19T08:22:48.625Z</time></trkpt><trkpt lat="40.4004287" lon="9.7320682"><ele>60.0</ele><time>2026-04-19T08:22:49.621Z</time></trkpt><trkpt lat="40.400456" lon="9.7319234"><ele>60.0</ele><time>2026-04-19T08:22:50.626Z</time></trkpt><trkpt lat="40.4004791" lon="9.731788"><ele>60.0</ele><time>2026-04-19T08:22:51.629Z</time></trkpt><trkpt lat="40.4005053" lon="9.7316582"><ele>60.5</ele><time>2026-04-19T08:22:52.617Z</time></trkpt><trkpt lat="40.4005337" lon="9.7315113"><ele>61.0</ele><time>2026-04-19T08:22:53.623Z</time></trkpt><trkpt lat="40.4005763" lon="9.7313626"><ele>61.5</ele><time>2026-04-19T08:22:54.625Z</time></trkpt><trkpt lat="40.4006315" lon="9.7312173"><ele>62.0</ele><time>2026-04-19T08:22:55.621Z</time></trkpt><trkpt lat="40.400683" lon="9.7310548"><ele>62.0</ele><time>2026-04-19T08:22:56.627Z</time></trkpt><trkpt lat="40.4007295" lon="9.7308903"><ele>62.0</ele><time>2026-04-19T08:22:57.631Z</time></trkpt><trkpt lat="40.4007702" lon="9.7307324"><ele>62.0</ele><time>2026-04-19T08:22:58.636Z</time></trkpt><trkpt lat="40.4008127" lon="9.7305779"><ele>62.0</ele><time>2026-04-19T08:22:59.628Z</time></trkpt><trkpt lat="40.4008594" lon="9.730419"><ele>62.0</ele><time>2026-04-19T08:23:00.642Z</time></trkpt><trkpt lat="40.4009055" lon="9.7302634"><ele>62.0</ele><time>2026-04-19T08:23:01.628Z</time></trkpt><trkpt lat="40.4009594" lon="9.7301135"><ele>62.0</ele><time>2026-04-19T08:23:02.643Z</time></trkpt><trkpt lat="40.4010112" lon="9.7299683"><ele>62.0</ele><time>2026-04-19T08:23:03.627Z</time></trkpt><trkpt lat="40.4010599" lon="9.7298289"><ele>62.0</ele><time>2026-04-19T08:23:04.628Z</time></trkpt><trkpt lat="40.4010984" lon="9.7296841"><ele>62.0</ele><time>2026-04-19T08:23:05.625Z</time></trkpt><trkpt lat="40.4011393" lon="9.7295365"><ele>62.0</ele><time>2026-04-19T08:23:06.627Z</time></trkpt><trkpt lat="40.401183" lon="9.7293854"><ele>62.0</ele><time>2026-04-19T08:23:07.626Z</time></trkpt><trkpt lat="40.4012247" lon="9.7292342"><ele>62.0</ele><time>2026-04-19T08:23:08.631Z</time></trkpt><trkpt lat="40.4012673" lon="9.7290769"><ele>62.0</ele><time>2026-04-19T08:23:09.629Z</time></trkpt><trkpt lat="40.4013119" lon="9.7289183"><ele>62.0</ele><time>2026-04-19T08:23:10.627Z</time></trkpt><trkpt lat="40.4013609" lon="9.7287699"><ele>62.0</ele><time>2026-04-19T08:23:11.628Z</time></trkpt><trkpt lat="40.4014093" lon="9.7286261"><ele>62.5</ele><time>2026-04-19T08:23:12.626Z</time></trkpt><trkpt lat="40.4014539" lon="9.728481"><ele>63.0</ele><time>2026-04-19T08:23:13.628Z</time></trkpt><trkpt lat="40.4015001" lon="9.7283345"><ele>63.5</ele><time>2026-04-19T08:23:14.627Z</time></trkpt><trkpt lat="40.4015442" lon="9.7281882"><ele>64.0</ele><time>2026-04-19T08:23:15.625Z</time></trkpt><trkpt lat="40.4015842" lon="9.7280369"><ele>64.0</ele><time>2026-04-19T08:23:16.627Z</time></trkpt><trkpt lat="40.4016243" lon="9.7278959"><ele>64.0</ele><time>2026-04-19T08:23:17.626Z</time></trkpt><trkpt lat="40.4016611" lon="9.7277646"><ele>64.0</ele><time>2026-04-19T08:23:18.631Z</time></trkpt><trkpt lat="40.4017037" lon="9.7276305"><ele>64.0</ele><time>2026-04-19T08:23:19.629Z</time></trkpt><trkpt lat="40.4017467" lon="9.7274988"><ele>64.0</ele><time>2026-04-19T08:23:20.633Z</time></trkpt><trkpt lat="40.4017878" lon="9.7273585"><ele>64.0</ele><time>2026-04-19T08:23:21.632Z</time></trkpt><trkpt lat="40.4018303" lon="9.7272197"><ele>64.0</ele><time>2026-04-19T08:23:22.627Z</time></trkpt><trkpt lat="40.4018682" lon="9.7270899"><ele>64.0</ele><time>2026-04-19T08:23:23.626Z</time></trkpt><trkpt lat="40.4019042" lon="9.726962"><ele>64.0</ele><time>2026-04-19T08:23:24.629Z</time></trkpt><trkpt lat="40.4019442" lon="9.7268327"><ele>64.0</ele><time>2026-04-19T08:23:25.63Z</time></trkpt><trkpt lat="40.4019839" lon="9.7267126"><ele>64.0</ele><time>2026-04-19T08:23:26.627Z</time></trkpt><trkpt lat="40.4020329" lon="9.7265894"><ele>64.0</ele><time>2026-04-19T08:23:27.63Z</time></trkpt><trkpt lat="40.4020914" lon="9.7264769"><ele>64.0</ele><time>2026-04-19T08:23:28.628Z</time></trkpt><trkpt lat="40.4021536" lon="9.7263536"><ele>64.0</ele><time>2026-04-19T08:23:29.626Z</time></trkpt><trkpt lat="40.4022106" lon="9.7262103"><ele>64.0</ele><time>2026-04-19T08:23:30.63Z</time></trkpt><trkpt lat="40.4022561" lon="9.7260562"><ele>64.5</ele><time>2026-04-19T08:23:31.621Z</time></trkpt><trkpt lat="40.402285" lon="9.7259108"><ele>65.0</ele><time>2026-04-19T08:23:32.617Z</time></trkpt><trkpt lat="40.4022949" lon="9.7257573"><ele>65.5</ele><time>2026-04-19T08:23:33.66Z</time></trkpt><trkpt lat="40.4022999" lon="9.7256043"><ele>66.0</ele><time>2026-04-19T08:23:34.633Z</time></trkpt><trkpt lat="40.4023189" lon="9.7254329"><ele>66.0</ele><time>2026-04-19T08:23:35.628Z</time></trkpt><trkpt lat="40.4023552" lon="9.7252632"><ele>66.0</ele><time>2026-04-19T08:23:36.631Z</time></trkpt><trkpt lat="40.4023878" lon="9.7251091"><ele>66.0</ele><time>2026-04-19T08:23:37.624Z</time></trkpt><trkpt lat="40.4024088" lon="9.7249747"><ele>66.0</ele><time>2026-04-19T08:23:38.634Z</time></trkpt><trkpt lat="40.4024268" lon="9.7248361"><ele>66.0</ele><time>2026-04-19T08:23:39.629Z</time></trkpt><trkpt lat="40.4024391" lon="9.7246866"><ele>66.0</ele><time>2026-04-19T08:23:40.635Z</time></trkpt><trkpt lat="40.40245" lon="9.7245324"><ele>66.0</ele><time>2026-04-19T08:23:41.629Z</time></trkpt><trkpt lat="40.4024569" lon="9.72438"><ele>66.0</ele><time>2026-04-19T08:23:42.627Z</time></trkpt><trkpt lat="40.4024658" lon="9.7242322"><ele>66.0</ele><time>2026-04-19T08:23:43.635Z</time></trkpt><trkpt lat="40.402474" lon="9.7240784"><ele>66.0</ele><time>2026-04-19T08:23:44.623Z</time></trkpt><trkpt lat="40.4024547" lon="9.723921"><ele>66.0</ele><time>2026-04-19T08:23:45.631Z</time></trkpt><trkpt lat="40.4024288" lon="9.7237602"><ele>66.0</ele><time>2026-04-19T08:23:46.63Z</time></trkpt><trkpt lat="40.4023989" lon="9.7235916"><ele>66.25</ele><time>2026-04-19T08:23:47.631Z</time></trkpt><trkpt lat="40.4023689" lon="9.7234243"><ele>66.5</ele><time>2026-04-19T08:23:48.631Z</time></trkpt><trkpt lat="40.4023432" lon="9.7232652"><ele>66.75</ele><time>2026-04-19T08:23:49.63Z</time></trkpt><trkpt lat="40.4023167" lon="9.7231008"><ele>67.0</ele><time>2026-04-19T08:23:50.635Z</time></trkpt><trkpt lat="40.402285" lon="9.7229345"><ele>67.0</ele><time>2026-04-19T08:23:51.633Z</time></trkpt><trkpt lat="40.4022489" lon="9.7227821"><ele>67.0</ele><time>2026-04-19T08:23:52.632Z</time></trkpt><trkpt lat="40.4022218" lon="9.7226493"><ele>67.0</ele><time>2026-04-19T08:23:53.621Z</time></trkpt><trkpt lat="40.4022029" lon="9.7225228"><ele>67.0</ele><time>2026-04-19T08:23:54.628Z</time></trkpt><trkpt lat="40.4021953" lon="9.7224091"><ele>67.0</ele><time>2026-04-19T08:23:55.627Z</time></trkpt><trkpt lat="40.4022015" lon="9.7222722"><ele>66.75</ele><time>2026-04-19T08:23:56.619Z</time></trkpt><trkpt lat="40.4022105" lon="9.7221212"><ele>66.5</ele><time>2026-04-19T08:23:57.631Z</time></trkpt><trkpt lat="40.4022059" lon="9.7219725"><ele>66.25</ele><time>2026-04-19T08:23:58.623Z</time></trkpt><trkpt lat="40.4021811" lon="9.7218231"><ele>66.0</ele><time>2026-04-19T08:23:59.631Z</time></trkpt><trkpt lat="40.4021404" lon="9.7216863"><ele>65.6</ele><time>2026-04-19T08:24:00.631Z</time></trkpt><trkpt lat="40.4020942" lon="9.7215676"><ele>65.19999999999999</ele><time>2026-04-19T08:24:01.621Z</time></trkpt><trkpt lat="40.402057" lon="9.7214657"><ele>64.80000000000001</ele><time>2026-04-19T08:24:02.623Z</time></trkpt><trkpt lat="40.4020027" lon="9.7213834"><ele>64.4</ele><time>2026-04-19T08:24:03.649Z</time></trkpt><trkpt lat="40.4019235" lon="9.7213204"><ele>64.0</ele><time>2026-04-19T08:24:04.63Z</time></trkpt><trkpt lat="40.4018194" lon="9.7212672"><ele>64.0</ele><time>2026-04-19T08:24:05.631Z</time></trkpt><trkpt lat="40.4017204" lon="9.7212224"><ele>64.0</ele><time>2026-04-19T08:24:06.631Z</time></trkpt><trkpt lat="40.4016339" lon="9.7211696"><ele>64.0</ele><time>2026-04-19T08:24:07.624Z</time></trkpt><trkpt lat="40.4015545" lon="9.7210978"><ele>64.0</ele><time>2026-04-19T08:24:08.652Z</time></trkpt><trkpt lat="40.4014738" lon="9.7210173"><ele>64.0</ele><time>2026-04-19T08:24:09.711Z</time></trkpt><trkpt lat="40.4013864" lon="9.7209371"><ele>64.60000000000001</ele><time>2026-04-19T08:24:10.713Z</time></trkpt><trkpt lat="40.401293" lon="9.7208689"><ele>65.2</ele><time>2026-04-19T08:24:11.714Z</time></trkpt><trkpt lat="40.401202" lon="9.7208133"><ele>65.80000000000001</ele><time>2026-04-19T08:24:12.716Z</time></trkpt><trkpt lat="40.4011071" lon="9.7207534"><ele>66.4</ele><time>2026-04-19T08:24:13.696Z</time></trkpt><trkpt lat="40.4010196" lon="9.7206796"><ele>67.0</ele><time>2026-04-19T08:24:14.684Z</time></trkpt><trkpt lat="40.4009412" lon="9.7206053"><ele>67.0</ele><time>2026-04-19T08:24:15.685Z</time></trkpt><trkpt lat="40.4008711" lon="9.7205301"><ele>67.0</ele><time>2026-04-19T08:24:16.694Z</time></trkpt><trkpt lat="40.4008042" lon="9.7204489"><ele>67.0</ele><time>2026-04-19T08:24:17.719Z</time></trkpt><trkpt lat="40.4007303" lon="9.7203645"><ele>67.0</ele><time>2026-04-19T08:24:18.718Z</time></trkpt><trkpt lat="40.4006614" lon="9.7202815"><ele>67.0</ele><time>2026-04-19T08:24:19.712Z</time></trkpt><trkpt lat="40.4005716" lon="9.7202037"><ele>66.75</ele><time>2026-04-19T08:24:20.708Z</time></trkpt><trkpt lat="40.400476" lon="9.7201413"><ele>66.5</ele><time>2026-04-19T08:24:21.712Z</time></trkpt><trkpt lat="40.400353" lon="9.7200712"><ele>66.25</ele><time>2026-04-19T08:24:22.706Z</time></trkpt><trkpt lat="40.4002443" lon="9.7199922"><ele>66.0</ele><time>2026-04-19T08:24:23.71Z</time></trkpt><trkpt lat="40.4001772" lon="9.7199081"><ele>66.0</ele><time>2026-04-19T08:24:24.704Z</time></trkpt><trkpt lat="40.4001383" lon="9.7198128"><ele>66.0</ele><time>2026-04-19T08:24:25.699Z</time></trkpt><trkpt lat="40.4001087" lon="9.7197075"><ele>66.0</ele><time>2026-04-19T08:24:26.687Z</time></trkpt><trkpt lat="40.400092" lon="9.7196139"><ele>66.0</ele><time>2026-04-19T08:24:27.69Z</time></trkpt><trkpt lat="40.4000688" lon="9.7195051"><ele>66.0</ele><time>2026-04-19T08:24:28.688Z</time></trkpt><trkpt lat="40.4000355" lon="9.7193845"><ele>66.0</ele><time>2026-04-19T08:24:29.688Z</time></trkpt><trkpt lat="40.3999899" lon="9.7192524"><ele>66.16666666666667</ele><time>2026-04-19T08:24:30.714Z</time></trkpt><trkpt lat="40.3999422" lon="9.7191315"><ele>66.33333333333333</ele><time>2026-04-19T08:24:31.709Z</time></trkpt><trkpt lat="40.3998991" lon="9.7190255"><ele>66.5</ele><time>2026-04-19T08:24:32.711Z</time></trkpt><trkpt lat="40.3998588" lon="9.7189349"><ele>66.66666666666666</ele><time>2026-04-19T08:24:33.704Z</time></trkpt><trkpt lat="40.3998241" lon="9.7188522"><ele>66.83333333333333</ele><time>2026-04-19T08:24:34.72Z</time></trkpt><trkpt lat="40.3997791" lon="9.718734"><ele>67.0</ele><time>2026-04-19T08:24:36.702Z</time></trkpt><trkpt lat="40.3998425" lon="9.7186723"><ele>67.0</ele><time>2026-04-19T08:24:44.643Z</time></trkpt><trkpt lat="40.3999098" lon="9.7186941"><ele>67.0</ele><time>2026-04-19T08:24:46.633Z</time></trkpt><trkpt lat="40.3999745" lon="9.7186965"><ele>67.0</ele><time>2026-04-19T08:25:05.651Z</time></trkpt><trkpt lat="40.4000988" lon="9.7186879"><ele>67.0</ele><time>2026-04-19T08:25:07.618Z</time></trkpt><trkpt lat="40.4001986" lon="9.7186974"><ele>67.0</ele><time>2026-04-19T08:25:08.615Z</time></trkpt><trkpt lat="40.4003128" lon="9.7187207"><ele>67.0</ele><time>2026-04-19T08:25:09.619Z</time></trkpt><trkpt lat="40.4004373" lon="9.7187526"><ele>67.0</ele><time>2026-04-19T08:25:10.617Z</time></trkpt><trkpt lat="40.4005647" lon="9.7187726"><ele>67.0</ele><time>2026-04-19T08:25:11.624Z</time></trkpt><trkpt lat="40.4006919" lon="9.7187891"><ele>67.0</ele><time>2026-04-19T08:25:12.631Z</time></trkpt><trkpt lat="40.4008258" lon="9.7187988"><ele>67.25</ele><time>2026-04-19T08:25:13.627Z</time></trkpt><trkpt lat="40.4009592" lon="9.718812"><ele>67.5</ele><time>2026-04-19T08:25:14.631Z</time></trkpt><trkpt lat="40.4010842" lon="9.7188246"><ele>67.75</ele><time>2026-04-19T08:25:15.629Z</time></trkpt><trkpt lat="40.4012141" lon="9.7188302"><ele>68.0</ele><time>2026-04-19T08:25:16.63Z</time></trkpt><trkpt lat="40.4013477" lon="9.7188444"><ele>68.25</ele><time>2026-04-19T08:25:17.626Z</time></trkpt><trkpt lat="40.4014876" lon="9.7188628"><ele>68.5</ele><time>2026-04-19T08:25:18.638Z</time></trkpt><trkpt lat="40.4016246" lon="9.7188818"><ele>68.75</ele><time>2026-04-19T08:25:19.634Z</time></trkpt><trkpt lat="40.4017647" lon="9.7189012"><ele>69.0</ele><time>2026-04-19T08:25:20.633Z</time></trkpt><trkpt lat="40.4019176" lon="9.7189056"><ele>69.0</ele><time>2026-04-19T08:25:21.641Z</time></trkpt><trkpt lat="40.4020794" lon="9.7189183"><ele>69.0</ele><time>2026-04-19T08:25:22.638Z</time></trkpt><trkpt lat="40.4022266" lon="9.7189313"><ele>69.0</ele><time>2026-04-19T08:25:23.635Z</time></trkpt><trkpt lat="40.4023792" lon="9.7189568"><ele>69.33333333333333</ele><time>2026-04-19T08:25:24.633Z</time></trkpt><trkpt lat="40.4025294" lon="9.718968"><ele>69.66666666666666</ele><time>2026-04-19T08:25:25.635Z</time></trkpt><trkpt lat="40.402689" lon="9.7189811"><ele>70.0</ele><time>2026-04-19T08:25:26.633Z</time></trkpt><trkpt lat="40.4028344" lon="9.7190038"><ele>70.0</ele><time>2026-04-19T08:25:27.635Z</time></trkpt><trkpt lat="40.402985" lon="9.7190224"><ele>70.0</ele><time>2026-04-19T08:25:28.635Z</time></trkpt><trkpt lat="40.4031488" lon="9.7190418"><ele>70.0</ele><time>2026-04-19T08:25:29.626Z</time></trkpt><trkpt lat="40.403309" lon="9.7190659"><ele>71.0</ele><time>2026-04-19T08:25:30.632Z</time></trkpt><trkpt lat="40.4034676" lon="9.7190881"><ele>72.0</ele><time>2026-04-19T08:25:31.627Z</time></trkpt><trkpt lat="40.403629" lon="9.7190984"><ele>73.0</ele><time>2026-04-19T08:25:32.627Z</time></trkpt><trkpt lat="40.4037822" lon="9.7191165"><ele>72.66666666666666</ele><time>2026-04-19T08:25:33.624Z</time></trkpt><trkpt lat="40.4039373" lon="9.7191409"><ele>72.33333333333333</ele><time>2026-04-19T08:25:34.63Z</time></trkpt><trkpt lat="40.4040915" lon="9.7191565"><ele>72.0</ele><time>2026-04-19T08:25:35.628Z</time></trkpt><trkpt lat="40.4042505" lon="9.7191821"><ele>72.0</ele><time>2026-04-19T08:25:36.645Z</time></trkpt><trkpt lat="40.4044141" lon="9.7192035"><ele>72.0</ele><time>2026-04-19T08:25:37.629Z</time></trkpt><trkpt lat="40.4045865" lon="9.719222"><ele>72.0</ele><time>2026-04-19T08:25:38.628Z</time></trkpt><trkpt lat="40.4047557" lon="9.7192375"><ele>72.0</ele><time>2026-04-19T08:25:39.626Z</time></trkpt><trkpt lat="40.4049173" lon="9.7192561"><ele>72.0</ele><time>2026-04-19T08:25:40.628Z</time></trkpt><trkpt lat="40.4050755" lon="9.7192779"><ele>72.0</ele><time>2026-04-19T08:25:41.625Z</time></trkpt><trkpt lat="40.4052331" lon="9.7192931"><ele>72.0</ele><time>2026-04-19T08:25:42.629Z</time></trkpt><trkpt lat="40.4053748" lon="9.7193298"><ele>72.0</ele><time>2026-04-19T08:25:43.615Z</time></trkpt><trkpt lat="40.4055079" lon="9.71941"><ele>72.0</ele><time>2026-04-19T08:25:44.63Z</time></trkpt><trkpt lat="40.4056254" lon="9.7195432"><ele>72.0</ele><time>2026-04-19T08:25:45.616Z</time></trkpt><trkpt lat="40.4057317" lon="9.7197062"><ele>72.0</ele><time>2026-04-19T08:25:46.608Z</time></trkpt><trkpt lat="40.4058308" lon="9.7198759"><ele>72.0</ele><time>2026-04-19T08:25:47.624Z</time></trkpt><trkpt lat="40.4059334" lon="9.720058"><ele>72.0</ele><time>2026-04-19T08:25:48.625Z</time></trkpt><trkpt lat="40.4060345" lon="9.7202372"><ele>72.0</ele><time>2026-04-19T08:25:49.627Z</time></trkpt><trkpt lat="40.4061353" lon="9.7204002"><ele>72.0</ele><time>2026-04-19T08:25:50.621Z</time></trkpt><trkpt lat="40.4062389" lon="9.7205615"><ele>72.0</ele><time>2026-04-19T08:25:51.63Z</time></trkpt><trkpt lat="40.4063356" lon="9.7207201"><ele>73.33333333333333</ele><time>2026-04-19T08:25:52.626Z</time></trkpt><trkpt lat="40.4064386" lon="9.7208832"><ele>74.66666666666666</ele><time>2026-04-19T08:25:53.627Z</time></trkpt><trkpt lat="40.4065482" lon="9.721047"><ele>76.0</ele><time>2026-04-19T08:25:54.624Z</time></trkpt><trkpt lat="40.4066671" lon="9.7212136"><ele>76.0</ele><time>2026-04-19T08:25:55.627Z</time></trkpt><trkpt lat="40.4067695" lon="9.7213799"><ele>76.0</ele><time>2026-04-19T08:25:56.626Z</time></trkpt><trkpt lat="40.4068791" lon="9.7215478"><ele>76.0</ele><time>2026-04-19T08:25:57.626Z</time></trkpt><trkpt lat="40.4069836" lon="9.7217203"><ele>76.0</ele><time>2026-04-19T08:25:58.623Z</time></trkpt><trkpt lat="40.4070836" lon="9.7218895"><ele>76.0</ele><time>2026-04-19T08:25:59.625Z</time></trkpt><trkpt lat="40.4071835" lon="9.7220683"><ele>76.0</ele><time>2026-04-19T08:26:00.634Z</time></trkpt><trkpt lat="40.4072911" lon="9.7222341"><ele>76.66666666666666</ele><time>2026-04-19T08:26:01.626Z</time></trkpt><trkpt lat="40.4073999" lon="9.7224051"><ele>77.33333333333333</ele><time>2026-04-19T08:26:02.626Z</time></trkpt><trkpt lat="40.4075068" lon="9.7225725"><ele>78.0</ele><time>2026-04-19T08:26:03.626Z</time></trkpt><trkpt lat="40.407615" lon="9.7227496"><ele>78.0</ele><time>2026-04-19T08:26:04.627Z</time></trkpt><trkpt lat="40.4077263" lon="9.7229288"><ele>78.0</ele><time>2026-04-19T08:26:05.626Z</time></trkpt><trkpt lat="40.4078374" lon="9.7231065"><ele>78.0</ele><time>2026-04-19T08:26:06.625Z</time></trkpt><trkpt lat="40.4079469" lon="9.7232819"><ele>79.0</ele><time>2026-04-19T08:26:07.64Z</time></trkpt><trkpt lat="40.4080647" lon="9.7234659"><ele>80.0</ele><time>2026-04-19T08:26:08.621Z</time></trkpt><trkpt lat="40.4081838" lon="9.7236471"><ele>81.0</ele><time>2026-04-19T08:26:09.627Z</time></trkpt><trkpt lat="40.4082947" lon="9.7238266"><ele>81.33333333333333</ele><time>2026-04-19T08:26:10.629Z</time></trkpt><trkpt lat="40.4083991" lon="9.724009"><ele>81.66666666666666</ele><time>2026-04-19T08:26:11.624Z</time></trkpt><trkpt lat="40.4085087" lon="9.7241858"><ele>82.0</ele><time>2026-04-19T08:26:12.626Z</time></trkpt><trkpt lat="40.4086187" lon="9.7243621"><ele>82.0</ele><time>2026-04-19T08:26:13.629Z</time></trkpt><trkpt lat="40.4087269" lon="9.7245362"><ele>82.0</ele><time>2026-04-19T08:26:14.625Z</time></trkpt><trkpt lat="40.4088397" lon="9.7247108"><ele>82.0</ele><time>2026-04-19T08:26:15.619Z</time></trkpt><trkpt lat="40.4089527" lon="9.72489"><ele>83.0</ele><time>2026-04-19T08:26:16.622Z</time></trkpt><trkpt lat="40.4090593" lon="9.7250609"><ele>84.0</ele><time>2026-04-19T08:26:17.621Z</time></trkpt><trkpt lat="40.4091697" lon="9.7252291"><ele>85.0</ele><time>2026-04-19T08:26:18.623Z</time></trkpt><trkpt lat="40.4092762" lon="9.7253999"><ele>85.0</ele><time>2026-04-19T08:26:19.621Z</time></trkpt><trkpt lat="40.4093832" lon="9.7255782"><ele>85.0</ele><time>2026-04-19T08:26:20.622Z</time></trkpt><trkpt lat="40.4094866" lon="9.7257578"><ele>85.0</ele><time>2026-04-19T08:26:21.627Z</time></trkpt><trkpt lat="40.4095968" lon="9.7259372"><ele>86.0</ele><time>2026-04-19T08:26:22.622Z</time></trkpt><trkpt lat="40.4097141" lon="9.726119"><ele>87.0</ele><time>2026-04-19T08:26:23.622Z</time></trkpt><trkpt lat="40.4098312" lon="9.7263008"><ele>88.0</ele><time>2026-04-19T08:26:24.622Z</time></trkpt><trkpt lat="40.4099362" lon="9.7264625"><ele>88.0</ele><time>2026-04-19T08:26:25.645Z</time></trkpt><trkpt lat="40.4100321" lon="9.7266215"><ele>88.0</ele><time>2026-04-19T08:26:26.708Z</time></trkpt><trkpt lat="40.410124" lon="9.7267781"><ele>88.0</ele><time>2026-04-19T08:26:27.711Z</time></trkpt><trkpt lat="40.4102171" lon="9.7269419"><ele>88.0</ele><time>2026-04-19T08:26:28.71Z</time></trkpt><trkpt lat="40.4103174" lon="9.727112"><ele>88.0</ele><time>2026-04-19T08:26:29.711Z</time></trkpt><trkpt lat="40.4104204" lon="9.7272866"><ele>88.0</ele><time>2026-04-19T08:26:30.718Z</time></trkpt><trkpt lat="40.410526" lon="9.7274676"><ele>88.0</ele><time>2026-04-19T08:26:31.711Z</time></trkpt><trkpt lat="40.4106349" lon="9.7276539"><ele>88.0</ele><time>2026-04-19T08:26:32.714Z</time></trkpt><trkpt lat="40.4107488" lon="9.7278398"><ele>88.0</ele><time>2026-04-19T08:26:33.716Z</time></trkpt><trkpt lat="40.4108683" lon="9.7280264"><ele>87.66666666666666</ele><time>2026-04-19T08:26:34.712Z</time></trkpt><trkpt lat="40.4109853" lon="9.7282097"><ele>87.33333333333333</ele><time>2026-04-19T08:26:35.713Z</time></trkpt><trkpt lat="40.4110994" lon="9.728396"><ele>87.0</ele><time>2026-04-19T08:26:36.715Z</time></trkpt><trkpt lat="40.4112021" lon="9.7285979"><ele>87.0</ele><time>2026-04-19T08:26:37.713Z</time></trkpt><trkpt lat="40.4113144" lon="9.7287717"><ele>87.0</ele><time>2026-04-19T08:26:38.727Z</time></trkpt><trkpt lat="40.4114232" lon="9.7289457"><ele>87.0</ele><time>2026-04-19T08:26:39.711Z</time></trkpt><trkpt lat="40.4115305" lon="9.7291245"><ele>87.33333333333333</ele><time>2026-04-19T08:26:40.713Z</time></trkpt><trkpt lat="40.4116347" lon="9.7293046"><ele>87.66666666666666</ele><time>2026-04-19T08:26:41.713Z</time></trkpt><trkpt lat="40.4117375" lon="9.7294912"><ele>88.0</ele><time>2026-04-19T08:26:42.71Z</time></trkpt><trkpt lat="40.4118367" lon="9.72968"><ele>87.33333333333333</ele><time>2026-04-19T08:26:43.715Z</time></trkpt><trkpt lat="40.4119317" lon="9.7298755"><ele>86.66666666666667</ele><time>2026-04-19T08:26:44.71Z</time></trkpt><trkpt lat="40.4120189" lon="9.7300651"><ele>86.0</ele><time>2026-04-19T08:26:45.713Z</time></trkpt><trkpt lat="40.4121053" lon="9.7302505"><ele>86.5</ele><time>2026-04-19T08:26:46.711Z</time></trkpt><trkpt lat="40.4121876" lon="9.730427"><ele>87.0</ele><time>2026-04-19T08:26:47.712Z</time></trkpt><trkpt lat="40.4122638" lon="9.7305916"><ele>87.5</ele><time>2026-04-19T08:26:48.715Z</time></trkpt><trkpt lat="40.4123365" lon="9.7307496"><ele>88.0</ele><time>2026-04-19T08:26:49.714Z</time></trkpt><trkpt lat="40.4124034" lon="9.7308979"><ele>88.0</ele><time>2026-04-19T08:26:50.714Z</time></trkpt><trkpt lat="40.4124685" lon="9.7310403"><ele>88.0</ele><time>2026-04-19T08:26:51.715Z</time></trkpt><trkpt lat="40.412529" lon="9.7311807"><ele>88.0</ele><time>2026-04-19T08:26:52.716Z</time></trkpt><trkpt lat="40.4125886" lon="9.7313126"><ele>88.0</ele><time>2026-04-19T08:26:53.711Z</time></trkpt><trkpt lat="40.4126456" lon="9.7314355"><ele>88.0</ele><time>2026-04-19T08:26:54.713Z</time></trkpt><trkpt lat="40.4126974" lon="9.731548"><ele>88.0</ele><time>2026-04-19T08:26:55.712Z</time></trkpt><trkpt lat="40.4127427" lon="9.7316462"><ele>88.0</ele><time>2026-04-19T08:26:56.705Z</time></trkpt><trkpt lat="40.412782" lon="9.7317199"><ele>88.0</ele><time>2026-04-19T08:26:57.711Z</time></trkpt><trkpt lat="40.4128464" lon="9.7317663"><ele>88.0</ele><time>2026-04-19T08:26:59.709Z</time></trkpt><trkpt lat="40.4129483" lon="9.7317249"><ele>88.0</ele><time>2026-04-19T08:27:02.719Z</time></trkpt><trkpt lat="40.413063" lon="9.7316771"><ele>87.80000000000001</ele><time>2026-04-19T08:27:04.714Z</time></trkpt><trkpt lat="40.4131357" lon="9.7316491"><ele>87.6</ele><time>2026-04-19T08:27:05.715Z</time></trkpt><trkpt lat="40.4132198" lon="9.7316171"><ele>87.4</ele><time>2026-04-19T08:27:06.714Z</time></trkpt><trkpt lat="40.4133061" lon="9.731585"><ele>87.19999999999999</ele><time>2026-04-19T08:27:07.717Z</time></trkpt><trkpt lat="40.413403" lon="9.7315461"><ele>87.0</ele><time>2026-04-19T08:27:08.714Z</time></trkpt><trkpt lat="40.4134971" lon="9.7315085"><ele>87.0</ele><time>2026-04-19T08:27:09.73Z</time></trkpt><trkpt lat="40.413593" lon="9.7314607"><ele>87.0</ele><time>2026-04-19T08:27:10.712Z</time></trkpt><trkpt lat="40.4136922" lon="9.7314118"><ele>87.0</ele><time>2026-04-19T08:27:11.712Z</time></trkpt><trkpt lat="40.4137924" lon="9.7313714"><ele>87.0</ele><time>2026-04-19T08:27:12.714Z</time></trkpt><trkpt lat="40.4138936" lon="9.7313349"><ele>87.0</ele><time>2026-04-19T08:27:13.692Z</time></trkpt><trkpt lat="40.4139995" lon="9.7312961"><ele>87.5</ele><time>2026-04-19T08:27:14.694Z</time></trkpt><trkpt lat="40.4141108" lon="9.7312543"><ele>88.0</ele><time>2026-04-19T08:27:15.693Z</time></trkpt><trkpt lat="40.4142218" lon="9.7312108"><ele>88.5</ele><time>2026-04-19T08:27:16.691Z</time></trkpt><trkpt lat="40.4143368" lon="9.7311664"><ele>89.0</ele><time>2026-04-19T08:27:17.714Z</time></trkpt><trkpt lat="40.4144521" lon="9.7311224"><ele>89.0</ele><time>2026-04-19T08:27:18.715Z</time></trkpt><trkpt lat="40.4145579" lon="9.7310848"><ele>89.0</ele><time>2026-04-19T08:27:19.716Z</time></trkpt><trkpt lat="40.4146515" lon="9.7310499"><ele>89.0</ele><time>2026-04-19T08:27:20.714Z</time></trkpt><trkpt lat="40.4147409" lon="9.7310164"><ele>89.0</ele><time>2026-04-19T08:27:21.711Z</time></trkpt><trkpt lat="40.4148332" lon="9.7309851"><ele>89.0</ele><time>2026-04-19T08:27:22.707Z</time></trkpt><trkpt lat="40.4149339" lon="9.7309506"><ele>89.2</ele><time>2026-04-19T08:27:23.712Z</time></trkpt><trkpt lat="40.4150383" lon="9.7309173"><ele>89.4</ele><time>2026-04-19T08:27:24.708Z</time></trkpt><trkpt lat="40.415143" lon="9.7308851"><ele>89.6</ele><time>2026-04-19T08:27:25.714Z</time></trkpt><trkpt lat="40.4152482" lon="9.730854"><ele>89.8</ele><time>2026-04-19T08:27:26.716Z</time></trkpt><trkpt lat="40.4153607" lon="9.7308209"><ele>90.0</ele><time>2026-04-19T08:27:27.721Z</time></trkpt><trkpt lat="40.4154809" lon="9.7307847"><ele>90.75</ele><time>2026-04-19T08:27:28.716Z</time></trkpt><trkpt lat="40.4156018" lon="9.7307504"><ele>91.5</ele><time>2026-04-19T08:27:29.714Z</time></trkpt><trkpt lat="40.4157176" lon="9.7307169"><ele>92.25</ele><time>2026-04-19T08:27:30.721Z</time></trkpt><trkpt lat="40.4158247" lon="9.7306813"><ele>93.0</ele><time>2026-04-19T08:27:31.716Z</time></trkpt><trkpt lat="40.4159314" lon="9.7306471"><ele>93.0</ele><time>2026-04-19T08:27:32.717Z</time></trkpt><trkpt lat="40.41604" lon="9.7306105"><ele>93.0</ele><time>2026-04-19T08:27:33.719Z</time></trkpt><trkpt lat="40.4161487" lon="9.7305709"><ele>93.0</ele><time>2026-04-19T08:27:34.721Z</time></trkpt><trkpt lat="40.4162591" lon="9.7305297"><ele>93.0</ele><time>2026-04-19T08:27:35.716Z</time></trkpt><trkpt lat="40.4163723" lon="9.7304872"><ele>93.5</ele><time>2026-04-19T08:27:36.717Z</time></trkpt><trkpt lat="40.4164889" lon="9.7304438"><ele>94.0</ele><time>2026-04-19T08:27:37.716Z</time></trkpt><trkpt lat="40.4166073" lon="9.7304004"><ele>94.5</ele><time>2026-04-19T08:27:38.717Z</time></trkpt><trkpt lat="40.4167273" lon="9.7303576"><ele>95.0</ele><time>2026-04-19T08:27:39.718Z</time></trkpt><trkpt lat="40.4168465" lon="9.7303143"><ele>95.0</ele><time>2026-04-19T08:27:40.727Z</time></trkpt><trkpt lat="40.416965" lon="9.7302724"><ele>95.0</ele><time>2026-04-19T08:27:41.711Z</time></trkpt><trkpt lat="40.4170787" lon="9.7302291"><ele>95.0</ele><time>2026-04-19T08:27:42.712Z</time></trkpt><trkpt lat="40.4171897" lon="9.7301906"><ele>95.0</ele><time>2026-04-19T08:27:43.709Z</time></trkpt><trkpt lat="40.4173031" lon="9.7301497"><ele>95.75</ele><time>2026-04-19T08:27:44.707Z</time></trkpt><trkpt lat="40.4174157" lon="9.7301114"><ele>96.5</ele><time>2026-04-19T08:27:45.712Z</time></trkpt><trkpt lat="40.4175321" lon="9.7300728"><ele>97.25</ele><time>2026-04-19T08:27:46.71Z</time></trkpt><trkpt lat="40.4176531" lon="9.7300355"><ele>98.0</ele><time>2026-04-19T08:27:47.705Z</time></trkpt><trkpt lat="40.4177739" lon="9.7299979"><ele>98.0</ele><time>2026-04-19T08:27:48.709Z</time></trkpt><trkpt lat="40.4178937" lon="9.7299621"><ele>98.0</ele><time>2026-04-19T08:27:49.713Z</time></trkpt><trkpt lat="40.4180374" lon="9.7299203"><ele>98.0</ele><time>2026-04-19T08:27:50.716Z</time></trkpt><trkpt lat="40.4181904" lon="9.7298861"><ele>98.0</ele><time>2026-04-19T08:27:51.716Z</time></trkpt><trkpt lat="40.4183356" lon="9.7298726"><ele>98.5</ele><time>2026-04-19T08:27:52.715Z</time></trkpt><trkpt lat="40.4184512" lon="9.7298688"><ele>99.0</ele><time>2026-04-19T08:27:53.713Z</time></trkpt><trkpt lat="40.4185921" lon="9.7298274"><ele>99.5</ele><time>2026-04-19T08:27:54.713Z</time></trkpt><trkpt lat="40.4187291" lon="9.7297698"><ele>100.0</ele><time>2026-04-19T08:27:55.711Z</time></trkpt><trkpt lat="40.4188638" lon="9.7297052"><ele>100.25</ele><time>2026-04-19T08:27:56.694Z</time></trkpt><trkpt lat="40.4189907" lon="9.729656"><ele>100.5</ele><time>2026-04-19T08:27:57.697Z</time></trkpt><trkpt lat="40.4191094" lon="9.729623"><ele>100.75</ele><time>2026-04-19T08:27:58.694Z</time></trkpt><trkpt lat="40.4192229" lon="9.7295934"><ele>101.0</ele><time>2026-04-19T08:27:59.691Z</time></trkpt><trkpt lat="40.41933" lon="9.7295648"><ele>101.0</ele><time>2026-04-19T08:28:00.725Z</time></trkpt><trkpt lat="40.4194237" lon="9.7295298"><ele>101.0</ele><time>2026-04-19T08:28:01.711Z</time></trkpt><trkpt lat="40.4195301" lon="9.72945"><ele>101.0</ele><time>2026-04-19T08:28:03.701Z</time></trkpt><trkpt lat="40.4195887" lon="9.7293848"><ele>101.0</ele><time>2026-04-19T08:28:04.689Z</time></trkpt><trkpt lat="40.4196822" lon="9.7292966"><ele>101.0</ele><time>2026-04-19T08:28:06.691Z</time></trkpt><trkpt lat="40.4197676" lon="9.7292948"><ele>101.4</ele><time>2026-04-19T08:28:08.705Z</time></trkpt><trkpt lat="40.4198885" lon="9.7293677"><ele>101.8</ele><time>2026-04-19T08:28:10.69Z</time></trkpt><trkpt lat="40.4199611" lon="9.7294386"><ele>102.2</ele><time>2026-04-19T08:28:11.718Z</time></trkpt><trkpt lat="40.4200415" lon="9.7295223"><ele>102.60000000000001</ele><time>2026-04-19T08:28:12.688Z</time></trkpt><trkpt lat="40.4201354" lon="9.7296121"><ele>103.0</ele><time>2026-04-19T08:28:13.693Z</time></trkpt><trkpt lat="40.4202378" lon="9.7297003"><ele>103.0</ele><time>2026-04-19T08:28:14.712Z</time></trkpt><trkpt lat="40.4203521" lon="9.7297941"><ele>103.0</ele><time>2026-04-19T08:28:15.712Z</time></trkpt><trkpt lat="40.4204576" lon="9.7298822"><ele>103.0</ele><time>2026-04-19T08:28:16.708Z</time></trkpt><trkpt lat="40.4205641" lon="9.7299622"><ele>103.0</ele><time>2026-04-19T08:28:17.711Z</time></trkpt><trkpt lat="40.4206705" lon="9.730043"><ele>103.0</ele><time>2026-04-19T08:28:18.711Z</time></trkpt><trkpt lat="40.4207785" lon="9.7301212"><ele>103.0</ele><time>2026-04-19T08:28:19.711Z</time></trkpt><trkpt lat="40.4208845" lon="9.7301968"><ele>103.0</ele><time>2026-04-19T08:28:20.709Z</time></trkpt><trkpt lat="40.421" lon="9.7302782"><ele>103.0</ele><time>2026-04-19T08:28:21.696Z</time></trkpt><trkpt lat="40.4211044" lon="9.7303495"><ele>103.0</ele><time>2026-04-19T08:28:22.69Z</time></trkpt><trkpt lat="40.4212147" lon="9.7304153"><ele>103.0</ele><time>2026-04-19T08:28:23.691Z</time></trkpt><trkpt lat="40.4213322" lon="9.7304722"><ele>103.0</ele><time>2026-04-19T08:28:24.686Z</time></trkpt><trkpt lat="40.4214495" lon="9.7305288"><ele>103.0</ele><time>2026-04-19T08:28:25.711Z</time></trkpt><trkpt lat="40.4215778" lon="9.7305995"><ele>103.25</ele><time>2026-04-19T08:28:26.612Z</time></trkpt><trkpt lat="40.4216926" lon="9.7306884"><ele>103.5</ele><time>2026-04-19T08:28:27.623Z</time></trkpt><trkpt lat="40.4217928" lon="9.7307628"><ele>103.75</ele><time>2026-04-19T08:28:28.625Z</time></trkpt><trkpt lat="40.4218934" lon="9.7308278"><ele>104.0</ele><time>2026-04-19T08:28:29.622Z</time></trkpt><trkpt lat="40.4219909" lon="9.7308811"><ele>104.0</ele><time>2026-04-19T08:28:30.629Z</time></trkpt><trkpt lat="40.422089" lon="9.7309319"><ele>104.0</ele><time>2026-04-19T08:28:31.62Z</time></trkpt><trkpt lat="40.4221914" lon="9.7309789"><ele>104.0</ele><time>2026-04-19T08:28:32.621Z</time></trkpt><trkpt lat="40.4222954" lon="9.7310401"><ele>104.0</ele><time>2026-04-19T08:28:33.62Z</time></trkpt><trkpt lat="40.4224023" lon="9.731109"><ele>104.0</ele><time>2026-04-19T08:28:34.621Z</time></trkpt><trkpt lat="40.422505" lon="9.7311746"><ele>103.5</ele><time>2026-04-19T08:28:35.623Z</time></trkpt><trkpt lat="40.422612" lon="9.7312471"><ele>103.0</ele><time>2026-04-19T08:28:36.626Z</time></trkpt><trkpt lat="40.4227271" lon="9.731317"><ele>102.5</ele><time>2026-04-19T08:28:37.625Z</time></trkpt><trkpt lat="40.4228397" lon="9.7313887"><ele>102.0</ele><time>2026-04-19T08:28:38.625Z</time></trkpt><trkpt lat="40.422953" lon="9.7314628"><ele>102.25</ele><time>2026-04-19T08:28:39.624Z</time></trkpt><trkpt lat="40.423067" lon="9.7315377"><ele>102.5</ele><time>2026-04-19T08:28:40.623Z</time></trkpt><trkpt lat="40.4231733" lon="9.7316114"><ele>102.75</ele><time>2026-04-19T08:28:41.637Z</time></trkpt><trkpt lat="40.4232837" lon="9.7316876"><ele>103.0</ele><time>2026-04-19T08:28:42.62Z</time></trkpt><trkpt lat="40.4233953" lon="9.7317611"><ele>103.0</ele><time>2026-04-19T08:28:43.622Z</time></trkpt><trkpt lat="40.4234824" lon="9.7318257"><ele>103.0</ele><time>2026-04-19T08:28:44.621Z</time></trkpt><trkpt lat="40.4235681" lon="9.7318846"><ele>103.0</ele><time>2026-04-19T08:28:45.62Z</time></trkpt><trkpt lat="40.4236495" lon="9.7319539"><ele>103.0</ele><time>2026-04-19T08:28:46.623Z</time></trkpt><trkpt lat="40.4237288" lon="9.7320205"><ele>103.0</ele><time>2026-04-19T08:28:47.624Z</time></trkpt><trkpt lat="40.4238006" lon="9.7320906"><ele>102.57142857142857</ele><time>2026-04-19T08:28:48.625Z</time></trkpt><trkpt lat="40.4238558" lon="9.7321621"><ele>102.14285714285714</ele><time>2026-04-19T08:28:49.627Z</time></trkpt><trkpt lat="40.4239054" lon="9.7322302"><ele>101.71428571428572</ele><time>2026-04-19T08:28:50.625Z</time></trkpt><trkpt lat="40.4239495" lon="9.7323053"><ele>101.28571428571428</ele><time>2026-04-19T08:28:51.628Z</time></trkpt><trkpt lat="40.4239953" lon="9.7323703"><ele>100.85714285714286</ele><time>2026-04-19T08:28:52.62Z</time></trkpt><trkpt lat="40.4240444" lon="9.7324311"><ele>100.42857142857143</ele><time>2026-04-19T08:28:53.62Z</time></trkpt><trkpt lat="40.4241043" lon="9.7325036"><ele>100.0</ele><time>2026-04-19T08:28:55.606Z</time></trkpt><trkpt lat="40.4241419" lon="9.7325867"><ele>100.0</ele><time>2026-04-19T08:29:10.634Z</time></trkpt><trkpt lat="40.424173" lon="9.7326679"><ele>100.0</ele><time>2026-04-19T08:29:53.621Z</time></trkpt><trkpt lat="40.4242324" lon="9.7328353"><ele>100.0</ele><time>2026-04-19T08:29:55.62Z</time></trkpt><trkpt lat="40.4242609" lon="9.7329562"><ele>100.0</ele><time>2026-04-19T08:29:56.625Z</time></trkpt><trkpt lat="40.4242782" lon="9.733057"><ele>100.0</ele><time>2026-04-19T08:29:57.623Z</time></trkpt><trkpt lat="40.4243205" lon="9.7331782"><ele>99.00000000000001</ele><time>2026-04-19T08:29:59.624Z</time></trkpt><trkpt lat="40.4244014" lon="9.7331517"><ele>98.0</ele><time>2026-04-19T08:30:01.629Z</time></trkpt><trkpt lat="40.4244991" lon="9.7330929"><ele>97.0</ele><time>2026-04-19T08:30:03.627Z</time></trkpt><trkpt lat="40.424584" lon="9.7330002"><ele>96.0</ele><time>2026-04-19T08:30:05.614Z</time></trkpt><trkpt lat="40.4246357" lon="9.7329521"><ele>95.0</ele><time>2026-04-19T08:30:06.618Z</time></trkpt><trkpt lat="40.4246989" lon="9.732918"><ele>94.0</ele><time>2026-04-19T08:30:07.613Z</time></trkpt><trkpt lat="40.4247611" lon="9.7328852"><ele>92.83333333333333</ele><time>2026-04-19T08:30:08.61Z</time></trkpt><trkpt lat="40.4248244" lon="9.7328617"><ele>91.66666666666666</ele><time>2026-04-19T08:30:09.608Z</time></trkpt><trkpt lat="40.4248836" lon="9.7328305"><ele>90.5</ele><time>2026-04-19T08:30:10.604Z</time></trkpt><trkpt lat="40.4249861" lon="9.7327941"><ele>89.33333333333333</ele><time>2026-04-19T08:30:12.598Z</time></trkpt><trkpt lat="40.4250416" lon="9.7328492"><ele>88.16666666666667</ele><time>2026-04-19T08:30:14.629Z</time></trkpt><trkpt lat="40.4250153" lon="9.7329819"><ele>87.0</ele><time>2026-04-19T08:30:16.607Z</time></trkpt><trkpt lat="40.4249978" lon="9.7330701"><ele>87.0</ele><time>2026-04-19T08:30:17.614Z</time></trkpt><trkpt lat="40.4249722" lon="9.7331582"><ele>87.0</ele><time>2026-04-19T08:30:18.61Z</time></trkpt><trkpt lat="40.4249554" lon="9.7332387"><ele>87.0</ele><time>2026-04-19T08:30:19.604Z</time></trkpt><trkpt lat="40.4248788" lon="9.7333733"><ele>87.0</ele><time>2026-04-19T08:30:21.608Z</time></trkpt><trkpt lat="40.424173" lon="9.7326679"><ele>88.39999999999999</ele><time>2026-04-19T08:29:53.621Z</time></trkpt><trkpt lat="40.4242324" lon="9.7328353"><ele>89.8</ele><time>2026-04-19T08:29:55.62Z</time></trkpt><trkpt lat="40.4242609" lon="9.7329562"><ele>91.2</ele><time>2026-04-19T08:29:56.625Z</time></trkpt><trkpt lat="40.4242782" lon="9.733057"><ele>92.6</ele><time>2026-04-19T08:29:57.623Z</time></trkpt><trkpt lat="40.4243205" lon="9.7331782"><ele>94.0</ele><time>2026-04-19T08:29:59.624Z</time></trkpt><trkpt lat="40.4244014" lon="9.7331517"><ele>94.0</ele><time>2026-04-19T08:30:01.629Z</time></trkpt><trkpt lat="40.4244991" lon="9.7330929"><ele>94.0</ele><time>2026-04-19T08:30:03.627Z</time></trkpt><trkpt lat="40.424584" lon="9.7330002"><ele>94.0</ele><time>2026-04-19T08:30:05.614Z</time></trkpt><trkpt lat="40.4246357" lon="9.7329521"><ele>94.0</ele><time>2026-04-19T08:30:06.618Z</time></trkpt><trkpt lat="40.4246989" lon="9.732918"><ele>94.0</ele><time>2026-04-19T08:30:07.613Z</time></trkpt><trkpt lat="40.4247611" lon="9.7328852"><ele>94.0</ele><time>2026-04-19T08:30:08.61Z</time></trkpt><trkpt lat="40.4248244" lon="9.7328617"><ele>92.83333333333333</ele><time>2026-04-19T08:30:09.608Z</time></trkpt><trkpt lat="40.4248836" lon="9.7328305"><ele>91.66666666666666</ele><time>2026-04-19T08:30:10.604Z</time></trkpt><trkpt lat="40.4249861" lon="9.7327941"><ele>90.5</ele><time>2026-04-19T08:30:12.598Z</time></trkpt><trkpt lat="40.4250416" lon="9.7328492"><ele>89.33333333333333</ele><time>2026-04-19T08:30:14.629Z</time></trkpt><trkpt lat="40.4250153" lon="9.7329819"><ele>88.16666666666667</ele><time>2026-04-19T08:30:16.607Z</time></trkpt><trkpt lat="40.4249978" lon="9.7330701"><ele>87.0</ele><time>2026-04-19T08:30:17.614Z</time></trkpt><trkpt lat="40.4249722" lon="9.7331582"><ele>87.0</ele><time>2026-04-19T08:30:18.61Z</time></trkpt><trkpt lat="40.4249554" lon="9.7332387"><ele>87.0</ele><time>2026-04-19T08:30:19.604Z</time></trkpt><trkpt lat="40.4248788" lon="9.7333733"><ele>87.0</ele><time>2026-04-19T08:30:21.608Z</time></trkpt><trkpt lat="40.4248289" lon="9.7334983"><ele>87.0</ele><time>2026-04-19T08:30:23.598Z</time></trkpt><trkpt lat="40.4248113" lon="9.7336478"><ele>87.0</ele><time>2026-04-19T08:30:25.597Z</time></trkpt><trkpt lat="40.4247678" lon="9.7337807"><ele>87.33333333333333</ele><time>2026-04-19T08:30:27.594Z</time></trkpt><trkpt lat="40.4247106" lon="9.7338605"><ele>87.66666666666667</ele><time>2026-04-19T08:30:29.591Z</time></trkpt><trkpt lat="40.4247549" lon="9.733967"><ele>88.0</ele><time>2026-04-19T08:30:32.597Z</time></trkpt><trkpt lat="40.424757" lon="9.7340913"><ele>88.33333333333334</ele><time>2026-04-19T08:30:34.599Z</time></trkpt><trkpt lat="40.424716" lon="9.7342206"><ele>88.66666666666667</ele><time>2026-04-19T08:30:36.592Z</time></trkpt><trkpt lat="40.4246816" lon="9.7343"><ele>89.0</ele><time>2026-04-19T08:30:37.586Z</time></trkpt><trkpt lat="40.4246349" lon="9.7343947"><ele>87.83333333333334</ele><time>2026-04-19T08:30:38.595Z</time></trkpt><trkpt lat="40.4245989" lon="9.7344911"><ele>86.66666666666667</ele><time>2026-04-19T08:30:39.592Z</time></trkpt><trkpt lat="40.4245684" lon="9.7346053"><ele>85.5</ele><time>2026-04-19T08:30:40.599Z</time></trkpt><trkpt lat="40.4245298" lon="9.7347154"><ele>84.33333333333333</ele><time>2026-04-19T08:30:41.598Z</time></trkpt><trkpt lat="40.4244912" lon="9.7348174"><ele>83.16666666666666</ele><time>2026-04-19T08:30:42.596Z</time></trkpt><trkpt lat="40.4244573" lon="9.7349133"><ele>82.0</ele><time>2026-04-19T08:30:43.604Z</time></trkpt><trkpt lat="40.4244221" lon="9.7350211"><ele>82.0</ele><time>2026-04-19T08:30:44.604Z</time></trkpt><trkpt lat="40.4243958" lon="9.7351214"><ele>82.0</ele><time>2026-04-19T08:30:45.618Z</time></trkpt><trkpt lat="40.4243565" lon="9.7352174"><ele>82.0</ele><time>2026-04-19T08:30:46.603Z</time></trkpt><trkpt lat="40.4243156" lon="9.735308"><ele>82.0</ele><time>2026-04-19T08:30:47.602Z</time></trkpt><trkpt lat="40.4242739" lon="9.7353885"><ele>82.0</ele><time>2026-04-19T08:30:48.601Z</time></trkpt><trkpt lat="40.4242289" lon="9.7354653"><ele>82.0</ele><time>2026-04-19T08:30:49.6Z</time></trkpt><trkpt lat="40.4241523" lon="9.7355825"><ele>83.33333333333333</ele><time>2026-04-19T08:30:51.601Z</time></trkpt><trkpt lat="40.424103" lon="9.7356556"><ele>84.66666666666666</ele><time>2026-04-19T08:30:52.603Z</time></trkpt><trkpt lat="40.4240537" lon="9.7357364"><ele>86.0</ele><time>2026-04-19T08:30:53.606Z</time></trkpt><trkpt lat="40.4240094" lon="9.7358128"><ele>87.33333333333333</ele><time>2026-04-19T08:30:54.606Z</time></trkpt><trkpt lat="40.4239619" lon="9.7359023"><ele>88.66666666666667</ele><time>2026-04-19T08:30:55.609Z</time></trkpt><trkpt lat="40.4239227" lon="9.7359744"><ele>90.0</ele><time>2026-04-19T08:30:56.609Z</time></trkpt><trkpt lat="40.4238565" lon="9.7360807"><ele>90.5</ele><time>2026-04-19T08:30:58.612Z</time></trkpt><trkpt lat="40.4238977" lon="9.7361506"><ele>91.0</ele><time>2026-04-19T08:31:08.618Z</time></trkpt><trkpt lat="40.4240032" lon="9.7361383"><ele>91.5</ele><time>2026-04-19T08:31:10.612Z</time></trkpt><trkpt lat="40.4240802" lon="9.7361091"><ele>92.0</ele><time>2026-04-19T08:31:11.622Z</time></trkpt><trkpt lat="40.4241688" lon="9.7360856"><ele>92.5</ele><time>2026-04-19T08:31:12.619Z</time></trkpt><trkpt lat="40.4242542" lon="9.7360825"><ele>93.0</ele><time>2026-04-19T08:31:13.618Z</time></trkpt><trkpt lat="40.4243495" lon="9.7361018"><ele>93.0</ele><time>2026-04-19T08:31:14.617Z</time></trkpt><trkpt lat="40.4244549" lon="9.7361354"><ele>93.0</ele><time>2026-04-19T08:31:15.619Z</time></trkpt><trkpt lat="40.4245685" lon="9.7361613"><ele>93.0</ele><time>2026-04-19T08:31:16.633Z</time></trkpt><trkpt lat="40.424683" lon="9.7361849"><ele>93.0</ele><time>2026-04-19T08:31:17.619Z</time></trkpt><trkpt lat="40.4247853" lon="9.7362142"><ele>93.0</ele><time>2026-04-19T08:31:18.62Z</time></trkpt><trkpt lat="40.4248797" lon="9.7362559"><ele>93.4</ele><time>2026-04-19T08:31:19.617Z</time></trkpt><trkpt lat="40.4249685" lon="9.7363083"><ele>93.80000000000001</ele><time>2026-04-19T08:31:20.619Z</time></trkpt><trkpt lat="40.4250501" lon="9.7363664"><ele>94.2</ele><time>2026-04-19T08:31:21.617Z</time></trkpt><trkpt lat="40.4251391" lon="9.736432"><ele>94.6</ele><time>2026-04-19T08:31:22.613Z</time></trkpt><trkpt lat="40.4252307" lon="9.7365138"><ele>95.0</ele><time>2026-04-19T08:31:23.613Z</time></trkpt><trkpt lat="40.4253205" lon="9.7366154"><ele>95.0</ele><time>2026-04-19T08:31:24.617Z</time></trkpt><trkpt lat="40.4254098" lon="9.7367102"><ele>95.0</ele><time>2026-04-19T08:31:25.615Z</time></trkpt><trkpt lat="40.4255125" lon="9.7367999"><ele>95.0</ele><time>2026-04-19T08:31:26.616Z</time></trkpt><trkpt lat="40.4256174" lon="9.7368874"><ele>95.0</ele><time>2026-04-19T08:31:27.616Z</time></trkpt><trkpt lat="40.4257145" lon="9.7369673"><ele>95.0</ele><time>2026-04-19T08:31:28.608Z</time></trkpt><trkpt lat="40.4258116" lon="9.7370424"><ele>95.0</ele><time>2026-04-19T08:31:29.614Z</time></trkpt><trkpt lat="40.4259026" lon="9.7371214"><ele>95.0</ele><time>2026-04-19T08:31:30.622Z</time></trkpt><trkpt lat="40.4259916" lon="9.7371969"><ele>95.0</ele><time>2026-04-19T08:31:31.616Z</time></trkpt><trkpt lat="40.4260809" lon="9.7372895"><ele>95.0</ele><time>2026-04-19T08:31:32.617Z</time></trkpt><trkpt lat="40.4261748" lon="9.7373909"><ele>95.0</ele><time>2026-04-19T08:31:33.618Z</time></trkpt><trkpt lat="40.4262763" lon="9.7374835"><ele>95.0</ele><time>2026-04-19T08:31:34.619Z</time></trkpt><trkpt lat="40.4263794" lon="9.7375658"><ele>95.0</ele><time>2026-04-19T08:31:35.621Z</time></trkpt><trkpt lat="40.4264832" lon="9.7376574"><ele>95.0</ele><time>2026-04-19T08:31:36.615Z</time></trkpt><trkpt lat="40.4265918" lon="9.7377594"><ele>95.0</ele><time>2026-04-19T08:31:37.615Z</time></trkpt><trkpt lat="40.4267091" lon="9.7378644"><ele>95.0</ele><time>2026-04-19T08:31:38.621Z</time></trkpt><trkpt lat="40.426819" lon="9.7379683"><ele>95.0</ele><time>2026-04-19T08:31:39.616Z</time></trkpt><trkpt lat="40.4269327" lon="9.7380664"><ele>95.0</ele><time>2026-04-19T08:31:40.614Z</time></trkpt><trkpt lat="40.4270422" lon="9.7381626"><ele>95.0</ele><time>2026-04-19T08:31:41.614Z</time></trkpt><trkpt lat="40.4271439" lon="9.7382497"><ele>95.0</ele><time>2026-04-19T08:31:42.611Z</time></trkpt><trkpt lat="40.4272375" lon="9.7383352"><ele>95.0</ele><time>2026-04-19T08:31:43.618Z</time></trkpt><trkpt lat="40.4273202" lon="9.7384095"><ele>95.0</ele><time>2026-04-19T08:31:44.611Z</time></trkpt><trkpt lat="40.4273816" lon="9.7384672"><ele>95.0</ele><time>2026-04-19T08:31:45.612Z</time></trkpt><trkpt lat="40.4274705" lon="9.7385559"><ele>95.0</ele><time>2026-04-19T08:31:47.626Z</time></trkpt><trkpt lat="40.4274773" lon="9.7386679"><ele>95.0</ele><time>2026-04-19T08:31:49.617Z</time></trkpt><trkpt lat="40.4274501" lon="9.738752"><ele>95.0</ele><time>2026-04-19T08:31:50.61Z</time></trkpt><trkpt lat="40.4274014" lon="9.7388485"><ele>95.0</ele><time>2026-04-19T08:31:51.619Z</time></trkpt><trkpt lat="40.4273405" lon="9.7389439"><ele>95.0</ele><time>2026-04-19T08:31:52.612Z</time></trkpt><trkpt lat="40.4272652" lon="9.7390342"><ele>95.0</ele><time>2026-04-19T08:31:53.611Z</time></trkpt><trkpt lat="40.4271871" lon="9.7391338"><ele>94.8</ele><time>2026-04-19T08:31:54.614Z</time></trkpt><trkpt lat="40.4271227" lon="9.7392339"><ele>94.6</ele><time>2026-04-19T08:31:55.611Z</time></trkpt><trkpt lat="40.4270605" lon="9.739348"><ele>94.4</ele><time>2026-04-19T08:31:56.617Z</time></trkpt><trkpt lat="40.4269907" lon="9.7394704"><ele>94.2</ele><time>2026-04-19T08:31:57.618Z</time></trkpt><trkpt lat="40.4269142" lon="9.7395881"><ele>94.0</ele><time>2026-04-19T08:31:58.619Z</time></trkpt><trkpt lat="40.4268356" lon="9.7397148"><ele>93.66666666666666</ele><time>2026-04-19T08:31:59.615Z</time></trkpt><trkpt lat="40.4267501" lon="9.7398596"><ele>93.33333333333333</ele><time>2026-04-19T08:32:00.624Z</time></trkpt><trkpt lat="40.4266541" lon="9.7400186"><ele>93.0</ele><time>2026-04-19T08:32:01.613Z</time></trkpt><trkpt lat="40.4265495" lon="9.7401875"><ele>91.66666666666667</ele><time>2026-04-19T08:32:02.618Z</time></trkpt><trkpt lat="40.426444" lon="9.7403459"><ele>90.33333333333334</ele><time>2026-04-19T08:32:03.618Z</time></trkpt><trkpt lat="40.4263436" lon="9.7405178"><ele>89.0</ele><time>2026-04-19T08:32:04.618Z</time></trkpt><trkpt lat="40.426252" lon="9.7406811"><ele>89.0</ele><time>2026-04-19T08:32:05.618Z</time></trkpt><trkpt lat="40.4261512" lon="9.7408368"><ele>89.0</ele><time>2026-04-19T08:32:06.618Z</time></trkpt><trkpt lat="40.4260488" lon="9.7409984"><ele>89.0</ele><time>2026-04-19T08:32:07.615Z</time></trkpt><trkpt lat="40.4259574" lon="9.7411761"><ele>88.66666666666667</ele><time>2026-04-19T08:32:08.621Z</time></trkpt><trkpt lat="40.4258531" lon="9.7413462"><ele>88.33333333333333</ele><time>2026-04-19T08:32:09.615Z</time></trkpt><trkpt lat="40.4257478" lon="9.7415114"><ele>88.0</ele><time>2026-04-19T08:32:10.619Z</time></trkpt><trkpt lat="40.4256504" lon="9.7416805"><ele>88.0</ele><time>2026-04-19T08:32:11.618Z</time></trkpt><trkpt lat="40.4255646" lon="9.7418465"><ele>88.0</ele><time>2026-04-19T08:32:12.616Z</time></trkpt><trkpt lat="40.4254711" lon="9.7420096"><ele>88.0</ele><time>2026-04-19T08:32:13.616Z</time></trkpt><trkpt lat="40.4253851" lon="9.7421461"><ele>88.0</ele><time>2026-04-19T08:32:14.617Z</time></trkpt><trkpt lat="40.4253065" lon="9.7422626"><ele>88.0</ele><time>2026-04-19T08:32:15.615Z</time></trkpt><trkpt lat="40.4252402" lon="9.7423774"><ele>88.0</ele><time>2026-04-19T08:32:16.613Z</time></trkpt><trkpt lat="40.4251921" lon="9.7425057"><ele>88.0</ele><time>2026-04-19T08:32:17.608Z</time></trkpt><trkpt lat="40.4251735" lon="9.7426461"><ele>88.0</ele><time>2026-04-19T08:32:18.623Z</time></trkpt><trkpt lat="40.4251657" lon="9.7428046"><ele>88.0</ele><time>2026-04-19T08:32:19.602Z</time></trkpt><trkpt lat="40.4251732" lon="9.7429723"><ele>87.33333333333333</ele><time>2026-04-19T08:32:20.608Z</time></trkpt><trkpt lat="40.4251802" lon="9.7431689"><ele>86.66666666666667</ele><time>2026-04-19T08:32:21.611Z</time></trkpt><trkpt lat="40.4251615" lon="9.7433634"><ele>86.0</ele><time>2026-04-19T08:32:22.607Z</time></trkpt><trkpt lat="40.4251188" lon="9.7435906"><ele>85.66666666666667</ele><time>2026-04-19T08:32:23.608Z</time></trkpt><trkpt lat="40.4250921" lon="9.7438024"><ele>85.33333333333333</ele><time>2026-04-19T08:32:24.609Z</time></trkpt><trkpt lat="40.4250711" lon="9.7440058"><ele>85.0</ele><time>2026-04-19T08:32:25.603Z</time></trkpt><trkpt lat="40.4250589" lon="9.744191"><ele>85.0</ele><time>2026-04-19T08:32:26.6Z</time></trkpt><trkpt lat="40.4250551" lon="9.7443483"><ele>85.0</ele><time>2026-04-19T08:32:27.6Z</time></trkpt><trkpt lat="40.4250613" lon="9.7445027"><ele>85.0</ele><time>2026-04-19T08:32:28.608Z</time></trkpt><trkpt lat="40.4250685" lon="9.7446531"><ele>85.0</ele><time>2026-04-19T08:32:29.599Z</time></trkpt><trkpt lat="40.4250347" lon="9.7447894"><ele>85.0</ele><time>2026-04-19T08:32:30.615Z</time></trkpt><trkpt lat="40.4249915" lon="9.7449382"><ele>85.0</ele><time>2026-04-19T08:32:31.613Z</time></trkpt><trkpt lat="40.4249591" lon="9.7450832"><ele>85.0</ele><time>2026-04-19T08:32:32.608Z</time></trkpt><trkpt lat="40.4249362" lon="9.7452473"><ele>85.0</ele><time>2026-04-19T08:32:33.61Z</time></trkpt><trkpt lat="40.4249099" lon="9.7454011"><ele>84.83333333333333</ele><time>2026-04-19T08:32:34.605Z</time></trkpt><trkpt lat="40.4248803" lon="9.7455355"><ele>84.66666666666666</ele><time>2026-04-19T08:32:35.609Z</time></trkpt><trkpt lat="40.4248521" lon="9.7456502"><ele>84.5</ele><time>2026-04-19T08:32:36.607Z</time></trkpt><trkpt lat="40.4248271" lon="9.745745"><ele>84.33333333333333</ele><time>2026-04-19T08:32:37.604Z</time></trkpt><trkpt lat="40.4248324" lon="9.7458382"><ele>84.16666666666667</ele><time>2026-04-19T08:32:38.605Z</time></trkpt><trkpt lat="40.424878" lon="9.7459419"><ele>84.0</ele><time>2026-04-19T08:32:39.611Z</time></trkpt><trkpt lat="40.4249413" lon="9.7460649"><ele>83.80000000000001</ele><time>2026-04-19T08:32:40.616Z</time></trkpt><trkpt lat="40.4249904" lon="9.746166"><ele>83.60000000000001</ele><time>2026-04-19T08:32:41.61Z</time></trkpt><trkpt lat="40.4250237" lon="9.7462638"><ele>83.4</ele><time>2026-04-19T08:32:42.612Z</time></trkpt><trkpt lat="40.4250424" lon="9.7463703"><ele>83.2</ele><time>2026-04-19T08:32:43.611Z</time></trkpt><trkpt lat="40.4250435" lon="9.7464903"><ele>83.0</ele><time>2026-04-19T08:32:44.6Z</time></trkpt><trkpt lat="40.4250427" lon="9.7466429"><ele>83.0</ele><time>2026-04-19T08:32:45.602Z</time></trkpt><trkpt lat="40.4250239" lon="9.7467978"><ele>83.0</ele><time>2026-04-19T08:32:46.609Z</time></trkpt><trkpt lat="40.4249932" lon="9.7469695"><ele>83.0</ele><time>2026-04-19T08:32:47.604Z</time></trkpt><trkpt lat="40.4249545" lon="9.7471473"><ele>83.0</ele><time>2026-04-19T08:32:48.618Z</time></trkpt><trkpt lat="40.4249133" lon="9.7473305"><ele>81.66666666666667</ele><time>2026-04-19T08:32:49.631Z</time></trkpt><trkpt lat="40.4248688" lon="9.7475377"><ele>80.33333333333333</ele><time>2026-04-19T08:32:50.617Z</time></trkpt><trkpt lat="40.4248237" lon="9.7477336"><ele>79.0</ele><time>2026-04-19T08:32:51.613Z</time></trkpt><trkpt lat="40.4247915" lon="9.7479202"><ele>78.5</ele><time>2026-04-19T08:32:52.611Z</time></trkpt><trkpt lat="40.4247746" lon="9.7480889"><ele>78.0</ele><time>2026-04-19T08:32:53.638Z</time></trkpt><trkpt lat="40.4247483" lon="9.7482556"><ele>77.5</ele><time>2026-04-19T08:32:54.695Z</time></trkpt><trkpt lat="40.4247213" lon="9.7484237"><ele>77.0</ele><time>2026-04-19T08:32:55.699Z</time></trkpt><trkpt lat="40.4246936" lon="9.7486065"><ele>76.5</ele><time>2026-04-19T08:32:56.7Z</time></trkpt><trkpt lat="40.4246699" lon="9.7487796"><ele>76.0</ele><time>2026-04-19T08:32:57.699Z</time></trkpt><trkpt lat="40.4246395" lon="9.7489379"><ele>75.5</ele><time>2026-04-19T08:32:58.704Z</time></trkpt><trkpt lat="40.4246042" lon="9.7490826"><ele>75.0</ele><time>2026-04-19T08:32:59.679Z</time></trkpt><trkpt lat="40.424561" lon="9.7492093"><ele>74.8</ele><time>2026-04-19T08:33:00.683Z</time></trkpt><trkpt lat="40.4245258" lon="9.7493286"><ele>74.6</ele><time>2026-04-19T08:33:01.673Z</time></trkpt><trkpt lat="40.424514" lon="9.7494419"><ele>74.4</ele><time>2026-04-19T08:33:02.668Z</time></trkpt><trkpt lat="40.4245298" lon="9.7495671"><ele>74.2</ele><time>2026-04-19T08:33:03.685Z</time></trkpt><trkpt lat="40.4245669" lon="9.7497001"><ele>74.0</ele><time>2026-04-19T08:33:04.697Z</time></trkpt><trkpt lat="40.4246276" lon="9.7498462"><ele>73.0</ele><time>2026-04-19T08:33:05.675Z</time></trkpt><trkpt lat="40.4247182" lon="9.7499902"><ele>72.0</ele><time>2026-04-19T08:33:06.677Z</time></trkpt><trkpt lat="40.4248257" lon="9.7501366"><ele>71.0</ele><time>2026-04-19T08:33:07.682Z</time></trkpt><trkpt lat="40.4249266" lon="9.7502708"><ele>70.0</ele><time>2026-04-19T08:33:08.675Z</time></trkpt><trkpt lat="40.4250204" lon="9.75039"><ele>69.66666666666666</ele><time>2026-04-19T08:33:09.696Z</time></trkpt><trkpt lat="40.425107" lon="9.7504956"><ele>69.33333333333333</ele><time>2026-04-19T08:33:10.694Z</time></trkpt><trkpt lat="40.4251786" lon="9.7505882"><ele>69.0</ele><time>2026-04-19T08:33:11.687Z</time></trkpt><trkpt lat="40.4252267" lon="9.7506624"><ele>68.66666666666667</ele><time>2026-04-19T08:33:12.69Z</time></trkpt><trkpt lat="40.4252527" lon="9.750744"><ele>68.33333333333334</ele><time>2026-04-19T08:33:13.682Z</time></trkpt><trkpt lat="40.4252511" lon="9.7508439"><ele>68.0</ele><time>2026-04-19T08:33:14.69Z</time></trkpt><trkpt lat="40.4252343" lon="9.7509646"><ele>66.75</ele><time>2026-04-19T08:33:15.668Z</time></trkpt><trkpt lat="40.4252129" lon="9.75111"><ele>65.5</ele><time>2026-04-19T08:33:16.675Z</time></trkpt><trkpt lat="40.4251902" lon="9.7512684"><ele>64.25</ele><time>2026-04-19T08:33:17.673Z</time></trkpt><trkpt lat="40.4251751" lon="9.7514186"><ele>63.0</ele><time>2026-04-19T08:33:18.674Z</time></trkpt><trkpt lat="40.4251555" lon="9.7515798"><ele>63.0</ele><time>2026-04-19T08:33:19.685Z</time></trkpt><trkpt lat="40.4251387" lon="9.7516947"><ele>63.0</ele><time>2026-04-19T08:33:20.702Z</time></trkpt><trkpt lat="40.4250935" lon="9.7518077"><ele>63.0</ele><time>2026-04-19T08:33:21.686Z</time></trkpt><trkpt lat="40.4250256" lon="9.751904"><ele>63.0</ele><time>2026-04-19T08:33:22.682Z</time></trkpt><trkpt lat="40.4249471" lon="9.7519911"><ele>63.0</ele><time>2026-04-19T08:33:23.674Z</time></trkpt><trkpt lat="40.4248606" lon="9.7520901"><ele>62.75</ele><time>2026-04-19T08:33:24.674Z</time></trkpt><trkpt lat="40.4247786" lon="9.7522001"><ele>62.5</ele><time>2026-04-19T08:33:25.673Z</time></trkpt><trkpt lat="40.4247069" lon="9.7523342"><ele>62.25</ele><time>2026-04-19T08:33:26.675Z</time></trkpt><trkpt lat="40.4246553" lon="9.7524821"><ele>62.0</ele><time>2026-04-19T08:33:27.698Z</time></trkpt><trkpt lat="40.4246259" lon="9.7526444"><ele>61.66666666666667</ele><time>2026-04-19T08:33:28.61Z</time></trkpt><trkpt lat="40.4246019" lon="9.7527597"><ele>61.333333333333336</ele><time>2026-04-19T08:33:29.611Z</time></trkpt><trkpt lat="40.4245785" lon="9.7528401"><ele>61.0</ele><time>2026-04-19T08:33:30.607Z</time></trkpt><trkpt lat="40.424543" lon="9.7529202"><ele>60.66666666666667</ele><time>2026-04-19T08:33:33.617Z</time></trkpt><trkpt lat="40.4246221" lon="9.7530133"><ele>60.333333333333336</ele><time>2026-04-19T08:34:44.622Z</time></trkpt><trkpt lat="40.4246846" lon="9.7530544"><ele>60.0</ele><time>2026-04-19T08:34:45.62Z</time></trkpt><trkpt lat="40.4247771" lon="9.7531045"><ele>60.0</ele><time>2026-04-19T08:34:46.608Z</time></trkpt><trkpt lat="40.4248849" lon="9.7531571"><ele>60.0</ele><time>2026-04-19T08:34:47.621Z</time></trkpt><trkpt lat="40.4249932" lon="9.7532132"><ele>60.0</ele><time>2026-04-19T08:34:48.623Z</time></trkpt><trkpt lat="40.4251009" lon="9.7532631"><ele>60.0</ele><time>2026-04-19T08:34:49.625Z</time></trkpt><trkpt lat="40.4252026" lon="9.7533201"><ele>60.0</ele><time>2026-04-19T08:34:50.626Z</time></trkpt><trkpt lat="40.4253144" lon="9.7533882"><ele>60.0</ele><time>2026-04-19T08:34:51.628Z</time></trkpt><trkpt lat="40.4254184" lon="9.7534656"><ele>60.0</ele><time>2026-04-19T08:34:52.628Z</time></trkpt><trkpt lat="40.4255222" lon="9.7535446"><ele>60.0</ele><time>2026-04-19T08:34:53.639Z</time></trkpt><trkpt lat="40.4256265" lon="9.7536242"><ele>59.5</ele><time>2026-04-19T08:34:54.626Z</time></trkpt><trkpt lat="40.4257331" lon="9.7536981"><ele>59.0</ele><time>2026-04-19T08:34:55.622Z</time></trkpt><trkpt lat="40.4258429" lon="9.7537737"><ele>58.5</ele><time>2026-04-19T08:34:56.621Z</time></trkpt><trkpt lat="40.425963" lon="9.7538433"><ele>58.0</ele><time>2026-04-19T08:34:57.623Z</time></trkpt><trkpt lat="40.4260756" lon="9.7539051"><ele>58.0</ele><time>2026-04-19T08:34:58.622Z</time></trkpt><trkpt lat="40.4261937" lon="9.7539549"><ele>58.0</ele><time>2026-04-19T08:34:59.621Z</time></trkpt><trkpt lat="40.4263128" lon="9.7539982"><ele>58.0</ele><time>2026-04-19T08:35:00.63Z</time></trkpt><trkpt lat="40.4264307" lon="9.7540503"><ele>58.0</ele><time>2026-04-19T08:35:01.619Z</time></trkpt><trkpt lat="40.426547" lon="9.754106"><ele>58.0</ele><time>2026-04-19T08:35:02.618Z</time></trkpt><trkpt lat="40.4266582" lon="9.7541605"><ele>58.0</ele><time>2026-04-19T08:35:03.615Z</time></trkpt><trkpt lat="40.426785" lon="9.7541943"><ele>58.0</ele><time>2026-04-19T08:35:04.609Z</time></trkpt><trkpt lat="40.4269027" lon="9.7541964"><ele>58.0</ele><time>2026-04-19T08:35:05.612Z</time></trkpt><trkpt lat="40.4270234" lon="9.7541797"><ele>58.0</ele><time>2026-04-19T08:35:06.617Z</time></trkpt><trkpt lat="40.4271345" lon="9.7541758"><ele>58.0</ele><time>2026-04-19T08:35:07.618Z</time></trkpt><trkpt lat="40.4272379" lon="9.7542041"><ele>58.0</ele><time>2026-04-19T08:35:08.61Z</time></trkpt><trkpt lat="40.4273435" lon="9.7542682"><ele>58.0</ele><time>2026-04-19T08:35:09.618Z</time></trkpt><trkpt lat="40.4274395" lon="9.7543299"><ele>58.0</ele><time>2026-04-19T08:35:10.615Z</time></trkpt><trkpt lat="40.42753" lon="9.7544061"><ele>57.8</ele><time>2026-04-19T08:35:11.615Z</time></trkpt><trkpt lat="40.4276211" lon="9.7544996"><ele>57.599999999999994</ele><time>2026-04-19T08:35:12.615Z</time></trkpt><trkpt lat="40.4276955" lon="9.7546039"><ele>57.400000000000006</ele><time>2026-04-19T08:35:13.618Z</time></trkpt><trkpt lat="40.4277536" lon="9.7547097"><ele>57.2</ele><time>2026-04-19T08:35:14.621Z</time></trkpt><trkpt lat="40.4278024" lon="9.7548145"><ele>57.0</ele><time>2026-04-19T08:35:15.618Z</time></trkpt><trkpt lat="40.4278531" lon="9.754906"><ele>57.0</ele><time>2026-04-19T08:35:16.616Z</time></trkpt><trkpt lat="40.4279174" lon="9.7549869"><ele>57.0</ele><time>2026-04-19T08:35:17.612Z</time></trkpt><trkpt lat="40.4279985" lon="9.7550744"><ele>57.0</ele><time>2026-04-19T08:35:18.623Z</time></trkpt><trkpt lat="40.4280946" lon="9.7551516"><ele>57.0</ele><time>2026-04-19T08:35:19.62Z</time></trkpt><trkpt lat="40.4281932" lon="9.7552265"><ele>57.0</ele><time>2026-04-19T08:35:20.617Z</time></trkpt><trkpt lat="40.4282919" lon="9.7553081"><ele>56.0</ele><time>2026-04-19T08:35:21.621Z</time></trkpt><trkpt lat="40.4283895" lon="9.7553943"><ele>55.0</ele><time>2026-04-19T08:35:22.62Z</time></trkpt><trkpt lat="40.4284934" lon="9.7554812"><ele>54.0</ele><time>2026-04-19T08:35:23.619Z</time></trkpt><trkpt lat="40.4285985" lon="9.755555"><ele>53.0</ele><time>2026-04-19T08:35:24.633Z</time></trkpt><trkpt lat="40.4287062" lon="9.7556146"><ele>52.25</ele><time>2026-04-19T08:35:25.62Z</time></trkpt><trkpt lat="40.4288132" lon="9.7556686"><ele>51.5</ele><time>2026-04-19T08:35:26.622Z</time></trkpt><trkpt lat="40.4289308" lon="9.7557189"><ele>50.75</ele><time>2026-04-19T08:35:27.621Z</time></trkpt><trkpt lat="40.4290515" lon="9.7557655"><ele>50.0</ele><time>2026-04-19T08:35:28.621Z</time></trkpt><trkpt lat="40.4291782" lon="9.7557982"><ele>50.0</ele><time>2026-04-19T08:35:29.623Z</time></trkpt><trkpt lat="40.4293055" lon="9.7558203"><ele>50.0</ele><time>2026-04-19T08:35:30.634Z</time></trkpt><trkpt lat="40.4294402" lon="9.7558499"><ele>50.0</ele><time>2026-04-19T08:35:31.626Z</time></trkpt><trkpt lat="40.4295669" lon="9.7558927"><ele>50.0</ele><time>2026-04-19T08:35:32.623Z</time></trkpt><trkpt lat="40.4296793" lon="9.7559464"><ele>50.0</ele><time>2026-04-19T08:35:33.621Z</time></trkpt><trkpt lat="40.4297996" lon="9.7560096"><ele>50.0</ele><time>2026-04-19T08:35:34.626Z</time></trkpt><trkpt lat="40.4299161" lon="9.7560735"><ele>50.0</ele><time>2026-04-19T08:35:35.627Z</time></trkpt><trkpt lat="40.4300351" lon="9.7561261"><ele>50.0</ele><time>2026-04-19T08:35:36.625Z</time></trkpt><trkpt lat="40.4301425" lon="9.7561875"><ele>50.0</ele><time>2026-04-19T08:35:37.629Z</time></trkpt><trkpt lat="40.4302483" lon="9.7562489"><ele>50.0</ele><time>2026-04-19T08:35:38.629Z</time></trkpt><trkpt lat="40.4303498" lon="9.7563091"><ele>50.0</ele><time>2026-04-19T08:35:39.627Z</time></trkpt><trkpt lat="40.4304491" lon="9.7563683"><ele>50.0</ele><time>2026-04-19T08:35:40.632Z</time></trkpt><trkpt lat="40.4305503" lon="9.7564349"><ele>50.0</ele><time>2026-04-19T08:35:41.623Z</time></trkpt><trkpt lat="40.4306551" lon="9.7564893"><ele>50.0</ele><time>2026-04-19T08:35:42.622Z</time></trkpt><trkpt lat="40.4307697" lon="9.7565308"><ele>50.0</ele><time>2026-04-19T08:35:43.622Z</time></trkpt><trkpt lat="40.4308893" lon="9.756571"><ele>50.0</ele><time>2026-04-19T08:35:44.621Z</time></trkpt><trkpt lat="40.4309992" lon="9.7566176"><ele>50.0</ele><time>2026-04-19T08:35:45.617Z</time></trkpt><trkpt lat="40.4310994" lon="9.7566793"><ele>50.0</ele><time>2026-04-19T08:35:46.616Z</time></trkpt><trkpt lat="40.4311985" lon="9.7567477"><ele>50.0</ele><time>2026-04-19T08:35:47.617Z</time></trkpt><trkpt lat="40.43129" lon="9.7568292"><ele>50.0</ele><time>2026-04-19T08:35:48.618Z</time></trkpt><trkpt lat="40.4313822" lon="9.7569265"><ele>50.0</ele><time>2026-04-19T08:35:49.625Z</time></trkpt><trkpt lat="40.4314723" lon="9.7570225"><ele>50.2</ele><time>2026-04-19T08:35:50.62Z</time></trkpt><trkpt lat="40.4315639" lon="9.7571132"><ele>50.4</ele><time>2026-04-19T08:35:51.625Z</time></trkpt><trkpt lat="40.4316498" lon="9.7571965"><ele>50.599999999999994</ele><time>2026-04-19T08:35:52.626Z</time></trkpt><trkpt lat="40.4317301" lon="9.7572826"><ele>50.8</ele><time>2026-04-19T08:35:53.621Z</time></trkpt><trkpt lat="40.4318124" lon="9.7573752"><ele>51.0</ele><time>2026-04-19T08:35:54.626Z</time></trkpt><trkpt lat="40.431897" lon="9.7574631"><ele>51.0</ele><time>2026-04-19T08:35:55.643Z</time></trkpt><trkpt lat="40.4319662" lon="9.7575627"><ele>51.0</ele><time>2026-04-19T08:35:56.623Z</time></trkpt><trkpt lat="40.4320265" lon="9.7576878"><ele>51.0</ele><time>2026-04-19T08:35:57.622Z</time></trkpt><trkpt lat="40.4320837" lon="9.7578327"><ele>51.0</ele><time>2026-04-19T08:35:58.623Z</time></trkpt><trkpt lat="40.4321349" lon="9.7579725"><ele>51.0</ele><time>2026-04-19T08:35:59.623Z</time></trkpt><trkpt lat="40.4321832" lon="9.7581067"><ele>51.0</ele><time>2026-04-19T08:36:00.633Z</time></trkpt><trkpt lat="40.4322272" lon="9.7582501"><ele>51.0</ele><time>2026-04-19T08:36:01.624Z</time></trkpt><trkpt lat="40.4322825" lon="9.7583997"><ele>51.0</ele><time>2026-04-19T08:36:02.617Z</time></trkpt><trkpt lat="40.4323506" lon="9.7585223"><ele>50.5</ele><time>2026-04-19T08:36:03.615Z</time></trkpt><trkpt lat="40.4324347" lon="9.7586468"><ele>50.0</ele><time>2026-04-19T08:36:04.623Z</time></trkpt><trkpt lat="40.4325266" lon="9.7587672"><ele>49.5</ele><time>2026-04-19T08:36:05.623Z</time></trkpt><trkpt lat="40.4326091" lon="9.7588915"><ele>49.0</ele><time>2026-04-19T08:36:06.623Z</time></trkpt><trkpt lat="40.4326939" lon="9.7590262"><ele>49.0</ele><time>2026-04-19T08:36:07.621Z</time></trkpt><trkpt lat="40.4327775" lon="9.7591636"><ele>49.0</ele><time>2026-04-19T08:36:08.616Z</time></trkpt><trkpt lat="40.4328477" lon="9.7592935"><ele>49.0</ele><time>2026-04-19T08:36:09.616Z</time></trkpt><trkpt lat="40.4329114" lon="9.7594292"><ele>49.0</ele><time>2026-04-19T08:36:10.618Z</time></trkpt><trkpt lat="40.4329662" lon="9.7595568"><ele>48.5</ele><time>2026-04-19T08:36:11.617Z</time></trkpt><trkpt lat="40.4330444" lon="9.759662"><ele>48.0</ele><time>2026-04-19T08:36:12.614Z</time></trkpt><trkpt lat="40.4331377" lon="9.7597541"><ele>47.5</ele><time>2026-04-19T08:36:13.613Z</time></trkpt><trkpt lat="40.4332534" lon="9.7598343"><ele>47.0</ele><time>2026-04-19T08:36:14.611Z</time></trkpt><trkpt lat="40.4333704" lon="9.7599123"><ele>47.0</ele><time>2026-04-19T08:36:15.61Z</time></trkpt><trkpt lat="40.4334898" lon="9.7599841"><ele>47.0</ele><time>2026-04-19T08:36:16.612Z</time></trkpt><trkpt lat="40.4335934" lon="9.7600537"><ele>47.0</ele><time>2026-04-19T08:36:17.612Z</time></trkpt><trkpt lat="40.4336916" lon="9.7601007"><ele>47.0</ele><time>2026-04-19T08:36:18.614Z</time></trkpt><trkpt lat="40.4337867" lon="9.7601636"><ele>47.25</ele><time>2026-04-19T08:36:19.611Z</time></trkpt><trkpt lat="40.4338905" lon="9.760235"><ele>47.5</ele><time>2026-04-19T08:36:20.608Z</time></trkpt><trkpt lat="40.4339862" lon="9.7603166"><ele>47.75</ele><time>2026-04-19T08:36:21.618Z</time></trkpt><trkpt lat="40.434073" lon="9.7604122"><ele>48.0</ele><time>2026-04-19T08:36:22.624Z</time></trkpt><trkpt lat="40.4341497" lon="9.7605111"><ele>48.0</ele><time>2026-04-19T08:36:23.617Z</time></trkpt><trkpt lat="40.4342302" lon="9.7606175"><ele>48.0</ele><time>2026-04-19T08:36:24.617Z</time></trkpt><trkpt lat="40.4343172" lon="9.7607286"><ele>48.0</ele><time>2026-04-19T08:36:25.62Z</time></trkpt><trkpt lat="40.4344051" lon="9.7608296"><ele>48.0</ele><time>2026-04-19T08:36:26.628Z</time></trkpt><trkpt lat="40.4344944" lon="9.7609342"><ele>47.0</ele><time>2026-04-19T08:36:27.613Z</time></trkpt><trkpt lat="40.4345823" lon="9.7610486"><ele>46.0</ele><time>2026-04-19T08:36:28.606Z</time></trkpt><trkpt lat="40.4346614" lon="9.7611731"><ele>45.0</ele><time>2026-04-19T08:36:29.61Z</time></trkpt><trkpt lat="40.4347237" lon="9.7612905"><ele>44.0</ele><time>2026-04-19T08:36:30.615Z</time></trkpt><trkpt lat="40.4347703" lon="9.7614032"><ele>43.83333333333333</ele><time>2026-04-19T08:36:31.605Z</time></trkpt><trkpt lat="40.4348004" lon="9.7615254"><ele>43.666666666666664</ele><time>2026-04-19T08:36:32.612Z</time></trkpt><trkpt lat="40.4348186" lon="9.7616376"><ele>43.5</ele><time>2026-04-19T08:36:33.615Z</time></trkpt><trkpt lat="40.4348413" lon="9.7617426"><ele>43.333333333333336</ele><time>2026-04-19T08:36:34.605Z</time></trkpt><trkpt lat="40.4348944" lon="9.7618256"><ele>43.16666666666667</ele><time>2026-04-19T08:36:35.599Z</time></trkpt><trkpt lat="40.4349566" lon="9.7618991"><ele>43.0</ele><time>2026-04-19T08:36:36.611Z</time></trkpt><trkpt lat="40.43503" lon="9.7619726"><ele>41.0</ele><time>2026-04-19T08:36:37.619Z</time></trkpt><trkpt lat="40.4351039" lon="9.7620456"><ele>39.0</ele><time>2026-04-19T08:36:38.626Z</time></trkpt><trkpt lat="40.4351697" lon="9.7621083"><ele>37.0</ele><time>2026-04-19T08:36:39.624Z</time></trkpt><trkpt lat="40.4352261" lon="9.7621687"><ele>35.0</ele><time>2026-04-19T08:36:40.621Z</time></trkpt><trkpt lat="40.4352789" lon="9.762242"><ele>33.0</ele><time>2026-04-19T08:36:41.619Z</time></trkpt><trkpt lat="40.4353174" lon="9.7623243"><ele>31.0</ele><time>2026-04-19T08:36:42.608Z</time></trkpt><trkpt lat="40.4353562" lon="9.7624326"><ele>31.000000000000004</ele><time>2026-04-19T08:36:43.612Z</time></trkpt><trkpt lat="40.4353908" lon="9.7625405"><ele>31.0</ele><time>2026-04-19T08:36:44.605Z</time></trkpt><trkpt lat="40.4354066" lon="9.7626218"><ele>31.0</ele><time>2026-04-19T08:36:45.609Z</time></trkpt><trkpt lat="40.4354239" lon="9.7627421"><ele>31.0</ele><time>2026-04-19T08:36:47.616Z</time></trkpt><trkpt lat="40.4354425" lon="9.7628644"><ele>31.000000000000004</ele><time>2026-04-19T08:36:49.618Z</time></trkpt><trkpt lat="40.4354713" lon="9.7629814"><ele>31.0</ele><time>2026-04-19T08:36:51.62Z</time></trkpt><trkpt lat="40.4354871" lon="9.7630927"><ele>30.333333333333336</ele><time>2026-04-19T08:36:53.62Z</time></trkpt><trkpt lat="40.435485" lon="9.763198"><ele>29.666666666666668</ele><time>2026-04-19T08:36:55.621Z</time></trkpt><trkpt lat="40.4354619" lon="9.7632997"><ele>29.0</ele><time>2026-04-19T08:36:58.618Z</time></trkpt><trkpt lat="40.4354546" lon="9.7633981"><ele>28.333333333333336</ele><time>2026-04-19T08:37:35.626Z</time></trkpt><trkpt lat="40.435488" lon="9.7633039"><ele>27.666666666666668</ele><time>2026-04-19T08:37:42.634Z</time></trkpt><trkpt lat="40.435484" lon="9.7631486"><ele>27.0</ele><time>2026-04-19T08:37:44.622Z</time></trkpt><trkpt lat="40.4354779" lon="9.7630215"><ele>27.8</ele><time>2026-04-19T08:37:45.616Z</time></trkpt><trkpt lat="40.4354518" lon="9.7629076"><ele>28.6</ele><time>2026-04-19T08:37:46.619Z</time></trkpt><trkpt lat="40.4354315" lon="9.762793"><ele>29.400000000000002</ele><time>2026-04-19T08:37:47.616Z</time></trkpt><trkpt lat="40.4354092" lon="9.7626712"><ele>30.200000000000003</ele><time>2026-04-19T08:37:48.616Z</time></trkpt><trkpt lat="40.4353857" lon="9.7625557"><ele>31.0</ele><time>2026-04-19T08:37:49.689Z</time></trkpt><trkpt lat="40.435352" lon="9.76243"><ele>31.0</ele><time>2026-04-19T08:37:50.688Z</time></trkpt><trkpt lat="40.4353046" lon="9.7622981"><ele>31.0</ele><time>2026-04-19T08:37:51.701Z</time></trkpt><trkpt lat="40.4352457" lon="9.7621756"><ele>31.0</ele><time>2026-04-19T08:37:52.692Z</time></trkpt><trkpt lat="40.4351743" lon="9.7620743"><ele>31.0</ele><time>2026-04-19T08:37:53.674Z</time></trkpt><trkpt lat="40.4350914" lon="9.7619908"><ele>31.0</ele><time>2026-04-19T08:37:54.675Z</time></trkpt><trkpt lat="40.435013" lon="9.761923"><ele>33.4</ele><time>2026-04-19T08:37:55.681Z</time></trkpt><trkpt lat="40.4349477" lon="9.7618582"><ele>35.8</ele><time>2026-04-19T08:37:56.678Z</time></trkpt><trkpt lat="40.4348459" lon="9.7617276"><ele>38.199999999999996</ele><time>2026-04-19T08:37:58.713Z</time></trkpt><trkpt lat="40.4348045" lon="9.7616559"><ele>40.6</ele><time>2026-04-19T08:37:59.677Z</time></trkpt><trkpt lat="40.4347734" lon="9.7615756"><ele>43.0</ele><time>2026-04-19T08:38:00.689Z</time></trkpt><trkpt lat="40.4347411" lon="9.7614094"><ele>43.0</ele><time>2026-04-19T08:38:02.681Z</time></trkpt><trkpt lat="40.4347043" lon="9.7613218"><ele>43.0</ele><time>2026-04-19T08:38:03.698Z</time></trkpt><trkpt lat="40.4346597" lon="9.7612363"><ele>43.0</ele><time>2026-04-19T08:38:04.699Z</time></trkpt><trkpt lat="40.4346158" lon="9.7611403"><ele>43.0</ele><time>2026-04-19T08:38:05.684Z</time></trkpt><trkpt lat="40.4345629" lon="9.7610375"><ele>43.0</ele><time>2026-04-19T08:38:06.681Z</time></trkpt><trkpt lat="40.4345029" lon="9.7609361"><ele>43.0</ele><time>2026-04-19T08:38:07.676Z</time></trkpt><trkpt lat="40.4344307" lon="9.7608451"><ele>44.0</ele><time>2026-04-19T08:38:08.672Z</time></trkpt><trkpt lat="40.4343479" lon="9.7607548"><ele>45.0</ele><time>2026-04-19T08:38:09.697Z</time></trkpt><trkpt lat="40.4342637" lon="9.7606611"><ele>46.0</ele><time>2026-04-19T08:38:10.694Z</time></trkpt><trkpt lat="40.4341843" lon="9.7605634"><ele>47.0</ele><time>2026-04-19T08:38:11.693Z</time></trkpt><trkpt lat="40.4341174" lon="9.760471"><ele>48.0</ele><time>2026-04-19T08:38:12.703Z</time></trkpt><trkpt lat="40.4340518" lon="9.7603935"><ele>48.0</ele><time>2026-04-19T08:38:13.702Z</time></trkpt><trkpt lat="40.4339897" lon="9.7603269"><ele>48.0</ele><time>2026-04-19T08:38:14.702Z</time></trkpt><trkpt lat="40.4339198" lon="9.7602548"><ele>48.0</ele><time>2026-04-19T08:38:15.705Z</time></trkpt><trkpt lat="40.433848" lon="9.7601913"><ele>48.0</ele><time>2026-04-19T08:38:16.711Z</time></trkpt><trkpt lat="40.4337671" lon="9.7601358"><ele>48.0</ele><time>2026-04-19T08:38:17.707Z</time></trkpt><trkpt lat="40.4336789" lon="9.7600835"><ele>48.0</ele><time>2026-04-19T08:38:18.71Z</time></trkpt><trkpt lat="40.4335796" lon="9.7600201"><ele>47.75</ele><time>2026-04-19T08:38:19.689Z</time></trkpt><trkpt lat="40.4334827" lon="9.7599523"><ele>47.5</ele><time>2026-04-19T08:38:20.683Z</time></trkpt><trkpt lat="40.4333808" lon="9.7598818"><ele>47.25</ele><time>2026-04-19T08:38:21.692Z</time></trkpt><trkpt lat="40.4332795" lon="9.7598174"><ele>47.0</ele><time>2026-04-19T08:38:22.691Z</time></trkpt><trkpt lat="40.4331801" lon="9.7597494"><ele>47.0</ele><time>2026-04-19T08:38:23.702Z</time></trkpt><trkpt lat="40.4330905" lon="9.7596716"><ele>47.0</ele><time>2026-04-19T08:38:24.705Z</time></trkpt><trkpt lat="40.4330154" lon="9.7595896"><ele>47.0</ele><time>2026-04-19T08:38:25.701Z</time></trkpt><trkpt lat="40.4329496" lon="9.7595013"><ele>47.0</ele><time>2026-04-19T08:38:26.682Z</time></trkpt><trkpt lat="40.4328952" lon="9.7594013"><ele>47.0</ele><time>2026-04-19T08:38:27.685Z</time></trkpt><trkpt lat="40.4328463" lon="9.7592829"><ele>47.5</ele><time>2026-04-19T08:38:28.678Z</time></trkpt><trkpt lat="40.4327913" lon="9.7591627"><ele>48.0</ele><time>2026-04-19T08:38:29.69Z</time></trkpt><trkpt lat="40.4327211" lon="9.7590422"><ele>48.5</ele><time>2026-04-19T08:38:30.697Z</time></trkpt><trkpt lat="40.432649" lon="9.7589204"><ele>49.0</ele><time>2026-04-19T08:38:31.693Z</time></trkpt><trkpt lat="40.4325766" lon="9.7588007"><ele>49.0</ele><time>2026-04-19T08:38:32.706Z</time></trkpt><trkpt lat="40.432506" lon="9.758681"><ele>49.0</ele><time>2026-04-19T08:38:33.704Z</time></trkpt><trkpt lat="40.4324285" lon="9.7585564"><ele>49.0</ele><time>2026-04-19T08:38:34.703Z</time></trkpt><trkpt lat="40.4323532" lon="9.7584471"><ele>49.0</ele><time>2026-04-19T08:38:35.709Z</time></trkpt><trkpt lat="40.4322856" lon="9.7583439"><ele>49.33333333333333</ele><time>2026-04-19T08:38:36.704Z</time></trkpt><trkpt lat="40.432226" lon="9.7582367"><ele>49.666666666666664</ele><time>2026-04-19T08:38:37.706Z</time></trkpt><trkpt lat="40.432179" lon="9.7581279"><ele>50.0</ele><time>2026-04-19T08:38:38.703Z</time></trkpt><trkpt lat="40.4321374" lon="9.7580225"><ele>50.33333333333333</ele><time>2026-04-19T08:38:39.705Z</time></trkpt><trkpt lat="40.4321058" lon="9.7579398"><ele>50.666666666666664</ele><time>2026-04-19T08:38:40.677Z</time></trkpt><trkpt lat="40.4320639" lon="9.7578349"><ele>51.0</ele><time>2026-04-19T08:38:42.681Z</time></trkpt><trkpt lat="40.432086" lon="9.7577381"><ele>51.199999999999996</ele><time>2026-04-19T08:39:53.64Z</time></trkpt><trkpt lat="40.4321487" lon="9.7576311"><ele>51.4</ele><time>2026-04-19T08:39:55.629Z</time></trkpt><trkpt lat="40.4322095" lon="9.7575442"><ele>51.6</ele><time>2026-04-19T08:39:56.62Z</time></trkpt><trkpt lat="40.4322743" lon="9.7574506"><ele>51.8</ele><time>2026-04-19T08:39:57.634Z</time></trkpt><trkpt lat="40.4323338" lon="9.7573473"><ele>52.0</ele><time>2026-04-19T08:39:58.627Z</time></trkpt><trkpt lat="40.4323972" lon="9.7572448"><ele>52.0</ele><time>2026-04-19T08:39:59.628Z</time></trkpt><trkpt lat="40.4324531" lon="9.7571355"><ele>52.0</ele><time>2026-04-19T08:40:00.639Z</time></trkpt><trkpt lat="40.4325187" lon="9.7570202"><ele>52.0</ele><time>2026-04-19T08:40:01.627Z</time></trkpt><trkpt lat="40.4325842" lon="9.7569112"><ele>52.0</ele><time>2026-04-19T08:40:02.644Z</time></trkpt><trkpt lat="40.4326433" lon="9.7567948"><ele>52.0</ele><time>2026-04-19T08:40:03.625Z</time></trkpt><trkpt lat="40.4327011" lon="9.7566794"><ele>52.166666666666664</ele><time>2026-04-19T08:40:04.617Z</time></trkpt><trkpt lat="40.4327461" lon="9.7565731"><ele>52.33333333333333</ele><time>2026-04-19T08:40:05.615Z</time></trkpt><trkpt lat="40.4327821" lon="9.7564689"><ele>52.5</ele><time>2026-04-19T08:40:06.614Z</time></trkpt><trkpt lat="40.4327986" lon="9.7563581"><ele>52.66666666666667</ele><time>2026-04-19T08:40:07.617Z</time></trkpt><trkpt lat="40.4328084" lon="9.756254"><ele>52.833333333333336</ele><time>2026-04-19T08:40:08.617Z</time></trkpt><trkpt lat="40.4328203" lon="9.7561677"><ele>53.0</ele><time>2026-04-19T08:40:09.623Z</time></trkpt><trkpt lat="40.4328486" lon="9.7560814"><ele>53.2</ele><time>2026-04-19T08:40:10.619Z</time></trkpt><trkpt lat="40.4328842" lon="9.7559797"><ele>53.4</ele><time>2026-04-19T08:40:11.618Z</time></trkpt><trkpt lat="40.4329294" lon="9.7558717"><ele>53.60000000000001</ele><time>2026-04-19T08:40:12.627Z</time></trkpt><trkpt lat="40.432962" lon="9.75576"><ele>53.800000000000004</ele><time>2026-04-19T08:40:13.625Z</time></trkpt><trkpt lat="40.4329849" lon="9.7556606"><ele>54.0</ele><time>2026-04-19T08:40:14.624Z</time></trkpt><trkpt lat="40.4330122" lon="9.7555197"><ele>54.0</ele><time>2026-04-19T08:40:16.611Z</time></trkpt><trkpt lat="40.4329498" lon="9.7554285"><ele>54.0</ele><time>2026-04-19T08:40:18.62Z</time></trkpt><trkpt lat="40.4328877" lon="9.7553958"><ele>54.0</ele><time>2026-04-19T08:40:19.621Z</time></trkpt><trkpt lat="40.4328139" lon="9.7553453"><ele>54.0</ele><time>2026-04-19T08:40:20.62Z</time></trkpt><trkpt lat="40.432739" lon="9.7552987"><ele>54.0</ele><time>2026-04-19T08:40:21.625Z</time></trkpt><trkpt lat="40.4326613" lon="9.7552453"><ele>54.0</ele><time>2026-04-19T08:40:22.622Z</time></trkpt><trkpt lat="40.4325878" lon="9.7551919"><ele>54.0</ele><time>2026-04-19T08:40:23.622Z</time></trkpt><trkpt lat="40.4325308" lon="9.7551488"><ele>54.0</ele><time>2026-04-19T08:40:24.623Z</time></trkpt><trkpt lat="40.4324716" lon="9.7550381"><ele>54.0</ele><time>2026-04-19T08:40:26.642Z</time></trkpt><trkpt lat="40.4324984" lon="9.7549512"><ele>54.0</ele><time>2026-04-19T08:40:28.64Z</time></trkpt><trkpt lat="40.4325687" lon="9.7548268"><ele>54.0</ele><time>2026-04-19T08:40:30.64Z</time></trkpt><trkpt lat="40.432617" lon="9.7547432"><ele>54.0</ele><time>2026-04-19T08:40:31.631Z</time></trkpt><trkpt lat="40.4326727" lon="9.7546634"><ele>54.0</ele><time>2026-04-19T08:40:32.634Z</time></trkpt><trkpt lat="40.4327283" lon="9.7545713"><ele>54.0</ele><time>2026-04-19T08:40:33.649Z</time></trkpt><trkpt lat="40.4327935" lon="9.7544804"><ele>54.0</ele><time>2026-04-19T08:40:34.64Z</time></trkpt><trkpt lat="40.4328482" lon="9.754391"><ele>54.0</ele><time>2026-04-19T08:40:35.709Z</time></trkpt><trkpt lat="40.4328963" lon="9.7542991"><ele>54.0</ele><time>2026-04-19T08:40:36.711Z</time></trkpt><trkpt lat="40.4329419" lon="9.754204"><ele>54.0</ele><time>2026-04-19T08:40:37.626Z</time></trkpt><trkpt lat="40.4329907" lon="9.7541152"><ele>54.333333333333336</ele><time>2026-04-19T08:40:38.627Z</time></trkpt><trkpt lat="40.4330442" lon="9.7540459"><ele>54.66666666666667</ele><time>2026-04-19T08:40:39.61Z</time></trkpt><trkpt lat="40.4331003" lon="9.7540072"><ele>55.0</ele><time>2026-04-19T08:40:40.617Z</time></trkpt><trkpt lat="40.4331669" lon="9.7539717"><ele>55.333333333333336</ele><time>2026-04-19T08:40:41.628Z</time></trkpt><trkpt lat="40.4332325" lon="9.7539317"><ele>55.66666666666667</ele><time>2026-04-19T08:40:42.628Z</time></trkpt><trkpt lat="40.4332918" lon="9.7538934"><ele>56.0</ele><time>2026-04-19T08:40:43.619Z</time></trkpt><trkpt lat="40.433375" lon="9.7538026"><ele>56.00000000000001</ele><time>2026-04-19T08:40:45.626Z</time></trkpt><trkpt lat="40.4334511" lon="9.7537084"><ele>56.0</ele><time>2026-04-19T08:40:47.62Z</time></trkpt><trkpt lat="40.4335011" lon="9.7536413"><ele>56.0</ele><time>2026-04-19T08:40:48.628Z</time></trkpt><trkpt lat="40.4335621" lon="9.7535713"><ele>56.0</ele><time>2026-04-19T08:40:49.628Z</time></trkpt><trkpt lat="40.4336185" lon="9.7535042"><ele>56.00000000000001</ele><time>2026-04-19T08:40:50.626Z</time></trkpt><trkpt lat="40.4336678" lon="9.7534431"><ele>56.0</ele><time>2026-04-19T08:40:51.63Z</time></trkpt><trkpt lat="40.4337198" lon="9.7533691"><ele>56.16666666666667</ele><time>2026-04-19T08:40:52.627Z</time></trkpt><trkpt lat="40.4337691" lon="9.7533087"><ele>56.333333333333336</ele><time>2026-04-19T08:40:53.627Z</time></trkpt><trkpt lat="40.4338482" lon="9.7531907"><ele>56.5</ele><time>2026-04-19T08:40:55.618Z</time></trkpt><trkpt lat="40.4338985" lon="9.753128"><ele>56.66666666666667</ele><time>2026-04-19T08:40:56.626Z</time></trkpt><trkpt lat="40.4339437" lon="9.7530497"><ele>56.833333333333336</ele><time>2026-04-19T08:40:57.622Z</time></trkpt><trkpt lat="40.4339772" lon="9.752961"><ele>57.0</ele><time>2026-04-19T08:40:58.623Z</time></trkpt><trkpt lat="40.4339842" lon="9.7528595"><ele>53.6</ele><time>2026-04-19T08:40:59.624Z</time></trkpt><trkpt lat="40.433974" lon="9.7527414"><ele>50.2</ele><time>2026-04-19T08:41:00.628Z</time></trkpt><trkpt lat="40.4339627" lon="9.7526013"><ele>46.8</ele><time>2026-04-19T08:41:01.62Z</time></trkpt><trkpt lat="40.4339496" lon="9.7524584"><ele>43.4</ele><time>2026-04-19T08:41:02.62Z</time></trkpt><trkpt lat="40.4339361" lon="9.7523207"><ele>40.0</ele><time>2026-04-19T08:41:03.613Z</time></trkpt><trkpt lat="40.4339145" lon="9.7521757"><ele>39.5</ele><time>2026-04-19T08:41:04.626Z</time></trkpt><trkpt lat="40.4339013" lon="9.7520491"><ele>39.0</ele><time>2026-04-19T08:41:05.615Z</time></trkpt><trkpt lat="40.4338902" lon="9.7519449"><ele>38.5</ele><time>2026-04-19T08:41:06.618Z</time></trkpt><trkpt lat="40.4338907" lon="9.7518455"><ele>38.0</ele><time>2026-04-19T08:41:07.611Z</time></trkpt><trkpt lat="40.433905" lon="9.7517339"><ele>37.5</ele><time>2026-04-19T08:41:08.605Z</time></trkpt><trkpt lat="40.4339491" lon="9.7516375"><ele>37.0</ele><time>2026-04-19T08:41:09.604Z</time></trkpt><trkpt lat="40.4340033" lon="9.7515397"><ele>36.333333333333336</ele><time>2026-04-19T08:41:10.613Z</time></trkpt><trkpt lat="40.4340573" lon="9.751445"><ele>35.66666666666667</ele><time>2026-04-19T08:41:11.605Z</time></trkpt><trkpt lat="40.4341086" lon="9.7513615"><ele>35.0</ele><time>2026-04-19T08:41:12.606Z</time></trkpt><trkpt lat="40.4341588" lon="9.7512975"><ele>34.333333333333336</ele><time>2026-04-19T08:41:13.609Z</time></trkpt><trkpt lat="40.4342239" lon="9.7512766"><ele>33.666666666666664</ele><time>2026-04-19T08:41:14.612Z</time></trkpt><trkpt lat="40.4343501" lon="9.7513218"><ele>33.0</ele><time>2026-04-19T08:41:16.612Z</time></trkpt><trkpt lat="40.4344246" lon="9.751359"><ele>33.0</ele><time>2026-04-19T08:41:17.616Z</time></trkpt><trkpt lat="40.434493" lon="9.7514067"><ele>33.0</ele><time>2026-04-19T08:41:18.619Z</time></trkpt><trkpt lat="40.4345437" lon="9.7514705"><ele>33.0</ele><time>2026-04-19T08:41:19.621Z</time></trkpt><trkpt lat="40.4345992" lon="9.7515438"><ele>33.0</ele><time>2026-04-19T08:41:20.621Z</time></trkpt><trkpt lat="40.4346555" lon="9.7515975"><ele>33.0</ele><time>2026-04-19T08:41:21.62Z</time></trkpt><trkpt lat="40.4347209" lon="9.7516404"><ele>33.0</ele><time>2026-04-19T08:41:22.619Z</time></trkpt><trkpt lat="40.4348028" lon="9.7516804"><ele>33.0</ele><time>2026-04-19T08:41:23.626Z</time></trkpt><trkpt lat="40.4348884" lon="9.7517205"><ele>33.0</ele><time>2026-04-19T08:41:24.624Z</time></trkpt><trkpt lat="40.4349673" lon="9.7517549"><ele>33.0</ele><time>2026-04-19T08:41:25.627Z</time></trkpt><trkpt lat="40.4350448" lon="9.7517937"><ele>33.0</ele><time>2026-04-19T08:41:26.623Z</time></trkpt><trkpt lat="40.4351165" lon="9.7518188"><ele>33.0</ele><time>2026-04-19T08:41:27.625Z</time></trkpt><trkpt lat="40.4351852" lon="9.7518463"><ele>33.0</ele><time>2026-04-19T08:41:28.623Z</time></trkpt><trkpt lat="40.4352556" lon="9.751887"><ele>33.0</ele><time>2026-04-19T08:41:29.625Z</time></trkpt><trkpt lat="40.4353202" lon="9.7519388"><ele>33.0</ele><time>2026-04-19T08:41:30.626Z</time></trkpt><trkpt lat="40.435379" lon="9.7519755"><ele>33.0</ele><time>2026-04-19T08:41:31.614Z</time></trkpt><trkpt lat="40.4354664" lon="9.751949"><ele>33.0</ele><time>2026-04-19T08:41:33.624Z</time></trkpt><trkpt lat="40.4354852" lon="9.7518186"><ele>33.0</ele><time>2026-04-19T08:41:35.645Z</time></trkpt><trkpt lat="40.4354929" lon="9.7517307"><ele>33.0</ele><time>2026-04-19T08:41:36.618Z</time></trkpt><trkpt lat="40.4355016" lon="9.7516317"><ele>33.833333333333336</ele><time>2026-04-19T08:41:37.616Z</time></trkpt><trkpt lat="40.4355175" lon="9.7515316"><ele>34.666666666666664</ele><time>2026-04-19T08:41:38.626Z</time></trkpt><trkpt lat="40.4355373" lon="9.7514452"><ele>35.5</ele><time>2026-04-19T08:41:39.625Z</time></trkpt><trkpt lat="40.4355646" lon="9.7513437"><ele>36.33333333333333</ele><time>2026-04-19T08:41:40.625Z</time></trkpt><trkpt lat="40.4355914" lon="9.7512351"><ele>37.166666666666664</ele><time>2026-04-19T08:41:41.627Z</time></trkpt><trkpt lat="40.4356324" lon="9.7511239"><ele>38.0</ele><time>2026-04-19T08:41:42.627Z</time></trkpt><trkpt lat="40.4356837" lon="9.7510179"><ele>38.0</ele><time>2026-04-19T08:41:43.625Z</time></trkpt><trkpt lat="40.4357401" lon="9.7509033"><ele>38.0</ele><time>2026-04-19T08:41:44.628Z</time></trkpt><trkpt lat="40.4357942" lon="9.7507784"><ele>38.0</ele><time>2026-04-19T08:41:45.619Z</time></trkpt><trkpt lat="40.4358479" lon="9.7506522"><ele>38.0</ele><time>2026-04-19T08:41:46.624Z</time></trkpt><trkpt lat="40.4358796" lon="9.7505352"><ele>38.0</ele><time>2026-04-19T08:41:47.62Z</time></trkpt><trkpt lat="40.4359128" lon="9.75044"><ele>38.0</ele><time>2026-04-19T08:41:48.618Z</time></trkpt><trkpt lat="40.4359403" lon="9.7503378"><ele>38.0</ele><time>2026-04-19T08:41:49.624Z</time></trkpt><trkpt lat="40.4359784" lon="9.7502517"><ele>38.0</ele><time>2026-04-19T08:41:50.623Z</time></trkpt><trkpt lat="40.4360106" lon="9.7501737"><ele>38.0</ele><time>2026-04-19T08:41:51.624Z</time></trkpt><trkpt lat="40.4360409" lon="9.7500919"><ele>38.0</ele><time>2026-04-19T08:41:52.623Z</time></trkpt><trkpt lat="40.4360958" lon="9.7499549"><ele>38.0</ele><time>2026-04-19T08:41:54.626Z</time></trkpt><trkpt lat="40.4361378" lon="9.7498183"><ele>37.6</ele><time>2026-04-19T08:41:56.629Z</time></trkpt><trkpt lat="40.4361754" lon="9.7496926"><ele>37.199999999999996</ele><time>2026-04-19T08:41:58.62Z</time></trkpt><trkpt lat="40.4362527" lon="9.7496493"><ele>36.8</ele><time>2026-04-19T08:42:01.627Z</time></trkpt><trkpt lat="40.4363902" lon="9.7496549"><ele>36.4</ele><time>2026-04-19T08:42:03.613Z</time></trkpt><trkpt lat="40.4364684" lon="9.7496452"><ele>36.0</ele><time>2026-04-19T08:42:04.611Z</time></trkpt><trkpt lat="40.4365345" lon="9.7496226"><ele>33.0</ele><time>2026-04-19T08:42:05.607Z</time></trkpt><trkpt lat="40.4366099" lon="9.7495718"><ele>33.0</ele><time>2026-04-19T08:42:07.607Z</time></trkpt></trkseg></trk></gpx>